<?xml version="1.0" encoding="UTF-8" standalone="no" ?>
<gpx xmlns="http://www.topografix.com/GPX/1/1" xmlns:xsi="http://www.w3.org/2001/XMLSchema-instance" xsi:schemaLocation="http://www.topografix.com/GPX/1/1 http://www.topografix.com/GPX/1/1/gpx.xsd" version="1.1" creator="VisuGPX - https://www.visugpx.com">
  <metadata>
    <name>Cross 10 km Jacques Chabert Biviers </name>
  </metadata>
  <trk>
    <name><![CDATA[Parcours du cross 9km via école ]]></name>
    <trkseg>
      <trkpt lat="45.23801" lon="5.80249">
        <ele>425.7</ele>
        <time>2025-03-21T11:43:08Z</time>
      </trkpt>
      <trkpt lat="45.23804" lon="5.80242">
        <ele>424.2</ele>
        <time>2025-03-21T11:43:21Z</time>
      </trkpt>
      <trkpt lat="45.23809" lon="5.80238">
        <ele>422</ele>
        <time>2025-03-21T11:43:24Z</time>
      </trkpt>
      <trkpt lat="45.23813" lon="5.80234">
        <ele>421.6</ele>
        <time>2025-03-21T11:43:26Z</time>
      </trkpt>
      <trkpt lat="45.23817" lon="5.8023">
        <ele>420.6</ele>
        <time>2025-03-21T11:43:28Z</time>
      </trkpt>
      <trkpt lat="45.23818" lon="5.80222">
        <ele>419.2</ele>
        <time>2025-03-21T11:43:32Z</time>
      </trkpt>
      <trkpt lat="45.23814" lon="5.80214">
        <ele>417.9</ele>
        <time>2025-03-21T11:43:35Z</time>
      </trkpt>
      <trkpt lat="45.23812" lon="5.80208">
        <ele>416.7</ele>
        <time>2025-03-21T11:43:47Z</time>
      </trkpt>
      <trkpt lat="45.2381" lon="5.80202">
        <ele>415.2</ele>
        <time>2025-03-21T11:43:50Z</time>
      </trkpt>
      <trkpt lat="45.23807" lon="5.80197">
        <ele>414.2</ele>
        <time>2025-03-21T11:43:52Z</time>
      </trkpt>
      <trkpt lat="45.23805" lon="5.80191">
        <ele>413.6</ele>
        <time>2025-03-21T11:43:54Z</time>
      </trkpt>
      <trkpt lat="45.23802" lon="5.80184">
        <ele>412.8</ele>
        <time>2025-03-21T11:43:56Z</time>
      </trkpt>
      <trkpt lat="45.23799" lon="5.80177">
        <ele>411.4</ele>
        <time>2025-03-21T11:43:58Z</time>
      </trkpt>
      <trkpt lat="45.23796" lon="5.8017">
        <ele>411.2</ele>
        <time>2025-03-21T11:44:00Z</time>
      </trkpt>
      <trkpt lat="45.23793" lon="5.80164">
        <ele>410.8</ele>
        <time>2025-03-21T11:44:02Z</time>
      </trkpt>
      <trkpt lat="45.2379" lon="5.80157">
        <ele>410.5</ele>
        <time>2025-03-21T11:44:04Z</time>
      </trkpt>
      <trkpt lat="45.23788" lon="5.80151">
        <ele>409.6</ele>
        <time>2025-03-21T11:44:06Z</time>
      </trkpt>
      <trkpt lat="45.23785" lon="5.80144">
        <ele>408.9</ele>
        <time>2025-03-21T11:44:08Z</time>
      </trkpt>
      <trkpt lat="45.23783" lon="5.80137">
        <ele>408.6</ele>
        <time>2025-03-21T11:44:10Z</time>
      </trkpt>
      <trkpt lat="45.2378" lon="5.80131">
        <ele>408.1</ele>
        <time>2025-03-21T11:44:12Z</time>
      </trkpt>
      <trkpt lat="45.23778" lon="5.80124">
        <ele>408</ele>
        <time>2025-03-21T11:44:14Z</time>
      </trkpt>
      <trkpt lat="45.23775" lon="5.80118">
        <ele>408.2</ele>
        <time>2025-03-21T11:44:16Z</time>
      </trkpt>
      <trkpt lat="45.23772" lon="5.80112">
        <ele>409.3</ele>
        <time>2025-03-21T11:44:19Z</time>
      </trkpt>
      <trkpt lat="45.23768" lon="5.80117">
        <ele>409.5</ele>
        <time>2025-03-21T11:44:22Z</time>
      </trkpt>
      <trkpt lat="45.23764" lon="5.80121">
        <ele>409.3</ele>
        <time>2025-03-21T11:44:24Z</time>
      </trkpt>
      <trkpt lat="45.23759" lon="5.80125">
        <ele>408.8</ele>
        <time>2025-03-21T11:44:26Z</time>
      </trkpt>
      <trkpt lat="45.23755" lon="5.80128">
        <ele>407.6</ele>
        <time>2025-03-21T11:44:28Z</time>
      </trkpt>
      <trkpt lat="45.23751" lon="5.80133">
        <ele>407.4</ele>
        <time>2025-03-21T11:44:30Z</time>
      </trkpt>
      <trkpt lat="45.23746" lon="5.80138">
        <ele>407.4</ele>
        <time>2025-03-21T11:44:32Z</time>
      </trkpt>
      <trkpt lat="45.2374" lon="5.80141">
        <ele>406.2</ele>
        <time>2025-03-21T11:44:34Z</time>
      </trkpt>
      <trkpt lat="45.23735" lon="5.80146">
        <ele>404.9</ele>
        <time>2025-03-21T11:44:36Z</time>
      </trkpt>
      <trkpt lat="45.2373" lon="5.80149">
        <ele>405</ele>
        <time>2025-03-21T11:44:38Z</time>
      </trkpt>
      <trkpt lat="45.23726" lon="5.80153">
        <ele>405.1</ele>
        <time>2025-03-21T11:44:40Z</time>
      </trkpt>
      <trkpt lat="45.23721" lon="5.80157">
        <ele>405.4</ele>
        <time>2025-03-21T11:44:42Z</time>
      </trkpt>
      <trkpt lat="45.23717" lon="5.8016">
        <ele>405.4</ele>
        <time>2025-03-21T11:44:44Z</time>
      </trkpt>
      <trkpt lat="45.23718" lon="5.80166">
        <ele>403.4</ele>
        <time>2025-03-21T11:44:48Z</time>
      </trkpt>
      <trkpt lat="45.23723" lon="5.80171">
        <ele>403.1</ele>
        <time>2025-03-21T11:44:50Z</time>
      </trkpt>
      <trkpt lat="45.23727" lon="5.80175">
        <ele>403.1</ele>
        <time>2025-03-21T11:44:51Z</time>
      </trkpt>
      <trkpt lat="45.23732" lon="5.80182">
        <ele>402.4</ele>
        <time>2025-03-21T11:44:53Z</time>
      </trkpt>
      <trkpt lat="45.23735" lon="5.80191">
        <ele>402.7</ele>
        <time>2025-03-21T11:44:55Z</time>
      </trkpt>
      <trkpt lat="45.23738" lon="5.80197">
        <ele>403</ele>
        <time>2025-03-21T11:44:57Z</time>
      </trkpt>
      <trkpt lat="45.2374" lon="5.80204">
        <ele>403.4</ele>
        <time>2025-03-21T11:44:59Z</time>
      </trkpt>
      <trkpt lat="45.23743" lon="5.8021">
        <ele>403.9</ele>
        <time>2025-03-21T11:45:01Z</time>
      </trkpt>
      <trkpt lat="45.23746" lon="5.80217">
        <ele>403.9</ele>
        <time>2025-03-21T11:45:03Z</time>
      </trkpt>
      <trkpt lat="45.23748" lon="5.80225">
        <ele>403.6</ele>
        <time>2025-03-21T11:45:05Z</time>
      </trkpt>
      <trkpt lat="45.23751" lon="5.80231">
        <ele>403.6</ele>
        <time>2025-03-21T11:45:07Z</time>
      </trkpt>
      <trkpt lat="45.23753" lon="5.80238">
        <ele>403.9</ele>
        <time>2025-03-21T11:45:09Z</time>
      </trkpt>
      <trkpt lat="45.23756" lon="5.80245">
        <ele>403.9</ele>
        <time>2025-03-21T11:45:11Z</time>
      </trkpt>
      <trkpt lat="45.23758" lon="5.80253">
        <ele>402.5</ele>
        <time>2025-03-21T11:45:13Z</time>
      </trkpt>
      <trkpt lat="45.2376" lon="5.8026">
        <ele>401.7</ele>
        <time>2025-03-21T11:45:15Z</time>
      </trkpt>
      <trkpt lat="45.23762" lon="5.80266">
        <ele>401.5</ele>
        <time>2025-03-21T11:45:17Z</time>
      </trkpt>
      <trkpt lat="45.23764" lon="5.80276">
        <ele>401.7</ele>
        <time>2025-03-21T11:45:20Z</time>
      </trkpt>
      <trkpt lat="45.23765" lon="5.80283">
        <ele>401.2</ele>
        <time>2025-03-21T11:45:22Z</time>
      </trkpt>
      <trkpt lat="45.23768" lon="5.80291">
        <ele>399.8</ele>
        <time>2025-03-21T11:45:24Z</time>
      </trkpt>
      <trkpt lat="45.23771" lon="5.80298">
        <ele>399.8</ele>
        <time>2025-03-21T11:45:26Z</time>
      </trkpt>
      <trkpt lat="45.23774" lon="5.80305">
        <ele>400.6</ele>
        <time>2025-03-21T11:45:56Z</time>
      </trkpt>
      <trkpt lat="45.23777" lon="5.8031">
        <ele>399.5</ele>
        <time>2025-03-21T11:45:58Z</time>
      </trkpt>
      <trkpt lat="45.2378" lon="5.80316">
        <ele>399</ele>
        <time>2025-03-21T11:46:00Z</time>
      </trkpt>
      <trkpt lat="45.23784" lon="5.80324">
        <ele>398.7</ele>
        <time>2025-03-21T11:46:02Z</time>
      </trkpt>
      <trkpt lat="45.23788" lon="5.80331">
        <ele>398.4</ele>
        <time>2025-03-21T11:46:04Z</time>
      </trkpt>
      <trkpt lat="45.23791" lon="5.80338">
        <ele>397.9</ele>
        <time>2025-03-21T11:46:06Z</time>
      </trkpt>
      <trkpt lat="45.23792" lon="5.80345">
        <ele>398</ele>
        <time>2025-03-21T11:46:08Z</time>
      </trkpt>
      <trkpt lat="45.23792" lon="5.80353">
        <ele>396.5</ele>
        <time>2025-03-21T11:46:11Z</time>
      </trkpt>
      <trkpt lat="45.23791" lon="5.80359">
        <ele>396.9</ele>
        <time>2025-03-21T11:46:14Z</time>
      </trkpt>
      <trkpt lat="45.23785" lon="5.80366">
        <ele>397.1</ele>
        <time>2025-03-21T11:46:17Z</time>
      </trkpt>
      <trkpt lat="45.23779" lon="5.80367">
        <ele>396.5</ele>
        <time>2025-03-21T11:46:20Z</time>
      </trkpt>
      <trkpt lat="45.23774" lon="5.80362">
        <ele>396.3</ele>
        <time>2025-03-21T11:46:22Z</time>
      </trkpt>
      <trkpt lat="45.23772" lon="5.80354">
        <ele>396.6</ele>
        <time>2025-03-21T11:46:24Z</time>
      </trkpt>
      <trkpt lat="45.2377" lon="5.80346">
        <ele>396.6</ele>
        <time>2025-03-21T11:46:26Z</time>
      </trkpt>
      <trkpt lat="45.23767" lon="5.80339">
        <ele>396.7</ele>
        <time>2025-03-21T11:46:28Z</time>
      </trkpt>
      <trkpt lat="45.23765" lon="5.80331">
        <ele>396.4</ele>
        <time>2025-03-21T11:46:30Z</time>
      </trkpt>
      <trkpt lat="45.23762" lon="5.80324">
        <ele>396.1</ele>
        <time>2025-03-21T11:46:32Z</time>
      </trkpt>
      <trkpt lat="45.2376" lon="5.80317">
        <ele>395.7</ele>
        <time>2025-03-21T11:46:34Z</time>
      </trkpt>
      <trkpt lat="45.23757" lon="5.8031">
        <ele>395.1</ele>
        <time>2025-03-21T11:46:36Z</time>
      </trkpt>
      <trkpt lat="45.23755" lon="5.80302">
        <ele>394.7</ele>
        <time>2025-03-21T11:46:38Z</time>
      </trkpt>
      <trkpt lat="45.23753" lon="5.80294">
        <ele>394.4</ele>
        <time>2025-03-21T11:46:40Z</time>
      </trkpt>
      <trkpt lat="45.23751" lon="5.80283">
        <ele>394.5</ele>
        <time>2025-03-21T11:46:42Z</time>
      </trkpt>
      <trkpt lat="45.23749" lon="5.80277">
        <ele>394.6</ele>
        <time>2025-03-21T11:46:44Z</time>
      </trkpt>
      <trkpt lat="45.23745" lon="5.80271">
        <ele>394.7</ele>
        <time>2025-03-21T11:46:46Z</time>
      </trkpt>
      <trkpt lat="45.23742" lon="5.80264">
        <ele>394.5</ele>
        <time>2025-03-21T11:46:48Z</time>
      </trkpt>
      <trkpt lat="45.2374" lon="5.80257">
        <ele>393.9</ele>
        <time>2025-03-21T11:46:50Z</time>
      </trkpt>
      <trkpt lat="45.23736" lon="5.80249">
        <ele>394.1</ele>
        <time>2025-03-21T11:46:53Z</time>
      </trkpt>
      <trkpt lat="45.23732" lon="5.80242">
        <ele>393.8</ele>
        <time>2025-03-21T11:46:55Z</time>
      </trkpt>
      <trkpt lat="45.23729" lon="5.80235">
        <ele>393.5</ele>
        <time>2025-03-21T11:46:57Z</time>
      </trkpt>
      <trkpt lat="45.23727" lon="5.80228">
        <ele>392.8</ele>
        <time>2025-03-21T11:46:59Z</time>
      </trkpt>
      <trkpt lat="45.23724" lon="5.80222">
        <ele>392</ele>
        <time>2025-03-21T11:47:01Z</time>
      </trkpt>
      <trkpt lat="45.23721" lon="5.80215">
        <ele>391.7</ele>
        <time>2025-03-21T11:47:03Z</time>
      </trkpt>
      <trkpt lat="45.23719" lon="5.80208">
        <ele>391.4</ele>
        <time>2025-03-21T11:47:05Z</time>
      </trkpt>
      <trkpt lat="45.23715" lon="5.80201">
        <ele>391.1</ele>
        <time>2025-03-21T11:47:07Z</time>
      </trkpt>
      <trkpt lat="45.23713" lon="5.80195">
        <ele>392.2</ele>
        <time>2025-03-21T11:47:09Z</time>
      </trkpt>
      <trkpt lat="45.2371" lon="5.80187">
        <ele>392.7</ele>
        <time>2025-03-21T11:47:12Z</time>
      </trkpt>
      <trkpt lat="45.23708" lon="5.80179">
        <ele>393.8</ele>
        <time>2025-03-21T11:47:14Z</time>
      </trkpt>
      <trkpt lat="45.23704" lon="5.8017">
        <ele>394</ele>
        <time>2025-03-21T11:47:16Z</time>
      </trkpt>
      <trkpt lat="45.237" lon="5.80163">
        <ele>393.8</ele>
        <time>2025-03-21T11:47:18Z</time>
      </trkpt>
      <trkpt lat="45.23696" lon="5.80157">
        <ele>393.1</ele>
        <time>2025-03-21T11:47:20Z</time>
      </trkpt>
      <trkpt lat="45.23694" lon="5.80149">
        <ele>392.2</ele>
        <time>2025-03-21T11:47:22Z</time>
      </trkpt>
      <trkpt lat="45.23691" lon="5.80143">
        <ele>391.7</ele>
        <time>2025-03-21T11:47:24Z</time>
      </trkpt>
      <trkpt lat="45.23688" lon="5.80138">
        <ele>391.6</ele>
        <time>2025-03-21T11:47:26Z</time>
      </trkpt>
      <trkpt lat="45.23686" lon="5.80131">
        <ele>392.9</ele>
        <time>2025-03-21T11:47:29Z</time>
      </trkpt>
      <trkpt lat="45.23682" lon="5.80127">
        <ele>393</ele>
        <time>2025-03-21T11:47:31Z</time>
      </trkpt>
      <trkpt lat="45.23677" lon="5.80121">
        <ele>393.6</ele>
        <time>2025-03-21T11:47:33Z</time>
      </trkpt>
      <trkpt lat="45.23673" lon="5.80114">
        <ele>395.5</ele>
        <time>2025-03-21T11:47:35Z</time>
      </trkpt>
      <trkpt lat="45.23669" lon="5.80107">
        <ele>396.6</ele>
        <time>2025-03-21T11:47:38Z</time>
      </trkpt>
      <trkpt lat="45.23665" lon="5.80098">
        <ele>397</ele>
        <time>2025-03-21T11:47:40Z</time>
      </trkpt>
      <trkpt lat="45.23661" lon="5.8009">
        <ele>397.2</ele>
        <time>2025-03-21T11:47:42Z</time>
      </trkpt>
      <trkpt lat="45.2366" lon="5.80082">
        <ele>397.4</ele>
        <time>2025-03-21T11:47:44Z</time>
      </trkpt>
      <trkpt lat="45.2366" lon="5.80074">
        <ele>397.6</ele>
        <time>2025-03-21T11:47:46Z</time>
      </trkpt>
      <trkpt lat="45.23659" lon="5.80065">
        <ele>397</ele>
        <time>2025-03-21T11:47:48Z</time>
      </trkpt>
      <trkpt lat="45.23658" lon="5.80056">
        <ele>396.6</ele>
        <time>2025-03-21T11:47:50Z</time>
      </trkpt>
      <trkpt lat="45.23658" lon="5.80047">
        <ele>396.3</ele>
        <time>2025-03-21T11:47:52Z</time>
      </trkpt>
      <trkpt lat="45.23659" lon="5.80036">
        <ele>395.2</ele>
        <time>2025-03-21T11:47:54Z</time>
      </trkpt>
      <trkpt lat="45.23658" lon="5.80029">
        <ele>394.1</ele>
        <time>2025-03-21T11:47:56Z</time>
      </trkpt>
      <trkpt lat="45.23656" lon="5.80021">
        <ele>393.6</ele>
        <time>2025-03-21T11:47:58Z</time>
      </trkpt>
      <trkpt lat="45.23653" lon="5.80014">
        <ele>393.2</ele>
        <time>2025-03-21T11:48:00Z</time>
      </trkpt>
      <trkpt lat="45.2365" lon="5.80006">
        <ele>392.2</ele>
        <time>2025-03-21T11:48:02Z</time>
      </trkpt>
      <trkpt lat="45.23647" lon="5.8">
        <ele>390.1</ele>
        <time>2025-03-21T11:48:04Z</time>
      </trkpt>
      <trkpt lat="45.23644" lon="5.79994">
        <ele>389.3</ele>
        <time>2025-03-21T11:48:06Z</time>
      </trkpt>
      <trkpt lat="45.2364" lon="5.79988">
        <ele>389</ele>
        <time>2025-03-21T11:48:08Z</time>
      </trkpt>
      <trkpt lat="45.23635" lon="5.79982">
        <ele>388.8</ele>
        <time>2025-03-21T11:48:10Z</time>
      </trkpt>
      <trkpt lat="45.23631" lon="5.79978">
        <ele>388.4</ele>
        <time>2025-03-21T11:48:12Z</time>
      </trkpt>
      <trkpt lat="45.23626" lon="5.79973">
        <ele>388.2</ele>
        <time>2025-03-21T11:48:14Z</time>
      </trkpt>
      <trkpt lat="45.2362" lon="5.7997">
        <ele>388.2</ele>
        <time>2025-03-21T11:48:16Z</time>
      </trkpt>
      <trkpt lat="45.23615" lon="5.79968">
        <ele>387.9</ele>
        <time>2025-03-21T11:48:18Z</time>
      </trkpt>
      <trkpt lat="45.23609" lon="5.79966">
        <ele>387.3</ele>
        <time>2025-03-21T11:48:20Z</time>
      </trkpt>
      <trkpt lat="45.23603" lon="5.79966">
        <ele>386.7</ele>
        <time>2025-03-21T11:48:22Z</time>
      </trkpt>
      <trkpt lat="45.23597" lon="5.79966">
        <ele>385.4</ele>
        <time>2025-03-21T11:48:24Z</time>
      </trkpt>
      <trkpt lat="45.2359" lon="5.79967">
        <ele>384.6</ele>
        <time>2025-03-21T11:48:26Z</time>
      </trkpt>
      <trkpt lat="45.23584" lon="5.79967">
        <ele>383.3</ele>
        <time>2025-03-21T11:48:28Z</time>
      </trkpt>
      <trkpt lat="45.23578" lon="5.79968">
        <ele>382.1</ele>
        <time>2025-03-21T11:48:30Z</time>
      </trkpt>
      <trkpt lat="45.23572" lon="5.79969">
        <ele>380.6</ele>
        <time>2025-03-21T11:48:32Z</time>
      </trkpt>
      <trkpt lat="45.23566" lon="5.79969">
        <ele>379.9</ele>
        <time>2025-03-21T11:48:34Z</time>
      </trkpt>
      <trkpt lat="45.23561" lon="5.79969">
        <ele>379.8</ele>
        <time>2025-03-21T11:48:36Z</time>
      </trkpt>
      <trkpt lat="45.23555" lon="5.79969">
        <ele>379.6</ele>
        <time>2025-03-21T11:48:38Z</time>
      </trkpt>
      <trkpt lat="45.23549" lon="5.79969">
        <ele>379.4</ele>
        <time>2025-03-21T11:48:40Z</time>
      </trkpt>
      <trkpt lat="45.23542" lon="5.79969">
        <ele>379.3</ele>
        <time>2025-03-21T11:48:42Z</time>
      </trkpt>
      <trkpt lat="45.23536" lon="5.7997">
        <ele>379.4</ele>
        <time>2025-03-21T11:48:44Z</time>
      </trkpt>
      <trkpt lat="45.2353" lon="5.79969">
        <ele>379.2</ele>
        <time>2025-03-21T11:48:46Z</time>
      </trkpt>
      <trkpt lat="45.23525" lon="5.79969">
        <ele>378.4</ele>
        <time>2025-03-21T11:48:48Z</time>
      </trkpt>
      <trkpt lat="45.23519" lon="5.79969">
        <ele>377.9</ele>
        <time>2025-03-21T11:48:50Z</time>
      </trkpt>
      <trkpt lat="45.23514" lon="5.79968">
        <ele>377.5</ele>
        <time>2025-03-21T11:48:52Z</time>
      </trkpt>
      <trkpt lat="45.23509" lon="5.79968">
        <ele>377</ele>
        <time>2025-03-21T11:48:54Z</time>
      </trkpt>
      <trkpt lat="45.23504" lon="5.79968">
        <ele>375.8</ele>
        <time>2025-03-21T11:48:56Z</time>
      </trkpt>
      <trkpt lat="45.23498" lon="5.79967">
        <ele>375.4</ele>
        <time>2025-03-21T11:48:58Z</time>
      </trkpt>
      <trkpt lat="45.23494" lon="5.79967">
        <ele>375.1</ele>
        <time>2025-03-21T11:49:00Z</time>
      </trkpt>
      <trkpt lat="45.23488" lon="5.79967">
        <ele>374</ele>
        <time>2025-03-21T11:49:02Z</time>
      </trkpt>
      <trkpt lat="45.23483" lon="5.79969">
        <ele>373.6</ele>
        <time>2025-03-21T11:49:04Z</time>
      </trkpt>
      <trkpt lat="45.23477" lon="5.7997">
        <ele>373.2</ele>
        <time>2025-03-21T11:49:06Z</time>
      </trkpt>
      <trkpt lat="45.23472" lon="5.79971">
        <ele>373</ele>
        <time>2025-03-21T11:49:08Z</time>
      </trkpt>
      <trkpt lat="45.23466" lon="5.79971">
        <ele>372.4</ele>
        <time>2025-03-21T11:49:10Z</time>
      </trkpt>
      <trkpt lat="45.2346" lon="5.7997">
        <ele>371.2</ele>
        <time>2025-03-21T11:49:13Z</time>
      </trkpt>
      <trkpt lat="45.23453" lon="5.79971">
        <ele>370.3</ele>
        <time>2025-03-21T11:49:15Z</time>
      </trkpt>
      <trkpt lat="45.23448" lon="5.79971">
        <ele>369.5</ele>
        <time>2025-03-21T11:49:17Z</time>
      </trkpt>
      <trkpt lat="45.23442" lon="5.79972">
        <ele>368.6</ele>
        <time>2025-03-21T11:49:19Z</time>
      </trkpt>
      <trkpt lat="45.23436" lon="5.79972">
        <ele>368.8</ele>
        <time>2025-03-21T11:49:21Z</time>
      </trkpt>
      <trkpt lat="45.23432" lon="5.79971">
        <ele>368.9</ele>
        <time>2025-03-21T11:49:23Z</time>
      </trkpt>
      <trkpt lat="45.23426" lon="5.79972">
        <ele>369</ele>
        <time>2025-03-21T11:49:25Z</time>
      </trkpt>
      <trkpt lat="45.2342" lon="5.79973">
        <ele>369.3</ele>
        <time>2025-03-21T11:49:27Z</time>
      </trkpt>
      <trkpt lat="45.23414" lon="5.79975">
        <ele>369.7</ele>
        <time>2025-03-21T11:49:29Z</time>
      </trkpt>
      <trkpt lat="45.23407" lon="5.79976">
        <ele>370.1</ele>
        <time>2025-03-21T11:49:31Z</time>
      </trkpt>
      <trkpt lat="45.23401" lon="5.79979">
        <ele>370.3</ele>
        <time>2025-03-21T11:49:33Z</time>
      </trkpt>
      <trkpt lat="45.23395" lon="5.79982">
        <ele>370.1</ele>
        <time>2025-03-21T11:49:35Z</time>
      </trkpt>
      <trkpt lat="45.2339" lon="5.79986">
        <ele>369.8</ele>
        <time>2025-03-21T11:49:37Z</time>
      </trkpt>
      <trkpt lat="45.23384" lon="5.79989">
        <ele>369</ele>
        <time>2025-03-21T11:49:39Z</time>
      </trkpt>
      <trkpt lat="45.23378" lon="5.79993">
        <ele>368.4</ele>
        <time>2025-03-21T11:49:41Z</time>
      </trkpt>
      <trkpt lat="45.23372" lon="5.79995">
        <ele>368.2</ele>
        <time>2025-03-21T11:49:43Z</time>
      </trkpt>
      <trkpt lat="45.23366" lon="5.79997">
        <ele>368.2</ele>
        <time>2025-03-21T11:49:45Z</time>
      </trkpt>
      <trkpt lat="45.2336" lon="5.79997">
        <ele>368.1</ele>
        <time>2025-03-21T11:49:47Z</time>
      </trkpt>
      <trkpt lat="45.23356" lon="5.80003">
        <ele>368.2</ele>
        <time>2025-03-21T11:49:51Z</time>
      </trkpt>
      <trkpt lat="45.23357" lon="5.80012">
        <ele>368.3</ele>
        <time>2025-03-21T11:49:54Z</time>
      </trkpt>
      <trkpt lat="45.23362" lon="5.80017">
        <ele>367.9</ele>
        <time>2025-03-21T11:49:57Z</time>
      </trkpt>
      <trkpt lat="45.23363" lon="5.80025">
        <ele>367.1</ele>
        <time>2025-03-21T11:50:00Z</time>
      </trkpt>
      <trkpt lat="45.23363" lon="5.80032">
        <ele>367.1</ele>
        <time>2025-03-21T11:50:02Z</time>
      </trkpt>
      <trkpt lat="45.23366" lon="5.80039">
        <ele>365.3</ele>
        <time>2025-03-21T11:50:05Z</time>
      </trkpt>
      <trkpt lat="45.23368" lon="5.80046">
        <ele>365</ele>
        <time>2025-03-21T11:50:07Z</time>
      </trkpt>
      <trkpt lat="45.23369" lon="5.80054">
        <ele>365.8</ele>
        <time>2025-03-21T11:50:11Z</time>
      </trkpt>
      <trkpt lat="45.2337" lon="5.80062">
        <ele>365.4</ele>
        <time>2025-03-21T11:50:14Z</time>
      </trkpt>
      <trkpt lat="45.23372" lon="5.80068">
        <ele>367</ele>
        <time>2025-03-21T11:50:30Z</time>
      </trkpt>
      <trkpt lat="45.23371" lon="5.80076">
        <ele>366.8</ele>
        <time>2025-03-21T11:50:32Z</time>
      </trkpt>
      <trkpt lat="45.2337" lon="5.80084">
        <ele>366</ele>
        <time>2025-03-21T11:50:34Z</time>
      </trkpt>
      <trkpt lat="45.23368" lon="5.8009">
        <ele>365.6</ele>
        <time>2025-03-21T11:50:37Z</time>
      </trkpt>
      <trkpt lat="45.23366" lon="5.80097">
        <ele>366.6</ele>
        <time>2025-03-21T11:50:43Z</time>
      </trkpt>
      <trkpt lat="45.23364" lon="5.80103">
        <ele>366.5</ele>
        <time>2025-03-21T11:50:46Z</time>
      </trkpt>
      <trkpt lat="45.23367" lon="5.80111">
        <ele>364.3</ele>
        <time>2025-03-21T11:50:49Z</time>
      </trkpt>
      <trkpt lat="45.23371" lon="5.80116">
        <ele>361.9</ele>
        <time>2025-03-21T11:50:51Z</time>
      </trkpt>
      <trkpt lat="45.23373" lon="5.80124">
        <ele>357.4</ele>
        <time>2025-03-21T11:50:54Z</time>
      </trkpt>
      <trkpt lat="45.23378" lon="5.80127">
        <ele>355.8</ele>
        <time>2025-03-21T11:50:56Z</time>
      </trkpt>
      <trkpt lat="45.23384" lon="5.80132">
        <ele>355</ele>
        <time>2025-03-21T11:50:58Z</time>
      </trkpt>
      <trkpt lat="45.2339" lon="5.80136">
        <ele>354.4</ele>
        <time>2025-03-21T11:51:00Z</time>
      </trkpt>
      <trkpt lat="45.23394" lon="5.80143">
        <ele>353.4</ele>
        <time>2025-03-21T11:51:02Z</time>
      </trkpt>
      <trkpt lat="45.23391" lon="5.80151">
        <ele>351.7</ele>
        <time>2025-03-21T11:51:04Z</time>
      </trkpt>
      <trkpt lat="45.23386" lon="5.80157">
        <ele>349.3</ele>
        <time>2025-03-21T11:51:06Z</time>
      </trkpt>
      <trkpt lat="45.23382" lon="5.80162">
        <ele>349.4</ele>
        <time>2025-03-21T11:51:08Z</time>
      </trkpt>
      <trkpt lat="45.23377" lon="5.80169">
        <ele>349.7</ele>
        <time>2025-03-21T11:51:10Z</time>
      </trkpt>
      <trkpt lat="45.23372" lon="5.80177">
        <ele>350.1</ele>
        <time>2025-03-21T11:51:12Z</time>
      </trkpt>
      <trkpt lat="45.23367" lon="5.80183">
        <ele>350.7</ele>
        <time>2025-03-21T11:51:14Z</time>
      </trkpt>
      <trkpt lat="45.23364" lon="5.80189">
        <ele>350.7</ele>
        <time>2025-03-21T11:51:16Z</time>
      </trkpt>
      <trkpt lat="45.2336" lon="5.80197">
        <ele>350.6</ele>
        <time>2025-03-21T11:51:18Z</time>
      </trkpt>
      <trkpt lat="45.23356" lon="5.80208">
        <ele>350.3</ele>
        <time>2025-03-21T11:51:20Z</time>
      </trkpt>
      <trkpt lat="45.23355" lon="5.80215">
        <ele>350.2</ele>
        <time>2025-03-21T11:51:21Z</time>
      </trkpt>
      <trkpt lat="45.23353" lon="5.80224">
        <ele>349.9</ele>
        <time>2025-03-21T11:51:23Z</time>
      </trkpt>
      <trkpt lat="45.23351" lon="5.8023">
        <ele>349.9</ele>
        <time>2025-03-21T11:51:25Z</time>
      </trkpt>
      <trkpt lat="45.23349" lon="5.80237">
        <ele>349.3</ele>
        <time>2025-03-21T11:51:27Z</time>
      </trkpt>
      <trkpt lat="45.23345" lon="5.80244">
        <ele>349</ele>
        <time>2025-03-21T11:51:31Z</time>
      </trkpt>
      <trkpt lat="45.23339" lon="5.8025">
        <ele>348.7</ele>
        <time>2025-03-21T11:51:33Z</time>
      </trkpt>
      <trkpt lat="45.23335" lon="5.80254">
        <ele>347.7</ele>
        <time>2025-03-21T11:51:35Z</time>
      </trkpt>
      <trkpt lat="45.2333" lon="5.80256">
        <ele>346.1</ele>
        <time>2025-03-21T11:51:37Z</time>
      </trkpt>
      <trkpt lat="45.23325" lon="5.80256">
        <ele>344.6</ele>
        <time>2025-03-21T11:51:39Z</time>
      </trkpt>
      <trkpt lat="45.2332" lon="5.80251">
        <ele>343.3</ele>
        <time>2025-03-21T11:51:41Z</time>
      </trkpt>
      <trkpt lat="45.23316" lon="5.80245">
        <ele>343.1</ele>
        <time>2025-03-21T11:51:43Z</time>
      </trkpt>
      <trkpt lat="45.23311" lon="5.8024">
        <ele>343</ele>
        <time>2025-03-21T11:51:45Z</time>
      </trkpt>
      <trkpt lat="45.23307" lon="5.80234">
        <ele>342.9</ele>
        <time>2025-03-21T11:51:47Z</time>
      </trkpt>
      <trkpt lat="45.23302" lon="5.80229">
        <ele>342.8</ele>
        <time>2025-03-21T11:51:49Z</time>
      </trkpt>
      <trkpt lat="45.23298" lon="5.80225">
        <ele>342.9</ele>
        <time>2025-03-21T11:51:51Z</time>
      </trkpt>
      <trkpt lat="45.23293" lon="5.80219">
        <ele>343</ele>
        <time>2025-03-21T11:51:53Z</time>
      </trkpt>
      <trkpt lat="45.23288" lon="5.80215">
        <ele>343</ele>
        <time>2025-03-21T11:51:55Z</time>
      </trkpt>
      <trkpt lat="45.23284" lon="5.8021">
        <ele>343.2</ele>
        <time>2025-03-21T11:51:57Z</time>
      </trkpt>
      <trkpt lat="45.23279" lon="5.80206">
        <ele>343.6</ele>
        <time>2025-03-21T11:51:59Z</time>
      </trkpt>
      <trkpt lat="45.23275" lon="5.80201">
        <ele>344</ele>
        <time>2025-03-21T11:52:01Z</time>
      </trkpt>
      <trkpt lat="45.23271" lon="5.80197">
        <ele>344.3</ele>
        <time>2025-03-21T11:52:03Z</time>
      </trkpt>
      <trkpt lat="45.23267" lon="5.80193">
        <ele>344.8</ele>
        <time>2025-03-21T11:52:05Z</time>
      </trkpt>
      <trkpt lat="45.23262" lon="5.80188">
        <ele>345.2</ele>
        <time>2025-03-21T11:52:08Z</time>
      </trkpt>
      <trkpt lat="45.23256" lon="5.80184">
        <ele>345.8</ele>
        <time>2025-03-21T11:52:11Z</time>
      </trkpt>
      <trkpt lat="45.23251" lon="5.80184">
        <ele>346.5</ele>
        <time>2025-03-21T11:52:13Z</time>
      </trkpt>
      <trkpt lat="45.23248" lon="5.80189">
        <ele>346.5</ele>
        <time>2025-03-21T11:52:15Z</time>
      </trkpt>
      <trkpt lat="45.23243" lon="5.80194">
        <ele>346.2</ele>
        <time>2025-03-21T11:52:17Z</time>
      </trkpt>
      <trkpt lat="45.23239" lon="5.802">
        <ele>345.4</ele>
        <time>2025-03-21T11:52:19Z</time>
      </trkpt>
      <trkpt lat="45.23236" lon="5.80206">
        <ele>344.7</ele>
        <time>2025-03-21T11:52:21Z</time>
      </trkpt>
      <trkpt lat="45.23232" lon="5.80211">
        <ele>344.3</ele>
        <time>2025-03-21T11:52:23Z</time>
      </trkpt>
      <trkpt lat="45.23229" lon="5.80217">
        <ele>343.9</ele>
        <time>2025-03-21T11:52:25Z</time>
      </trkpt>
      <trkpt lat="45.23225" lon="5.80223">
        <ele>343.7</ele>
        <time>2025-03-21T11:52:27Z</time>
      </trkpt>
      <trkpt lat="45.23221" lon="5.80229">
        <ele>343.4</ele>
        <time>2025-03-21T11:52:29Z</time>
      </trkpt>
      <trkpt lat="45.23216" lon="5.80234">
        <ele>342.9</ele>
        <time>2025-03-21T11:52:31Z</time>
      </trkpt>
      <trkpt lat="45.23211" lon="5.80235">
        <ele>342.6</ele>
        <time>2025-03-21T11:52:33Z</time>
      </trkpt>
      <trkpt lat="45.23207" lon="5.8023">
        <ele>342.5</ele>
        <time>2025-03-21T11:52:35Z</time>
      </trkpt>
      <trkpt lat="45.23202" lon="5.80224">
        <ele>342.3</ele>
        <time>2025-03-21T11:52:37Z</time>
      </trkpt>
      <trkpt lat="45.23197" lon="5.80219">
        <ele>342.3</ele>
        <time>2025-03-21T11:52:39Z</time>
      </trkpt>
      <trkpt lat="45.23192" lon="5.80214">
        <ele>342.7</ele>
        <time>2025-03-21T11:52:41Z</time>
      </trkpt>
      <trkpt lat="45.23188" lon="5.80209">
        <ele>343</ele>
        <time>2025-03-21T11:52:43Z</time>
      </trkpt>
      <trkpt lat="45.23183" lon="5.80205">
        <ele>343.3</ele>
        <time>2025-03-21T11:52:45Z</time>
      </trkpt>
      <trkpt lat="45.23179" lon="5.802">
        <ele>343.6</ele>
        <time>2025-03-21T11:52:47Z</time>
      </trkpt>
      <trkpt lat="45.23174" lon="5.80194">
        <ele>344</ele>
        <time>2025-03-21T11:52:49Z</time>
      </trkpt>
      <trkpt lat="45.2317" lon="5.80189">
        <ele>344.4</ele>
        <time>2025-03-21T11:52:51Z</time>
      </trkpt>
      <trkpt lat="45.23165" lon="5.80184">
        <ele>344.5</ele>
        <time>2025-03-21T11:52:53Z</time>
      </trkpt>
      <trkpt lat="45.2316" lon="5.80179">
        <ele>344.8</ele>
        <time>2025-03-21T11:52:55Z</time>
      </trkpt>
      <trkpt lat="45.23155" lon="5.80173">
        <ele>345.1</ele>
        <time>2025-03-21T11:52:57Z</time>
      </trkpt>
      <trkpt lat="45.23151" lon="5.80169">
        <ele>345.3</ele>
        <time>2025-03-21T11:52:59Z</time>
      </trkpt>
      <trkpt lat="45.23147" lon="5.80164">
        <ele>345.4</ele>
        <time>2025-03-21T11:53:01Z</time>
      </trkpt>
      <trkpt lat="45.23144" lon="5.80159">
        <ele>346.4</ele>
        <time>2025-03-21T11:53:04Z</time>
      </trkpt>
      <trkpt lat="45.2314" lon="5.80154">
        <ele>347.7</ele>
        <time>2025-03-21T11:53:06Z</time>
      </trkpt>
      <trkpt lat="45.23135" lon="5.8015">
        <ele>348.2</ele>
        <time>2025-03-21T11:53:08Z</time>
      </trkpt>
      <trkpt lat="45.23131" lon="5.80145">
        <ele>349.5</ele>
        <time>2025-03-21T11:53:10Z</time>
      </trkpt>
      <trkpt lat="45.23127" lon="5.8014">
        <ele>350.3</ele>
        <time>2025-03-21T11:53:12Z</time>
      </trkpt>
      <trkpt lat="45.23123" lon="5.80135">
        <ele>352</ele>
        <time>2025-03-21T11:53:14Z</time>
      </trkpt>
      <trkpt lat="45.23118" lon="5.8013">
        <ele>352.7</ele>
        <time>2025-03-21T11:53:16Z</time>
      </trkpt>
      <trkpt lat="45.23114" lon="5.80125">
        <ele>353.3</ele>
        <time>2025-03-21T11:53:18Z</time>
      </trkpt>
      <trkpt lat="45.23109" lon="5.80121">
        <ele>353.5</ele>
        <time>2025-03-21T11:53:20Z</time>
      </trkpt>
      <trkpt lat="45.23105" lon="5.80117">
        <ele>353.3</ele>
        <time>2025-03-21T11:53:22Z</time>
      </trkpt>
      <trkpt lat="45.23101" lon="5.80112">
        <ele>353</ele>
        <time>2025-03-21T11:53:24Z</time>
      </trkpt>
      <trkpt lat="45.23096" lon="5.80107">
        <ele>352.9</ele>
        <time>2025-03-21T11:53:26Z</time>
      </trkpt>
      <trkpt lat="45.23092" lon="5.80102">
        <ele>353.2</ele>
        <time>2025-03-21T11:53:28Z</time>
      </trkpt>
      <trkpt lat="45.23088" lon="5.80096">
        <ele>353.6</ele>
        <time>2025-03-21T11:53:30Z</time>
      </trkpt>
      <trkpt lat="45.23084" lon="5.8009">
        <ele>353.4</ele>
        <time>2025-03-21T11:53:32Z</time>
      </trkpt>
      <trkpt lat="45.2308" lon="5.80084">
        <ele>353</ele>
        <time>2025-03-21T11:53:34Z</time>
      </trkpt>
      <trkpt lat="45.23075" lon="5.80078">
        <ele>353</ele>
        <time>2025-03-21T11:53:36Z</time>
      </trkpt>
      <trkpt lat="45.23069" lon="5.80073">
        <ele>352.8</ele>
        <time>2025-03-21T11:53:38Z</time>
      </trkpt>
      <trkpt lat="45.23064" lon="5.80067">
        <ele>352.4</ele>
        <time>2025-03-21T11:53:40Z</time>
      </trkpt>
      <trkpt lat="45.23059" lon="5.8006">
        <ele>352</ele>
        <time>2025-03-21T11:53:42Z</time>
      </trkpt>
      <trkpt lat="45.23054" lon="5.80054">
        <ele>351.8</ele>
        <time>2025-03-21T11:53:44Z</time>
      </trkpt>
      <trkpt lat="45.23051" lon="5.80047">
        <ele>351.2</ele>
        <time>2025-03-21T11:53:46Z</time>
      </trkpt>
      <trkpt lat="45.23046" lon="5.8004">
        <ele>350.5</ele>
        <time>2025-03-21T11:53:48Z</time>
      </trkpt>
      <trkpt lat="45.23041" lon="5.80034">
        <ele>350.5</ele>
        <time>2025-03-21T11:53:50Z</time>
      </trkpt>
      <trkpt lat="45.23036" lon="5.80027">
        <ele>350.5</ele>
        <time>2025-03-21T11:53:52Z</time>
      </trkpt>
      <trkpt lat="45.23032" lon="5.80021">
        <ele>350.8</ele>
        <time>2025-03-21T11:53:54Z</time>
      </trkpt>
      <trkpt lat="45.23027" lon="5.80014">
        <ele>351.1</ele>
        <time>2025-03-21T11:53:56Z</time>
      </trkpt>
      <trkpt lat="45.23022" lon="5.80007">
        <ele>351.1</ele>
        <time>2025-03-21T11:53:58Z</time>
      </trkpt>
      <trkpt lat="45.23017" lon="5.8">
        <ele>351.1</ele>
        <time>2025-03-21T11:54:00Z</time>
      </trkpt>
      <trkpt lat="45.23013" lon="5.79994">
        <ele>350.9</ele>
        <time>2025-03-21T11:54:02Z</time>
      </trkpt>
      <trkpt lat="45.23008" lon="5.79988">
        <ele>350.8</ele>
        <time>2025-03-21T11:54:04Z</time>
      </trkpt>
      <trkpt lat="45.23004" lon="5.79982">
        <ele>350.9</ele>
        <time>2025-03-21T11:54:06Z</time>
      </trkpt>
      <trkpt lat="45.23001" lon="5.79977">
        <ele>351.3</ele>
        <time>2025-03-21T11:54:08Z</time>
      </trkpt>
      <trkpt lat="45.22997" lon="5.79972">
        <ele>351.3</ele>
        <time>2025-03-21T11:54:10Z</time>
      </trkpt>
      <trkpt lat="45.22993" lon="5.79967">
        <ele>351.1</ele>
        <time>2025-03-21T11:54:12Z</time>
      </trkpt>
      <trkpt lat="45.22989" lon="5.79961">
        <ele>350.9</ele>
        <time>2025-03-21T11:54:14Z</time>
      </trkpt>
      <trkpt lat="45.22986" lon="5.79955">
        <ele>350.8</ele>
        <time>2025-03-21T11:54:16Z</time>
      </trkpt>
      <trkpt lat="45.22983" lon="5.79949">
        <ele>350.8</ele>
        <time>2025-03-21T11:54:18Z</time>
      </trkpt>
      <trkpt lat="45.2298" lon="5.79943">
        <ele>350.8</ele>
        <time>2025-03-21T11:54:20Z</time>
      </trkpt>
      <trkpt lat="45.22976" lon="5.79937">
        <ele>350.7</ele>
        <time>2025-03-21T11:54:23Z</time>
      </trkpt>
      <trkpt lat="45.2297" lon="5.79935">
        <ele>350.5</ele>
        <time>2025-03-21T11:54:26Z</time>
      </trkpt>
      <trkpt lat="45.22965" lon="5.79938">
        <ele>350.1</ele>
        <time>2025-03-21T11:54:28Z</time>
      </trkpt>
      <trkpt lat="45.2296" lon="5.79941">
        <ele>348.9</ele>
        <time>2025-03-21T11:54:30Z</time>
      </trkpt>
      <trkpt lat="45.22955" lon="5.79945">
        <ele>348</ele>
        <time>2025-03-21T11:54:32Z</time>
      </trkpt>
      <trkpt lat="45.22951" lon="5.79949">
        <ele>347.3</ele>
        <time>2025-03-21T11:54:34Z</time>
      </trkpt>
      <trkpt lat="45.22946" lon="5.79954">
        <ele>347</ele>
        <time>2025-03-21T11:54:36Z</time>
      </trkpt>
      <trkpt lat="45.22942" lon="5.79957">
        <ele>346.3</ele>
        <time>2025-03-21T11:54:38Z</time>
      </trkpt>
      <trkpt lat="45.22936" lon="5.79954">
        <ele>346</ele>
        <time>2025-03-21T11:54:40Z</time>
      </trkpt>
      <trkpt lat="45.22932" lon="5.79946">
        <ele>345.6</ele>
        <time>2025-03-21T11:54:42Z</time>
      </trkpt>
      <trkpt lat="45.22928" lon="5.79939">
        <ele>345.4</ele>
        <time>2025-03-21T11:54:44Z</time>
      </trkpt>
      <trkpt lat="45.22926" lon="5.79932">
        <ele>344.8</ele>
        <time>2025-03-21T11:54:46Z</time>
      </trkpt>
      <trkpt lat="45.22923" lon="5.79925">
        <ele>344.7</ele>
        <time>2025-03-21T11:54:48Z</time>
      </trkpt>
      <trkpt lat="45.2292" lon="5.79919">
        <ele>344.9</ele>
        <time>2025-03-21T11:54:50Z</time>
      </trkpt>
      <trkpt lat="45.22918" lon="5.79913">
        <ele>344.9</ele>
        <time>2025-03-21T11:54:52Z</time>
      </trkpt>
      <trkpt lat="45.22916" lon="5.79907">
        <ele>345</ele>
        <time>2025-03-21T11:54:54Z</time>
      </trkpt>
      <trkpt lat="45.22913" lon="5.79901">
        <ele>347.4</ele>
        <time>2025-03-21T11:55:18Z</time>
      </trkpt>
      <trkpt lat="45.22908" lon="5.79894">
        <ele>347.1</ele>
        <time>2025-03-21T11:55:21Z</time>
      </trkpt>
      <trkpt lat="45.22904" lon="5.79886">
        <ele>346.5</ele>
        <time>2025-03-21T11:55:23Z</time>
      </trkpt>
      <trkpt lat="45.22901" lon="5.79878">
        <ele>346.3</ele>
        <time>2025-03-21T11:55:25Z</time>
      </trkpt>
      <trkpt lat="45.22898" lon="5.7987">
        <ele>346.1</ele>
        <time>2025-03-21T11:55:27Z</time>
      </trkpt>
      <trkpt lat="45.22896" lon="5.79862">
        <ele>345.9</ele>
        <time>2025-03-21T11:55:29Z</time>
      </trkpt>
      <trkpt lat="45.22893" lon="5.79855">
        <ele>346</ele>
        <time>2025-03-21T11:55:31Z</time>
      </trkpt>
      <trkpt lat="45.22891" lon="5.79848">
        <ele>345.9</ele>
        <time>2025-03-21T11:55:33Z</time>
      </trkpt>
      <trkpt lat="45.22888" lon="5.79842">
        <ele>345.8</ele>
        <time>2025-03-21T11:55:35Z</time>
      </trkpt>
      <trkpt lat="45.22885" lon="5.79835">
        <ele>345.7</ele>
        <time>2025-03-21T11:55:37Z</time>
      </trkpt>
      <trkpt lat="45.22883" lon="5.79828">
        <ele>345.6</ele>
        <time>2025-03-21T11:55:39Z</time>
      </trkpt>
      <trkpt lat="45.22879" lon="5.79822">
        <ele>345.4</ele>
        <time>2025-03-21T11:55:41Z</time>
      </trkpt>
      <trkpt lat="45.22876" lon="5.79816">
        <ele>344.9</ele>
        <time>2025-03-21T11:55:43Z</time>
      </trkpt>
      <trkpt lat="45.22872" lon="5.79809">
        <ele>344.4</ele>
        <time>2025-03-21T11:55:45Z</time>
      </trkpt>
      <trkpt lat="45.22868" lon="5.79802">
        <ele>344.3</ele>
        <time>2025-03-21T11:55:47Z</time>
      </trkpt>
      <trkpt lat="45.22864" lon="5.79794">
        <ele>344.3</ele>
        <time>2025-03-21T11:55:49Z</time>
      </trkpt>
      <trkpt lat="45.22861" lon="5.79786">
        <ele>344.3</ele>
        <time>2025-03-21T11:55:51Z</time>
      </trkpt>
      <trkpt lat="45.22858" lon="5.79778">
        <ele>344.2</ele>
        <time>2025-03-21T11:55:53Z</time>
      </trkpt>
      <trkpt lat="45.22855" lon="5.79771">
        <ele>344.2</ele>
        <time>2025-03-21T11:55:55Z</time>
      </trkpt>
      <trkpt lat="45.22852" lon="5.79764">
        <ele>344.5</ele>
        <time>2025-03-21T11:55:57Z</time>
      </trkpt>
      <trkpt lat="45.22849" lon="5.79757">
        <ele>344.5</ele>
        <time>2025-03-21T11:55:59Z</time>
      </trkpt>
      <trkpt lat="45.22846" lon="5.79749">
        <ele>344.7</ele>
        <time>2025-03-21T11:56:01Z</time>
      </trkpt>
      <trkpt lat="45.22843" lon="5.79741">
        <ele>344.9</ele>
        <time>2025-03-21T11:56:03Z</time>
      </trkpt>
      <trkpt lat="45.2284" lon="5.79732">
        <ele>344.9</ele>
        <time>2025-03-21T11:56:05Z</time>
      </trkpt>
      <trkpt lat="45.22836" lon="5.79724">
        <ele>344.6</ele>
        <time>2025-03-21T11:56:07Z</time>
      </trkpt>
      <trkpt lat="45.22832" lon="5.79715">
        <ele>343.9</ele>
        <time>2025-03-21T11:56:09Z</time>
      </trkpt>
      <trkpt lat="45.22828" lon="5.79706">
        <ele>343.7</ele>
        <time>2025-03-21T11:56:11Z</time>
      </trkpt>
      <trkpt lat="45.22825" lon="5.79698">
        <ele>343.6</ele>
        <time>2025-03-21T11:56:13Z</time>
      </trkpt>
      <trkpt lat="45.22821" lon="5.7969">
        <ele>343.2</ele>
        <time>2025-03-21T11:56:15Z</time>
      </trkpt>
      <trkpt lat="45.22817" lon="5.79681">
        <ele>343.2</ele>
        <time>2025-03-21T11:56:17Z</time>
      </trkpt>
      <trkpt lat="45.22814" lon="5.79673">
        <ele>343.1</ele>
        <time>2025-03-21T11:56:19Z</time>
      </trkpt>
      <trkpt lat="45.22812" lon="5.79665">
        <ele>343.2</ele>
        <time>2025-03-21T11:56:21Z</time>
      </trkpt>
      <trkpt lat="45.22808" lon="5.79658">
        <ele>343.1</ele>
        <time>2025-03-21T11:56:23Z</time>
      </trkpt>
      <trkpt lat="45.22805" lon="5.79651">
        <ele>342.8</ele>
        <time>2025-03-21T11:56:25Z</time>
      </trkpt>
      <trkpt lat="45.22802" lon="5.79643">
        <ele>341.4</ele>
        <time>2025-03-21T11:56:27Z</time>
      </trkpt>
      <trkpt lat="45.22798" lon="5.79632">
        <ele>340.4</ele>
        <time>2025-03-21T11:56:29Z</time>
      </trkpt>
      <trkpt lat="45.22796" lon="5.79626">
        <ele>340.2</ele>
        <time>2025-03-21T11:56:30Z</time>
      </trkpt>
      <trkpt lat="45.22791" lon="5.79616">
        <ele>338.7</ele>
        <time>2025-03-21T11:56:32Z</time>
      </trkpt>
      <trkpt lat="45.22787" lon="5.79606">
        <ele>338.4</ele>
        <time>2025-03-21T11:56:34Z</time>
      </trkpt>
      <trkpt lat="45.22783" lon="5.79597">
        <ele>338</ele>
        <time>2025-03-21T11:56:36Z</time>
      </trkpt>
      <trkpt lat="45.22779" lon="5.79588">
        <ele>337.8</ele>
        <time>2025-03-21T11:56:38Z</time>
      </trkpt>
      <trkpt lat="45.22777" lon="5.79583">
        <ele>337.9</ele>
        <time>2025-03-21T11:56:40Z</time>
      </trkpt>
      <trkpt lat="45.22775" lon="5.79575">
        <ele>338</ele>
        <time>2025-03-21T11:56:43Z</time>
      </trkpt>
      <trkpt lat="45.22778" lon="5.79568">
        <ele>337.8</ele>
        <time>2025-03-21T11:56:46Z</time>
      </trkpt>
      <trkpt lat="45.22784" lon="5.79566">
        <ele>337.9</ele>
        <time>2025-03-21T11:56:49Z</time>
      </trkpt>
      <trkpt lat="45.22789" lon="5.79565">
        <ele>338.2</ele>
        <time>2025-03-21T11:56:52Z</time>
      </trkpt>
      <trkpt lat="45.22793" lon="5.79562">
        <ele>337.5</ele>
        <time>2025-03-21T11:56:55Z</time>
      </trkpt>
      <trkpt lat="45.22798" lon="5.79557">
        <ele>337.2</ele>
        <time>2025-03-21T11:56:58Z</time>
      </trkpt>
      <trkpt lat="45.22803" lon="5.79553">
        <ele>337.9</ele>
        <time>2025-03-21T11:57:01Z</time>
      </trkpt>
      <trkpt lat="45.22808" lon="5.79549">
        <ele>338.2</ele>
        <time>2025-03-21T11:57:04Z</time>
      </trkpt>
      <trkpt lat="45.22813" lon="5.79545">
        <ele>338.5</ele>
        <time>2025-03-21T11:57:08Z</time>
      </trkpt>
      <trkpt lat="45.22817" lon="5.79542">
        <ele>339.1</ele>
        <time>2025-03-21T11:57:11Z</time>
      </trkpt>
      <trkpt lat="45.22821" lon="5.79538">
        <ele>340.9</ele>
        <time>2025-03-21T11:57:14Z</time>
      </trkpt>
      <trkpt lat="45.22826" lon="5.79535">
        <ele>342</ele>
        <time>2025-03-21T11:57:17Z</time>
      </trkpt>
      <trkpt lat="45.2283" lon="5.79532">
        <ele>342.3</ele>
        <time>2025-03-21T11:57:20Z</time>
      </trkpt>
      <trkpt lat="45.22835" lon="5.79529">
        <ele>342.5</ele>
        <time>2025-03-21T11:57:23Z</time>
      </trkpt>
      <trkpt lat="45.22839" lon="5.79526">
        <ele>343.2</ele>
        <time>2025-03-21T11:57:26Z</time>
      </trkpt>
      <trkpt lat="45.22843" lon="5.79523">
        <ele>344.2</ele>
        <time>2025-03-21T11:57:29Z</time>
      </trkpt>
      <trkpt lat="45.22847" lon="5.7952">
        <ele>344.7</ele>
        <time>2025-03-21T11:57:32Z</time>
      </trkpt>
      <trkpt lat="45.22851" lon="5.79517">
        <ele>345.4</ele>
        <time>2025-03-21T11:57:35Z</time>
      </trkpt>
      <trkpt lat="45.22855" lon="5.79514">
        <ele>346.5</ele>
        <time>2025-03-21T11:57:38Z</time>
      </trkpt>
      <trkpt lat="45.2286" lon="5.79512">
        <ele>347</ele>
        <time>2025-03-21T11:57:41Z</time>
      </trkpt>
      <trkpt lat="45.22864" lon="5.79508">
        <ele>347.6</ele>
        <time>2025-03-21T11:57:44Z</time>
      </trkpt>
      <trkpt lat="45.22868" lon="5.79502">
        <ele>349.4</ele>
        <time>2025-03-21T11:57:48Z</time>
      </trkpt>
      <trkpt lat="45.22872" lon="5.79499">
        <ele>350.3</ele>
        <time>2025-03-21T11:57:51Z</time>
      </trkpt>
      <trkpt lat="45.22877" lon="5.79498">
        <ele>351.9</ele>
        <time>2025-03-21T11:57:54Z</time>
      </trkpt>
      <trkpt lat="45.22881" lon="5.79496">
        <ele>352.4</ele>
        <time>2025-03-21T11:57:57Z</time>
      </trkpt>
      <trkpt lat="45.22886" lon="5.79494">
        <ele>352.6</ele>
        <time>2025-03-21T11:58:00Z</time>
      </trkpt>
      <trkpt lat="45.2289" lon="5.79491">
        <ele>352.7</ele>
        <time>2025-03-21T11:58:03Z</time>
      </trkpt>
      <trkpt lat="45.22895" lon="5.79487">
        <ele>352.9</ele>
        <time>2025-03-21T11:58:06Z</time>
      </trkpt>
      <trkpt lat="45.229" lon="5.79485">
        <ele>353.5</ele>
        <time>2025-03-21T11:58:09Z</time>
      </trkpt>
      <trkpt lat="45.22904" lon="5.79482">
        <ele>354</ele>
        <time>2025-03-21T11:58:12Z</time>
      </trkpt>
      <trkpt lat="45.22908" lon="5.79479">
        <ele>355.2</ele>
        <time>2025-03-21T11:58:15Z</time>
      </trkpt>
      <trkpt lat="45.22913" lon="5.79476">
        <ele>355.5</ele>
        <time>2025-03-21T11:58:18Z</time>
      </trkpt>
      <trkpt lat="45.22917" lon="5.79473">
        <ele>356.2</ele>
        <time>2025-03-21T11:58:21Z</time>
      </trkpt>
      <trkpt lat="45.22922" lon="5.79469">
        <ele>357.7</ele>
        <time>2025-03-21T11:58:25Z</time>
      </trkpt>
      <trkpt lat="45.22927" lon="5.79466">
        <ele>357.9</ele>
        <time>2025-03-21T11:58:29Z</time>
      </trkpt>
      <trkpt lat="45.22933" lon="5.79463">
        <ele>358.4</ele>
        <time>2025-03-21T11:58:33Z</time>
      </trkpt>
      <trkpt lat="45.22938" lon="5.79462">
        <ele>359.1</ele>
        <time>2025-03-21T11:58:36Z</time>
      </trkpt>
      <trkpt lat="45.22942" lon="5.7946">
        <ele>359.4</ele>
        <time>2025-03-21T11:58:39Z</time>
      </trkpt>
      <trkpt lat="45.22946" lon="5.79458">
        <ele>359.7</ele>
        <time>2025-03-21T11:58:42Z</time>
      </trkpt>
      <trkpt lat="45.22952" lon="5.79456">
        <ele>360.8</ele>
        <time>2025-03-21T11:58:46Z</time>
      </trkpt>
      <trkpt lat="45.22957" lon="5.79453">
        <ele>361.3</ele>
        <time>2025-03-21T11:58:50Z</time>
      </trkpt>
      <trkpt lat="45.22962" lon="5.79449">
        <ele>362.6</ele>
        <time>2025-03-21T11:58:53Z</time>
      </trkpt>
      <trkpt lat="45.22966" lon="5.79448">
        <ele>363.3</ele>
        <time>2025-03-21T11:58:56Z</time>
      </trkpt>
      <trkpt lat="45.22972" lon="5.79446">
        <ele>363.9</ele>
        <time>2025-03-21T11:59:00Z</time>
      </trkpt>
      <trkpt lat="45.22977" lon="5.79444">
        <ele>364.6</ele>
        <time>2025-03-21T11:59:04Z</time>
      </trkpt>
      <trkpt lat="45.22983" lon="5.7944">
        <ele>364.7</ele>
        <time>2025-03-21T11:59:08Z</time>
      </trkpt>
      <trkpt lat="45.22989" lon="5.79438">
        <ele>365.7</ele>
        <time>2025-03-21T11:59:12Z</time>
      </trkpt>
      <trkpt lat="45.22994" lon="5.79438">
        <ele>366.3</ele>
        <time>2025-03-21T11:59:15Z</time>
      </trkpt>
      <trkpt lat="45.22999" lon="5.79438">
        <ele>366.5</ele>
        <time>2025-03-21T11:59:18Z</time>
      </trkpt>
      <trkpt lat="45.23004" lon="5.79436">
        <ele>366</ele>
        <time>2025-03-21T11:59:22Z</time>
      </trkpt>
      <trkpt lat="45.2301" lon="5.79433">
        <ele>366</ele>
        <time>2025-03-21T11:59:26Z</time>
      </trkpt>
      <trkpt lat="45.23016" lon="5.79431">
        <ele>366.9</ele>
        <time>2025-03-21T11:59:30Z</time>
      </trkpt>
      <trkpt lat="45.2302" lon="5.7943">
        <ele>367.3</ele>
        <time>2025-03-21T11:59:33Z</time>
      </trkpt>
      <trkpt lat="45.23026" lon="5.7943">
        <ele>369</ele>
        <time>2025-03-21T11:59:37Z</time>
      </trkpt>
      <trkpt lat="45.23031" lon="5.79429">
        <ele>370.8</ele>
        <time>2025-03-21T11:59:40Z</time>
      </trkpt>
      <trkpt lat="45.23036" lon="5.79427">
        <ele>371.4</ele>
        <time>2025-03-21T11:59:44Z</time>
      </trkpt>
      <trkpt lat="45.23038" lon="5.79422">
        <ele>371.9</ele>
        <time>2025-03-21T11:59:48Z</time>
      </trkpt>
      <trkpt lat="45.2304" lon="5.79416">
        <ele>372.3</ele>
        <time>2025-03-21T11:59:52Z</time>
      </trkpt>
      <trkpt lat="45.2304" lon="5.79408">
        <ele>372.8</ele>
        <time>2025-03-21T11:59:56Z</time>
      </trkpt>
      <trkpt lat="45.23038" lon="5.794">
        <ele>373.8</ele>
        <time>2025-03-21T12:00:18Z</time>
      </trkpt>
      <trkpt lat="45.23038" lon="5.7939">
        <ele>374.4</ele>
        <time>2025-03-21T12:00:21Z</time>
      </trkpt>
      <trkpt lat="45.23037" lon="5.79382">
        <ele>374.5</ele>
        <time>2025-03-21T12:00:23Z</time>
      </trkpt>
      <trkpt lat="45.23036" lon="5.79376">
        <ele>374.5</ele>
        <time>2025-03-21T12:00:25Z</time>
      </trkpt>
      <trkpt lat="45.23036" lon="5.79369">
        <ele>374.3</ele>
        <time>2025-03-21T12:00:27Z</time>
      </trkpt>
      <trkpt lat="45.23035" lon="5.79362">
        <ele>374.3</ele>
        <time>2025-03-21T12:00:29Z</time>
      </trkpt>
      <trkpt lat="45.23034" lon="5.79355">
        <ele>374.4</ele>
        <time>2025-03-21T12:00:31Z</time>
      </trkpt>
      <trkpt lat="45.23033" lon="5.79348">
        <ele>374.5</ele>
        <time>2025-03-21T12:00:33Z</time>
      </trkpt>
      <trkpt lat="45.23032" lon="5.79341">
        <ele>374.5</ele>
        <time>2025-03-21T12:00:35Z</time>
      </trkpt>
      <trkpt lat="45.23032" lon="5.79334">
        <ele>374.6</ele>
        <time>2025-03-21T12:00:37Z</time>
      </trkpt>
      <trkpt lat="45.23031" lon="5.79327">
        <ele>374.7</ele>
        <time>2025-03-21T12:00:39Z</time>
      </trkpt>
      <trkpt lat="45.2303" lon="5.7932">
        <ele>374.9</ele>
        <time>2025-03-21T12:00:41Z</time>
      </trkpt>
      <trkpt lat="45.23029" lon="5.79311">
        <ele>374.9</ele>
        <time>2025-03-21T12:00:43Z</time>
      </trkpt>
      <trkpt lat="45.23028" lon="5.79303">
        <ele>374.8</ele>
        <time>2025-03-21T12:00:45Z</time>
      </trkpt>
      <trkpt lat="45.23027" lon="5.79295">
        <ele>374.4</ele>
        <time>2025-03-21T12:00:47Z</time>
      </trkpt>
      <trkpt lat="45.23026" lon="5.79287">
        <ele>374.2</ele>
        <time>2025-03-21T12:00:49Z</time>
      </trkpt>
      <trkpt lat="45.23025" lon="5.79279">
        <ele>373.7</ele>
        <time>2025-03-21T12:00:51Z</time>
      </trkpt>
      <trkpt lat="45.23024" lon="5.79271">
        <ele>373.7</ele>
        <time>2025-03-21T12:00:53Z</time>
      </trkpt>
      <trkpt lat="45.23023" lon="5.79264">
        <ele>373.7</ele>
        <time>2025-03-21T12:00:55Z</time>
      </trkpt>
      <trkpt lat="45.23023" lon="5.79255">
        <ele>373.7</ele>
        <time>2025-03-21T12:00:57Z</time>
      </trkpt>
      <trkpt lat="45.23022" lon="5.79247">
        <ele>374.3</ele>
        <time>2025-03-21T12:00:59Z</time>
      </trkpt>
      <trkpt lat="45.23021" lon="5.79239">
        <ele>374.6</ele>
        <time>2025-03-21T12:01:01Z</time>
      </trkpt>
      <trkpt lat="45.2302" lon="5.79231">
        <ele>374.5</ele>
        <time>2025-03-21T12:01:03Z</time>
      </trkpt>
      <trkpt lat="45.23019" lon="5.79223">
        <ele>374.3</ele>
        <time>2025-03-21T12:01:05Z</time>
      </trkpt>
      <trkpt lat="45.23019" lon="5.79214">
        <ele>374.3</ele>
        <time>2025-03-21T12:01:07Z</time>
      </trkpt>
      <trkpt lat="45.23018" lon="5.79206">
        <ele>374.2</ele>
        <time>2025-03-21T12:01:09Z</time>
      </trkpt>
      <trkpt lat="45.23018" lon="5.79197">
        <ele>373.8</ele>
        <time>2025-03-21T12:01:11Z</time>
      </trkpt>
      <trkpt lat="45.23017" lon="5.79189">
        <ele>373.9</ele>
        <time>2025-03-21T12:01:13Z</time>
      </trkpt>
      <trkpt lat="45.23017" lon="5.79181">
        <ele>374.4</ele>
        <time>2025-03-21T12:01:15Z</time>
      </trkpt>
      <trkpt lat="45.23018" lon="5.79174">
        <ele>374.3</ele>
        <time>2025-03-21T12:01:17Z</time>
      </trkpt>
      <trkpt lat="45.23018" lon="5.79167">
        <ele>374.3</ele>
        <time>2025-03-21T12:01:19Z</time>
      </trkpt>
      <trkpt lat="45.23018" lon="5.7916">
        <ele>374.4</ele>
        <time>2025-03-21T12:01:21Z</time>
      </trkpt>
      <trkpt lat="45.23016" lon="5.79152">
        <ele>374.2</ele>
        <time>2025-03-21T12:01:23Z</time>
      </trkpt>
      <trkpt lat="45.23014" lon="5.79146">
        <ele>374.3</ele>
        <time>2025-03-21T12:01:25Z</time>
      </trkpt>
      <trkpt lat="45.2301" lon="5.79138">
        <ele>374.7</ele>
        <time>2025-03-21T12:01:28Z</time>
      </trkpt>
      <trkpt lat="45.23007" lon="5.79132">
        <ele>375.6</ele>
        <time>2025-03-21T12:01:30Z</time>
      </trkpt>
      <trkpt lat="45.23002" lon="5.79126">
        <ele>376.2</ele>
        <time>2025-03-21T12:01:32Z</time>
      </trkpt>
      <trkpt lat="45.22997" lon="5.7912">
        <ele>376.2</ele>
        <time>2025-03-21T12:01:34Z</time>
      </trkpt>
      <trkpt lat="45.22993" lon="5.79114">
        <ele>375.6</ele>
        <time>2025-03-21T12:01:36Z</time>
      </trkpt>
      <trkpt lat="45.22989" lon="5.79108">
        <ele>375</ele>
        <time>2025-03-21T12:01:38Z</time>
      </trkpt>
      <trkpt lat="45.22986" lon="5.79102">
        <ele>373.9</ele>
        <time>2025-03-21T12:01:41Z</time>
      </trkpt>
      <trkpt lat="45.22982" lon="5.79097">
        <ele>373.2</ele>
        <time>2025-03-21T12:01:43Z</time>
      </trkpt>
      <trkpt lat="45.22978" lon="5.79093">
        <ele>372.5</ele>
        <time>2025-03-21T12:01:45Z</time>
      </trkpt>
      <trkpt lat="45.22974" lon="5.79085">
        <ele>372.4</ele>
        <time>2025-03-21T12:01:47Z</time>
      </trkpt>
      <trkpt lat="45.22971" lon="5.79078">
        <ele>372.8</ele>
        <time>2025-03-21T12:01:49Z</time>
      </trkpt>
      <trkpt lat="45.22969" lon="5.79071">
        <ele>374.1</ele>
        <time>2025-03-21T12:01:51Z</time>
      </trkpt>
      <trkpt lat="45.22963" lon="5.79064">
        <ele>375.3</ele>
        <time>2025-03-21T12:01:53Z</time>
      </trkpt>
      <trkpt lat="45.22956" lon="5.79058">
        <ele>376.2</ele>
        <time>2025-03-21T12:01:55Z</time>
      </trkpt>
      <trkpt lat="45.22952" lon="5.79053">
        <ele>376.3</ele>
        <time>2025-03-21T12:01:57Z</time>
      </trkpt>
      <trkpt lat="45.22948" lon="5.79047">
        <ele>376.7</ele>
        <time>2025-03-21T12:01:59Z</time>
      </trkpt>
      <trkpt lat="45.22945" lon="5.79041">
        <ele>377.3</ele>
        <time>2025-03-21T12:02:01Z</time>
      </trkpt>
      <trkpt lat="45.22941" lon="5.79036">
        <ele>377.7</ele>
        <time>2025-03-21T12:02:03Z</time>
      </trkpt>
      <trkpt lat="45.22938" lon="5.79031">
        <ele>379.1</ele>
        <time>2025-03-21T12:02:05Z</time>
      </trkpt>
      <trkpt lat="45.22934" lon="5.79026">
        <ele>379.9</ele>
        <time>2025-03-21T12:02:07Z</time>
      </trkpt>
      <trkpt lat="45.22931" lon="5.79021">
        <ele>380.6</ele>
        <time>2025-03-21T12:02:09Z</time>
      </trkpt>
      <trkpt lat="45.22928" lon="5.79015">
        <ele>382.2</ele>
        <time>2025-03-21T12:02:11Z</time>
      </trkpt>
      <trkpt lat="45.22925" lon="5.79007">
        <ele>383.1</ele>
        <time>2025-03-21T12:02:14Z</time>
      </trkpt>
      <trkpt lat="45.22923" lon="5.78999">
        <ele>383.4</ele>
        <time>2025-03-21T12:02:16Z</time>
      </trkpt>
      <trkpt lat="45.22922" lon="5.78993">
        <ele>384</ele>
        <time>2025-03-21T12:02:18Z</time>
      </trkpt>
      <trkpt lat="45.22923" lon="5.78985">
        <ele>383.8</ele>
        <time>2025-03-21T12:02:22Z</time>
      </trkpt>
      <trkpt lat="45.22926" lon="5.78979">
        <ele>383.4</ele>
        <time>2025-03-21T12:02:26Z</time>
      </trkpt>
      <trkpt lat="45.22929" lon="5.78975">
        <ele>383.5</ele>
        <time>2025-03-21T12:02:28Z</time>
      </trkpt>
      <trkpt lat="45.22935" lon="5.78974">
        <ele>383.6</ele>
        <time>2025-03-21T12:02:30Z</time>
      </trkpt>
      <trkpt lat="45.22941" lon="5.78971">
        <ele>381.9</ele>
        <time>2025-03-21T12:02:33Z</time>
      </trkpt>
      <trkpt lat="45.22946" lon="5.78971">
        <ele>381.5</ele>
        <time>2025-03-21T12:02:36Z</time>
      </trkpt>
      <trkpt lat="45.22951" lon="5.78974">
        <ele>382.4</ele>
        <time>2025-03-21T12:02:39Z</time>
      </trkpt>
      <trkpt lat="45.22956" lon="5.78977">
        <ele>384</ele>
        <time>2025-03-21T12:02:42Z</time>
      </trkpt>
      <trkpt lat="45.22961" lon="5.78978">
        <ele>385.7</ele>
        <time>2025-03-21T12:02:45Z</time>
      </trkpt>
      <trkpt lat="45.22966" lon="5.7898">
        <ele>383.7</ele>
        <time>2025-03-21T12:02:48Z</time>
      </trkpt>
      <trkpt lat="45.2297" lon="5.78982">
        <ele>383</ele>
        <time>2025-03-21T12:02:51Z</time>
      </trkpt>
      <trkpt lat="45.22975" lon="5.78983">
        <ele>383.7</ele>
        <time>2025-03-21T12:02:54Z</time>
      </trkpt>
      <trkpt lat="45.22981" lon="5.78984">
        <ele>384.5</ele>
        <time>2025-03-21T12:02:59Z</time>
      </trkpt>
      <trkpt lat="45.22985" lon="5.78985">
        <ele>384.8</ele>
        <time>2025-03-21T12:03:02Z</time>
      </trkpt>
      <trkpt lat="45.22991" lon="5.78986">
        <ele>382.8</ele>
        <time>2025-03-21T12:03:07Z</time>
      </trkpt>
      <trkpt lat="45.22997" lon="5.78983">
        <ele>382</ele>
        <time>2025-03-21T12:03:10Z</time>
      </trkpt>
      <trkpt lat="45.23001" lon="5.7898">
        <ele>382.2</ele>
        <time>2025-03-21T12:03:13Z</time>
      </trkpt>
      <trkpt lat="45.23007" lon="5.78975">
        <ele>384</ele>
        <time>2025-03-21T12:03:17Z</time>
      </trkpt>
      <trkpt lat="45.23011" lon="5.7897">
        <ele>384.8</ele>
        <time>2025-03-21T12:03:20Z</time>
      </trkpt>
      <trkpt lat="45.23014" lon="5.78965">
        <ele>384.9</ele>
        <time>2025-03-21T12:03:23Z</time>
      </trkpt>
      <trkpt lat="45.23018" lon="5.78959">
        <ele>384.5</ele>
        <time>2025-03-21T12:03:27Z</time>
      </trkpt>
      <trkpt lat="45.23023" lon="5.78954">
        <ele>385.3</ele>
        <time>2025-03-21T12:03:31Z</time>
      </trkpt>
      <trkpt lat="45.23027" lon="5.7895">
        <ele>386.7</ele>
        <time>2025-03-21T12:03:35Z</time>
      </trkpt>
      <trkpt lat="45.23031" lon="5.78944">
        <ele>388.5</ele>
        <time>2025-03-21T12:03:47Z</time>
      </trkpt>
      <trkpt lat="45.23036" lon="5.78939">
        <ele>389</ele>
        <time>2025-03-21T12:03:51Z</time>
      </trkpt>
      <trkpt lat="45.23042" lon="5.78939">
        <ele>389.7</ele>
        <time>2025-03-21T12:03:55Z</time>
      </trkpt>
      <trkpt lat="45.23046" lon="5.78939">
        <ele>389.8</ele>
        <time>2025-03-21T12:03:58Z</time>
      </trkpt>
      <trkpt lat="45.23051" lon="5.78941">
        <ele>389.7</ele>
        <time>2025-03-21T12:04:01Z</time>
      </trkpt>
      <trkpt lat="45.23057" lon="5.78944">
        <ele>389.8</ele>
        <time>2025-03-21T12:04:04Z</time>
      </trkpt>
      <trkpt lat="45.23062" lon="5.78946">
        <ele>390.4</ele>
        <time>2025-03-21T12:04:07Z</time>
      </trkpt>
      <trkpt lat="45.23067" lon="5.78946">
        <ele>390.9</ele>
        <time>2025-03-21T12:04:10Z</time>
      </trkpt>
      <trkpt lat="45.23072" lon="5.78947">
        <ele>391.6</ele>
        <time>2025-03-21T12:04:13Z</time>
      </trkpt>
      <trkpt lat="45.23077" lon="5.78947">
        <ele>392.6</ele>
        <time>2025-03-21T12:04:16Z</time>
      </trkpt>
      <trkpt lat="45.23082" lon="5.78946">
        <ele>393.2</ele>
        <time>2025-03-21T12:04:19Z</time>
      </trkpt>
      <trkpt lat="45.23087" lon="5.78946">
        <ele>393.8</ele>
        <time>2025-03-21T12:04:22Z</time>
      </trkpt>
      <trkpt lat="45.23091" lon="5.78945">
        <ele>393.4</ele>
        <time>2025-03-21T12:04:25Z</time>
      </trkpt>
      <trkpt lat="45.23096" lon="5.78943">
        <ele>393.2</ele>
        <time>2025-03-21T12:04:28Z</time>
      </trkpt>
      <trkpt lat="45.23101" lon="5.7894">
        <ele>395</ele>
        <time>2025-03-21T12:04:31Z</time>
      </trkpt>
      <trkpt lat="45.23105" lon="5.78937">
        <ele>396.7</ele>
        <time>2025-03-21T12:04:34Z</time>
      </trkpt>
      <trkpt lat="45.23109" lon="5.78934">
        <ele>398.1</ele>
        <time>2025-03-21T12:04:37Z</time>
      </trkpt>
      <trkpt lat="45.23113" lon="5.7893">
        <ele>399.5</ele>
        <time>2025-03-21T12:04:40Z</time>
      </trkpt>
      <trkpt lat="45.23118" lon="5.78926">
        <ele>399.7</ele>
        <time>2025-03-21T12:04:44Z</time>
      </trkpt>
      <trkpt lat="45.23122" lon="5.78929">
        <ele>399.5</ele>
        <time>2025-03-21T12:04:47Z</time>
      </trkpt>
      <trkpt lat="45.23125" lon="5.78936">
        <ele>399.2</ele>
        <time>2025-03-21T12:04:50Z</time>
      </trkpt>
      <trkpt lat="45.23126" lon="5.78944">
        <ele>399.6</ele>
        <time>2025-03-21T12:04:53Z</time>
      </trkpt>
      <trkpt lat="45.23127" lon="5.78951">
        <ele>399.9</ele>
        <time>2025-03-21T12:04:56Z</time>
      </trkpt>
      <trkpt lat="45.23128" lon="5.78958">
        <ele>400.6</ele>
        <time>2025-03-21T12:04:59Z</time>
      </trkpt>
      <trkpt lat="45.23131" lon="5.78965">
        <ele>401.3</ele>
        <time>2025-03-21T12:05:03Z</time>
      </trkpt>
      <trkpt lat="45.23134" lon="5.78972">
        <ele>401.1</ele>
        <time>2025-03-21T12:05:06Z</time>
      </trkpt>
      <trkpt lat="45.23139" lon="5.7898">
        <ele>399.8</ele>
        <time>2025-03-21T12:05:09Z</time>
      </trkpt>
      <trkpt lat="45.23142" lon="5.78984">
        <ele>398.6</ele>
        <time>2025-03-21T12:05:11Z</time>
      </trkpt>
      <trkpt lat="45.23146" lon="5.78991">
        <ele>398.6</ele>
        <time>2025-03-21T12:05:13Z</time>
      </trkpt>
      <trkpt lat="45.23151" lon="5.78996">
        <ele>398.7</ele>
        <time>2025-03-21T12:05:15Z</time>
      </trkpt>
      <trkpt lat="45.23154" lon="5.79">
        <ele>399</ele>
        <time>2025-03-21T12:05:17Z</time>
      </trkpt>
      <trkpt lat="45.23158" lon="5.79006">
        <ele>399.2</ele>
        <time>2025-03-21T12:05:19Z</time>
      </trkpt>
      <trkpt lat="45.23163" lon="5.79009">
        <ele>399.4</ele>
        <time>2025-03-21T12:05:21Z</time>
      </trkpt>
      <trkpt lat="45.23167" lon="5.79013">
        <ele>398.6</ele>
        <time>2025-03-21T12:05:23Z</time>
      </trkpt>
      <trkpt lat="45.23171" lon="5.79018">
        <ele>398.7</ele>
        <time>2025-03-21T12:05:25Z</time>
      </trkpt>
      <trkpt lat="45.23175" lon="5.79023">
        <ele>400</ele>
        <time>2025-03-21T12:05:27Z</time>
      </trkpt>
      <trkpt lat="45.23181" lon="5.79028">
        <ele>399.1</ele>
        <time>2025-03-21T12:05:29Z</time>
      </trkpt>
      <trkpt lat="45.23187" lon="5.79033">
        <ele>398.8</ele>
        <time>2025-03-21T12:05:31Z</time>
      </trkpt>
      <trkpt lat="45.23192" lon="5.79039">
        <ele>398.9</ele>
        <time>2025-03-21T12:05:33Z</time>
      </trkpt>
      <trkpt lat="45.23195" lon="5.79046">
        <ele>399.2</ele>
        <time>2025-03-21T12:05:35Z</time>
      </trkpt>
      <trkpt lat="45.23199" lon="5.79053">
        <ele>399.8</ele>
        <time>2025-03-21T12:05:37Z</time>
      </trkpt>
      <trkpt lat="45.23202" lon="5.79059">
        <ele>400.3</ele>
        <time>2025-03-21T12:05:39Z</time>
      </trkpt>
      <trkpt lat="45.23205" lon="5.79064">
        <ele>401.1</ele>
        <time>2025-03-21T12:05:41Z</time>
      </trkpt>
      <trkpt lat="45.23209" lon="5.79069">
        <ele>402.3</ele>
        <time>2025-03-21T12:05:43Z</time>
      </trkpt>
      <trkpt lat="45.23212" lon="5.79076">
        <ele>403.2</ele>
        <time>2025-03-21T12:05:45Z</time>
      </trkpt>
      <trkpt lat="45.23214" lon="5.79082">
        <ele>403.2</ele>
        <time>2025-03-21T12:05:47Z</time>
      </trkpt>
      <trkpt lat="45.23219" lon="5.79086">
        <ele>403.1</ele>
        <time>2025-03-21T12:05:50Z</time>
      </trkpt>
      <trkpt lat="45.23224" lon="5.79089">
        <ele>402.5</ele>
        <time>2025-03-21T12:05:53Z</time>
      </trkpt>
      <trkpt lat="45.23228" lon="5.79093">
        <ele>401</ele>
        <time>2025-03-21T12:05:56Z</time>
      </trkpt>
      <trkpt lat="45.23233" lon="5.79097">
        <ele>401.4</ele>
        <time>2025-03-21T12:05:58Z</time>
      </trkpt>
      <trkpt lat="45.23238" lon="5.79103">
        <ele>403</ele>
        <time>2025-03-21T12:06:01Z</time>
      </trkpt>
      <trkpt lat="45.23243" lon="5.79107">
        <ele>403.9</ele>
        <time>2025-03-21T12:06:04Z</time>
      </trkpt>
      <trkpt lat="45.23248" lon="5.79112">
        <ele>404.8</ele>
        <time>2025-03-21T12:06:07Z</time>
      </trkpt>
      <trkpt lat="45.23254" lon="5.79117">
        <ele>404.9</ele>
        <time>2025-03-21T12:06:10Z</time>
      </trkpt>
      <trkpt lat="45.23259" lon="5.79122">
        <ele>405.8</ele>
        <time>2025-03-21T12:06:13Z</time>
      </trkpt>
      <trkpt lat="45.23264" lon="5.79126">
        <ele>408.9</ele>
        <time>2025-03-21T12:06:15Z</time>
      </trkpt>
      <trkpt lat="45.23269" lon="5.7913">
        <ele>411.3</ele>
        <time>2025-03-21T12:06:17Z</time>
      </trkpt>
      <trkpt lat="45.23275" lon="5.79135">
        <ele>413</ele>
        <time>2025-03-21T12:06:20Z</time>
      </trkpt>
      <trkpt lat="45.23279" lon="5.79139">
        <ele>414</ele>
        <time>2025-03-21T12:06:23Z</time>
      </trkpt>
      <trkpt lat="45.23283" lon="5.79144">
        <ele>414.8</ele>
        <time>2025-03-21T12:06:27Z</time>
      </trkpt>
      <trkpt lat="45.23287" lon="5.79151">
        <ele>415.7</ele>
        <time>2025-03-21T12:06:30Z</time>
      </trkpt>
      <trkpt lat="45.23292" lon="5.79154">
        <ele>416.6</ele>
        <time>2025-03-21T12:06:32Z</time>
      </trkpt>
      <trkpt lat="45.23297" lon="5.79157">
        <ele>420.1</ele>
        <time>2025-03-21T12:06:34Z</time>
      </trkpt>
      <trkpt lat="45.233" lon="5.79162">
        <ele>420.9</ele>
        <time>2025-03-21T12:06:36Z</time>
      </trkpt>
      <trkpt lat="45.23303" lon="5.79167">
        <ele>419</ele>
        <time>2025-03-21T12:06:39Z</time>
      </trkpt>
      <trkpt lat="45.23309" lon="5.79171">
        <ele>419.5</ele>
        <time>2025-03-21T12:06:42Z</time>
      </trkpt>
      <trkpt lat="45.23313" lon="5.79177">
        <ele>420.4</ele>
        <time>2025-03-21T12:06:45Z</time>
      </trkpt>
      <trkpt lat="45.23318" lon="5.7918">
        <ele>418.6</ele>
        <time>2025-03-21T12:06:48Z</time>
      </trkpt>
      <trkpt lat="45.23323" lon="5.79183">
        <ele>416.8</ele>
        <time>2025-03-21T12:06:51Z</time>
      </trkpt>
      <trkpt lat="45.23329" lon="5.79186">
        <ele>416.2</ele>
        <time>2025-03-21T12:06:55Z</time>
      </trkpt>
      <trkpt lat="45.23335" lon="5.79185">
        <ele>418.9</ele>
        <time>2025-03-21T12:06:58Z</time>
      </trkpt>
      <trkpt lat="45.23339" lon="5.79185">
        <ele>419.4</ele>
        <time>2025-03-21T12:07:01Z</time>
      </trkpt>
      <trkpt lat="45.23344" lon="5.79185">
        <ele>417.4</ele>
        <time>2025-03-21T12:07:04Z</time>
      </trkpt>
      <trkpt lat="45.23348" lon="5.7919">
        <ele>418.3</ele>
        <time>2025-03-21T12:07:08Z</time>
      </trkpt>
      <trkpt lat="45.2335" lon="5.79195">
        <ele>420.4</ele>
        <time>2025-03-21T12:07:11Z</time>
      </trkpt>
      <trkpt lat="45.23355" lon="5.79199">
        <ele>417.4</ele>
        <time>2025-03-21T12:07:15Z</time>
      </trkpt>
      <trkpt lat="45.23361" lon="5.792">
        <ele>414.1</ele>
        <time>2025-03-21T12:07:19Z</time>
      </trkpt>
      <trkpt lat="45.23365" lon="5.79203">
        <ele>412.2</ele>
        <time>2025-03-21T12:07:23Z</time>
      </trkpt>
      <trkpt lat="45.23367" lon="5.7921">
        <ele>412.8</ele>
        <time>2025-03-21T12:07:26Z</time>
      </trkpt>
      <trkpt lat="45.23368" lon="5.79217">
        <ele>414.6</ele>
        <time>2025-03-21T12:07:29Z</time>
      </trkpt>
      <trkpt lat="45.2337" lon="5.79224">
        <ele>417</ele>
        <time>2025-03-21T12:07:33Z</time>
      </trkpt>
      <trkpt lat="45.23373" lon="5.7923">
        <ele>419.4</ele>
        <time>2025-03-21T12:07:38Z</time>
      </trkpt>
      <trkpt lat="45.23375" lon="5.79236">
        <ele>423.3</ele>
        <time>2025-03-21T12:07:43Z</time>
      </trkpt>
      <trkpt lat="45.23379" lon="5.79243">
        <ele>426.5</ele>
        <time>2025-03-21T12:07:47Z</time>
      </trkpt>
      <trkpt lat="45.23383" lon="5.79246">
        <ele>426.8</ele>
        <time>2025-03-21T12:07:49Z</time>
      </trkpt>
      <trkpt lat="45.23387" lon="5.79247">
        <ele>426.7</ele>
        <time>2025-03-21T12:07:53Z</time>
      </trkpt>
      <trkpt lat="45.23392" lon="5.79251">
        <ele>426.5</ele>
        <time>2025-03-21T12:07:55Z</time>
      </trkpt>
      <trkpt lat="45.23396" lon="5.79254">
        <ele>426.8</ele>
        <time>2025-03-21T12:07:57Z</time>
      </trkpt>
      <trkpt lat="45.23399" lon="5.79258">
        <ele>428.9</ele>
        <time>2025-03-21T12:07:59Z</time>
      </trkpt>
      <trkpt lat="45.23403" lon="5.79263">
        <ele>428.7</ele>
        <time>2025-03-21T12:08:01Z</time>
      </trkpt>
      <trkpt lat="45.23407" lon="5.79271">
        <ele>427.9</ele>
        <time>2025-03-21T12:08:05Z</time>
      </trkpt>
      <trkpt lat="45.23412" lon="5.79275">
        <ele>428.2</ele>
        <time>2025-03-21T12:08:07Z</time>
      </trkpt>
      <trkpt lat="45.23416" lon="5.79278">
        <ele>428.4</ele>
        <time>2025-03-21T12:08:09Z</time>
      </trkpt>
      <trkpt lat="45.23421" lon="5.79282">
        <ele>427.8</ele>
        <time>2025-03-21T12:08:12Z</time>
      </trkpt>
      <trkpt lat="45.23426" lon="5.79286">
        <ele>429.1</ele>
        <time>2025-03-21T12:08:15Z</time>
      </trkpt>
      <trkpt lat="45.2343" lon="5.7929">
        <ele>429.7</ele>
        <time>2025-03-21T12:08:18Z</time>
      </trkpt>
      <trkpt lat="45.23435" lon="5.79293">
        <ele>429.2</ele>
        <time>2025-03-21T12:08:21Z</time>
      </trkpt>
      <trkpt lat="45.2344" lon="5.79297">
        <ele>429.8</ele>
        <time>2025-03-21T12:08:24Z</time>
      </trkpt>
      <trkpt lat="45.23444" lon="5.793">
        <ele>430.3</ele>
        <time>2025-03-21T12:08:27Z</time>
      </trkpt>
      <trkpt lat="45.2345" lon="5.79304">
        <ele>430.8</ele>
        <time>2025-03-21T12:08:31Z</time>
      </trkpt>
      <trkpt lat="45.23453" lon="5.79308">
        <ele>432</ele>
        <time>2025-03-21T12:08:34Z</time>
      </trkpt>
      <trkpt lat="45.23458" lon="5.79311">
        <ele>432.6</ele>
        <time>2025-03-21T12:08:37Z</time>
      </trkpt>
      <trkpt lat="45.23463" lon="5.79313">
        <ele>434.9</ele>
        <time>2025-03-21T12:08:40Z</time>
      </trkpt>
      <trkpt lat="45.23468" lon="5.79315">
        <ele>436.8</ele>
        <time>2025-03-21T12:08:43Z</time>
      </trkpt>
      <trkpt lat="45.23473" lon="5.79315">
        <ele>436.8</ele>
        <time>2025-03-21T12:08:46Z</time>
      </trkpt>
      <trkpt lat="45.23478" lon="5.79315">
        <ele>436.8</ele>
        <time>2025-03-21T12:08:49Z</time>
      </trkpt>
      <trkpt lat="45.23483" lon="5.79318">
        <ele>436.6</ele>
        <time>2025-03-21T12:08:53Z</time>
      </trkpt>
      <trkpt lat="45.23489" lon="5.79319">
        <ele>437.2</ele>
        <time>2025-03-21T12:08:57Z</time>
      </trkpt>
      <trkpt lat="45.23495" lon="5.79321">
        <ele>438</ele>
        <time>2025-03-21T12:09:01Z</time>
      </trkpt>
      <trkpt lat="45.23499" lon="5.79323">
        <ele>439.1</ele>
        <time>2025-03-21T12:09:04Z</time>
      </trkpt>
      <trkpt lat="45.23505" lon="5.79326">
        <ele>440.1</ele>
        <time>2025-03-21T12:09:08Z</time>
      </trkpt>
      <trkpt lat="45.23509" lon="5.7933">
        <ele>440.9</ele>
        <time>2025-03-21T12:09:12Z</time>
      </trkpt>
      <trkpt lat="45.23513" lon="5.79336">
        <ele>442.3</ele>
        <time>2025-03-21T12:09:16Z</time>
      </trkpt>
      <trkpt lat="45.23517" lon="5.7934">
        <ele>442.8</ele>
        <time>2025-03-21T12:09:19Z</time>
      </trkpt>
      <trkpt lat="45.2352" lon="5.79345">
        <ele>443.4</ele>
        <time>2025-03-21T12:09:22Z</time>
      </trkpt>
      <trkpt lat="45.23524" lon="5.7935">
        <ele>444</ele>
        <time>2025-03-21T12:09:25Z</time>
      </trkpt>
      <trkpt lat="45.23528" lon="5.79355">
        <ele>444.6</ele>
        <time>2025-03-21T12:09:28Z</time>
      </trkpt>
      <trkpt lat="45.23531" lon="5.7936">
        <ele>444.8</ele>
        <time>2025-03-21T12:09:31Z</time>
      </trkpt>
      <trkpt lat="45.23535" lon="5.79365">
        <ele>445.5</ele>
        <time>2025-03-21T12:09:34Z</time>
      </trkpt>
      <trkpt lat="45.23539" lon="5.79368">
        <ele>446.6</ele>
        <time>2025-03-21T12:09:37Z</time>
      </trkpt>
      <trkpt lat="45.23545" lon="5.79366">
        <ele>446.8</ele>
        <time>2025-03-21T12:09:41Z</time>
      </trkpt>
      <trkpt lat="45.23548" lon="5.79361">
        <ele>444.5</ele>
        <time>2025-03-21T12:09:44Z</time>
      </trkpt>
      <trkpt lat="45.23548" lon="5.79355">
        <ele>443.6</ele>
        <time>2025-03-21T12:09:47Z</time>
      </trkpt>
      <trkpt lat="45.23549" lon="5.79348">
        <ele>444.3</ele>
        <time>2025-03-21T12:09:50Z</time>
      </trkpt>
      <trkpt lat="45.23549" lon="5.7934">
        <ele>447.7</ele>
        <time>2025-03-21T12:09:54Z</time>
      </trkpt>
      <trkpt lat="45.23551" lon="5.79333">
        <ele>448.9</ele>
        <time>2025-03-21T12:09:58Z</time>
      </trkpt>
      <trkpt lat="45.23554" lon="5.79327">
        <ele>449</ele>
        <time>2025-03-21T12:10:02Z</time>
      </trkpt>
      <trkpt lat="45.23556" lon="5.7932">
        <ele>449.9</ele>
        <time>2025-03-21T12:10:06Z</time>
      </trkpt>
      <trkpt lat="45.23559" lon="5.79314">
        <ele>451.2</ele>
        <time>2025-03-21T12:10:10Z</time>
      </trkpt>
      <trkpt lat="45.23562" lon="5.79307">
        <ele>453</ele>
        <time>2025-03-21T12:10:14Z</time>
      </trkpt>
      <trkpt lat="45.23565" lon="5.79301">
        <ele>454.2</ele>
        <time>2025-03-21T12:10:18Z</time>
      </trkpt>
      <trkpt lat="45.23569" lon="5.79296">
        <ele>454.9</ele>
        <time>2025-03-21T12:10:22Z</time>
      </trkpt>
      <trkpt lat="45.23573" lon="5.79292">
        <ele>456.2</ele>
        <time>2025-03-21T12:10:26Z</time>
      </trkpt>
      <trkpt lat="45.23577" lon="5.79288">
        <ele>457.4</ele>
        <time>2025-03-21T12:10:30Z</time>
      </trkpt>
      <trkpt lat="45.2358" lon="5.79282">
        <ele>459</ele>
        <time>2025-03-21T12:10:34Z</time>
      </trkpt>
      <trkpt lat="45.23585" lon="5.79278">
        <ele>460</ele>
        <time>2025-03-21T12:10:38Z</time>
      </trkpt>
      <trkpt lat="45.23589" lon="5.79274">
        <ele>461.5</ele>
        <time>2025-03-21T12:10:42Z</time>
      </trkpt>
      <trkpt lat="45.23593" lon="5.7927">
        <ele>462</ele>
        <time>2025-03-21T12:10:46Z</time>
      </trkpt>
      <trkpt lat="45.23596" lon="5.79265">
        <ele>463.5</ele>
        <time>2025-03-21T12:10:51Z</time>
      </trkpt>
      <trkpt lat="45.236" lon="5.7926">
        <ele>466.1</ele>
        <time>2025-03-21T12:10:56Z</time>
      </trkpt>
      <trkpt lat="45.23605" lon="5.79256">
        <ele>468.2</ele>
        <time>2025-03-21T12:11:00Z</time>
      </trkpt>
      <trkpt lat="45.23609" lon="5.79258">
        <ele>468.3</ele>
        <time>2025-03-21T12:11:04Z</time>
      </trkpt>
      <trkpt lat="45.23613" lon="5.79263">
        <ele>467.5</ele>
        <time>2025-03-21T12:11:08Z</time>
      </trkpt>
      <trkpt lat="45.23617" lon="5.79268">
        <ele>467.7</ele>
        <time>2025-03-21T12:11:11Z</time>
      </trkpt>
      <trkpt lat="45.2362" lon="5.79275">
        <ele>468.4</ele>
        <time>2025-03-21T12:11:14Z</time>
      </trkpt>
      <trkpt lat="45.23625" lon="5.79283">
        <ele>467.3</ele>
        <time>2025-03-21T12:11:17Z</time>
      </trkpt>
      <trkpt lat="45.23628" lon="5.79289">
        <ele>466.4</ele>
        <time>2025-03-21T12:11:19Z</time>
      </trkpt>
      <trkpt lat="45.23631" lon="5.79297">
        <ele>466.9</ele>
        <time>2025-03-21T12:11:22Z</time>
      </trkpt>
      <trkpt lat="45.23634" lon="5.79302">
        <ele>468.2</ele>
        <time>2025-03-21T12:11:24Z</time>
      </trkpt>
      <trkpt lat="45.23638" lon="5.7931">
        <ele>468.4</ele>
        <time>2025-03-21T12:11:26Z</time>
      </trkpt>
      <trkpt lat="45.23641" lon="5.79314">
        <ele>467.8</ele>
        <time>2025-03-21T12:11:28Z</time>
      </trkpt>
      <trkpt lat="45.23645" lon="5.79319">
        <ele>467.3</ele>
        <time>2025-03-21T12:11:30Z</time>
      </trkpt>
      <trkpt lat="45.23651" lon="5.79322">
        <ele>466</ele>
        <time>2025-03-21T12:11:33Z</time>
      </trkpt>
      <trkpt lat="45.23657" lon="5.79323">
        <ele>466.4</ele>
        <time>2025-03-21T12:11:36Z</time>
      </trkpt>
      <trkpt lat="45.23663" lon="5.79321">
        <ele>467.9</ele>
        <time>2025-03-21T12:11:39Z</time>
      </trkpt>
      <trkpt lat="45.23669" lon="5.79321">
        <ele>468.7</ele>
        <time>2025-03-21T12:11:42Z</time>
      </trkpt>
      <trkpt lat="45.23674" lon="5.79325">
        <ele>468.8</ele>
        <time>2025-03-21T12:11:45Z</time>
      </trkpt>
      <trkpt lat="45.23679" lon="5.7933">
        <ele>469.2</ele>
        <time>2025-03-21T12:11:48Z</time>
      </trkpt>
      <trkpt lat="45.23683" lon="5.79334">
        <ele>469.4</ele>
        <time>2025-03-21T12:11:50Z</time>
      </trkpt>
      <trkpt lat="45.23686" lon="5.79339">
        <ele>469.9</ele>
        <time>2025-03-21T12:11:52Z</time>
      </trkpt>
      <trkpt lat="45.2369" lon="5.79344">
        <ele>470.8</ele>
        <time>2025-03-21T12:11:54Z</time>
      </trkpt>
      <trkpt lat="45.23694" lon="5.79349">
        <ele>471.2</ele>
        <time>2025-03-21T12:11:57Z</time>
      </trkpt>
      <trkpt lat="45.23698" lon="5.79354">
        <ele>473.7</ele>
        <time>2025-03-21T12:12:00Z</time>
      </trkpt>
      <trkpt lat="45.23702" lon="5.79359">
        <ele>475.2</ele>
        <time>2025-03-21T12:12:03Z</time>
      </trkpt>
      <trkpt lat="45.23705" lon="5.79364">
        <ele>476.1</ele>
        <time>2025-03-21T12:12:06Z</time>
      </trkpt>
      <trkpt lat="45.23708" lon="5.7937">
        <ele>476.9</ele>
        <time>2025-03-21T12:12:09Z</time>
      </trkpt>
      <trkpt lat="45.23711" lon="5.79375">
        <ele>476.9</ele>
        <time>2025-03-21T12:12:12Z</time>
      </trkpt>
      <trkpt lat="45.23715" lon="5.79381">
        <ele>476.1</ele>
        <time>2025-03-21T12:12:15Z</time>
      </trkpt>
      <trkpt lat="45.23718" lon="5.79387">
        <ele>476.1</ele>
        <time>2025-03-21T12:12:18Z</time>
      </trkpt>
      <trkpt lat="45.2372" lon="5.79395">
        <ele>477.1</ele>
        <time>2025-03-21T12:12:21Z</time>
      </trkpt>
      <trkpt lat="45.23724" lon="5.794">
        <ele>478.5</ele>
        <time>2025-03-21T12:14:17Z</time>
      </trkpt>
      <trkpt lat="45.23726" lon="5.79407">
        <ele>478</ele>
        <time>2025-03-21T12:14:19Z</time>
      </trkpt>
      <trkpt lat="45.2373" lon="5.79415">
        <ele>477</ele>
        <time>2025-03-21T12:14:21Z</time>
      </trkpt>
      <trkpt lat="45.23733" lon="5.79423">
        <ele>477</ele>
        <time>2025-03-21T12:14:23Z</time>
      </trkpt>
      <trkpt lat="45.23736" lon="5.7943">
        <ele>477.2</ele>
        <time>2025-03-21T12:14:25Z</time>
      </trkpt>
      <trkpt lat="45.2374" lon="5.79436">
        <ele>477.7</ele>
        <time>2025-03-21T12:14:27Z</time>
      </trkpt>
      <trkpt lat="45.23745" lon="5.79442">
        <ele>477.7</ele>
        <time>2025-03-21T12:14:30Z</time>
      </trkpt>
      <trkpt lat="45.23748" lon="5.7945">
        <ele>476.8</ele>
        <time>2025-03-21T12:14:32Z</time>
      </trkpt>
      <trkpt lat="45.23751" lon="5.79456">
        <ele>475.6</ele>
        <time>2025-03-21T12:14:34Z</time>
      </trkpt>
      <trkpt lat="45.23754" lon="5.79463">
        <ele>475.1</ele>
        <time>2025-03-21T12:14:37Z</time>
      </trkpt>
      <trkpt lat="45.23757" lon="5.7947">
        <ele>475</ele>
        <time>2025-03-21T12:14:40Z</time>
      </trkpt>
      <trkpt lat="45.23759" lon="5.79477">
        <ele>475.1</ele>
        <time>2025-03-21T12:14:42Z</time>
      </trkpt>
      <trkpt lat="45.2376" lon="5.79483">
        <ele>475.2</ele>
        <time>2025-03-21T12:14:44Z</time>
      </trkpt>
      <trkpt lat="45.23762" lon="5.7949">
        <ele>477.1</ele>
        <time>2025-03-21T12:14:47Z</time>
      </trkpt>
      <trkpt lat="45.23763" lon="5.79498">
        <ele>477.8</ele>
        <time>2025-03-21T12:14:50Z</time>
      </trkpt>
      <trkpt lat="45.23764" lon="5.79505">
        <ele>478.9</ele>
        <time>2025-03-21T12:14:53Z</time>
      </trkpt>
      <trkpt lat="45.23765" lon="5.79512">
        <ele>479.2</ele>
        <time>2025-03-21T12:14:56Z</time>
      </trkpt>
      <trkpt lat="45.23766" lon="5.7952">
        <ele>480.3</ele>
        <time>2025-03-21T12:14:59Z</time>
      </trkpt>
      <trkpt lat="45.23767" lon="5.79528">
        <ele>481.3</ele>
        <time>2025-03-21T12:15:02Z</time>
      </trkpt>
      <trkpt lat="45.23768" lon="5.79536">
        <ele>482</ele>
        <time>2025-03-21T12:15:05Z</time>
      </trkpt>
      <trkpt lat="45.23769" lon="5.79543">
        <ele>483.4</ele>
        <time>2025-03-21T12:15:08Z</time>
      </trkpt>
      <trkpt lat="45.2377" lon="5.7955">
        <ele>483.8</ele>
        <time>2025-03-21T12:15:11Z</time>
      </trkpt>
      <trkpt lat="45.23773" lon="5.79557">
        <ele>484.6</ele>
        <time>2025-03-21T12:15:14Z</time>
      </trkpt>
      <trkpt lat="45.23776" lon="5.79562">
        <ele>484.7</ele>
        <time>2025-03-21T12:15:17Z</time>
      </trkpt>
      <trkpt lat="45.23779" lon="5.79567">
        <ele>484.7</ele>
        <time>2025-03-21T12:15:20Z</time>
      </trkpt>
      <trkpt lat="45.23784" lon="5.79565">
        <ele>484.9</ele>
        <time>2025-03-21T12:15:23Z</time>
      </trkpt>
      <trkpt lat="45.2379" lon="5.79564">
        <ele>484.5</ele>
        <time>2025-03-21T12:15:27Z</time>
      </trkpt>
      <trkpt lat="45.23795" lon="5.79562">
        <ele>485.2</ele>
        <time>2025-03-21T12:15:31Z</time>
      </trkpt>
      <trkpt lat="45.238" lon="5.79559">
        <ele>487.2</ele>
        <time>2025-03-21T12:15:37Z</time>
      </trkpt>
      <trkpt lat="45.23805" lon="5.79558">
        <ele>486.3</ele>
        <time>2025-03-21T12:15:44Z</time>
      </trkpt>
      <trkpt lat="45.23809" lon="5.79558">
        <ele>488</ele>
        <time>2025-03-21T12:15:50Z</time>
      </trkpt>
      <trkpt lat="45.23814" lon="5.79557">
        <ele>490.7</ele>
        <time>2025-03-21T12:15:55Z</time>
      </trkpt>
      <trkpt lat="45.23819" lon="5.79556">
        <ele>490.6</ele>
        <time>2025-03-21T12:16:00Z</time>
      </trkpt>
      <trkpt lat="45.23824" lon="5.79557">
        <ele>492.3</ele>
        <time>2025-03-21T12:16:05Z</time>
      </trkpt>
      <trkpt lat="45.23828" lon="5.7956">
        <ele>493.1</ele>
        <time>2025-03-21T12:16:10Z</time>
      </trkpt>
      <trkpt lat="45.23833" lon="5.79562">
        <ele>493.7</ele>
        <time>2025-03-21T12:16:14Z</time>
      </trkpt>
      <trkpt lat="45.23837" lon="5.79565">
        <ele>495.6</ele>
        <time>2025-03-21T12:16:19Z</time>
      </trkpt>
      <trkpt lat="45.23841" lon="5.79567">
        <ele>496.6</ele>
        <time>2025-03-21T12:16:24Z</time>
      </trkpt>
      <trkpt lat="45.23846" lon="5.79567">
        <ele>497.1</ele>
        <time>2025-03-21T12:16:29Z</time>
      </trkpt>
      <trkpt lat="45.23852" lon="5.79568">
        <ele>499.9</ele>
        <time>2025-03-21T12:16:34Z</time>
      </trkpt>
      <trkpt lat="45.23857" lon="5.79568">
        <ele>500.8</ele>
        <time>2025-03-21T12:16:39Z</time>
      </trkpt>
      <trkpt lat="45.23862" lon="5.79568">
        <ele>501.6</ele>
        <time>2025-03-21T12:16:44Z</time>
      </trkpt>
      <trkpt lat="45.23867" lon="5.79568">
        <ele>500.8</ele>
        <time>2025-03-21T12:16:50Z</time>
      </trkpt>
      <trkpt lat="45.23873" lon="5.79569">
        <ele>500.2</ele>
        <time>2025-03-21T12:16:55Z</time>
      </trkpt>
      <trkpt lat="45.23877" lon="5.79569">
        <ele>501.6</ele>
        <time>2025-03-21T12:16:59Z</time>
      </trkpt>
      <trkpt lat="45.23883" lon="5.79569">
        <ele>504.7</ele>
        <time>2025-03-21T12:17:04Z</time>
      </trkpt>
      <trkpt lat="45.23887" lon="5.79569">
        <ele>507.4</ele>
        <time>2025-03-21T12:17:08Z</time>
      </trkpt>
      <trkpt lat="45.23892" lon="5.79568">
        <ele>506.5</ele>
        <time>2025-03-21T12:17:12Z</time>
      </trkpt>
      <trkpt lat="45.23897" lon="5.79568">
        <ele>508</ele>
        <time>2025-03-21T12:17:16Z</time>
      </trkpt>
      <trkpt lat="45.23901" lon="5.79565">
        <ele>508.1</ele>
        <time>2025-03-21T12:17:21Z</time>
      </trkpt>
      <trkpt lat="45.23904" lon="5.79559">
        <ele>508.3</ele>
        <time>2025-03-21T12:17:26Z</time>
      </trkpt>
      <trkpt lat="45.23909" lon="5.79556">
        <ele>509.3</ele>
        <time>2025-03-21T12:17:31Z</time>
      </trkpt>
      <trkpt lat="45.23913" lon="5.79553">
        <ele>510.1</ele>
        <time>2025-03-21T12:17:36Z</time>
      </trkpt>
      <trkpt lat="45.23917" lon="5.79548">
        <ele>509.9</ele>
        <time>2025-03-21T12:17:41Z</time>
      </trkpt>
      <trkpt lat="45.23921" lon="5.79545">
        <ele>510.1</ele>
        <time>2025-03-21T12:17:45Z</time>
      </trkpt>
      <trkpt lat="45.23925" lon="5.7954">
        <ele>510</ele>
        <time>2025-03-21T12:17:50Z</time>
      </trkpt>
      <trkpt lat="45.23929" lon="5.79536">
        <ele>511.2</ele>
        <time>2025-03-21T12:17:55Z</time>
      </trkpt>
      <trkpt lat="45.23932" lon="5.79532">
        <ele>511.7</ele>
        <time>2025-03-21T12:18:00Z</time>
      </trkpt>
      <trkpt lat="45.23936" lon="5.79527">
        <ele>512.9</ele>
        <time>2025-03-21T12:18:05Z</time>
      </trkpt>
      <trkpt lat="45.2394" lon="5.79524">
        <ele>514.9</ele>
        <time>2025-03-21T12:18:10Z</time>
      </trkpt>
      <trkpt lat="45.23945" lon="5.79521">
        <ele>514.7</ele>
        <time>2025-03-21T12:18:16Z</time>
      </trkpt>
      <trkpt lat="45.23949" lon="5.79518">
        <ele>516.3</ele>
        <time>2025-03-21T12:18:21Z</time>
      </trkpt>
      <trkpt lat="45.23953" lon="5.79515">
        <ele>519.1</ele>
        <time>2025-03-21T12:18:26Z</time>
      </trkpt>
      <trkpt lat="45.23958" lon="5.79514">
        <ele>519.6</ele>
        <time>2025-03-21T12:18:33Z</time>
      </trkpt>
      <trkpt lat="45.23961" lon="5.79511">
        <ele>521</ele>
        <time>2025-03-21T12:18:39Z</time>
      </trkpt>
      <trkpt lat="45.23966" lon="5.79509">
        <ele>520.9</ele>
        <time>2025-03-21T12:18:45Z</time>
      </trkpt>
      <trkpt lat="45.2397" lon="5.79505">
        <ele>523</ele>
        <time>2025-03-21T12:18:51Z</time>
      </trkpt>
      <trkpt lat="45.23975" lon="5.79502">
        <ele>524.6</ele>
        <time>2025-03-21T12:18:56Z</time>
      </trkpt>
      <trkpt lat="45.23979" lon="5.79499">
        <ele>524.4</ele>
        <time>2025-03-21T12:19:03Z</time>
      </trkpt>
      <trkpt lat="45.23982" lon="5.79494">
        <ele>520.8</ele>
        <time>2025-03-21T12:19:08Z</time>
      </trkpt>
      <trkpt lat="45.23986" lon="5.79489">
        <ele>519.9</ele>
        <time>2025-03-21T12:19:14Z</time>
      </trkpt>
      <trkpt lat="45.2399" lon="5.79486">
        <ele>522.6</ele>
        <time>2025-03-21T12:19:22Z</time>
      </trkpt>
      <trkpt lat="45.23994" lon="5.79484">
        <ele>525.3</ele>
        <time>2025-03-21T12:19:30Z</time>
      </trkpt>
      <trkpt lat="45.23998" lon="5.79481">
        <ele>526.2</ele>
        <time>2025-03-21T12:20:49Z</time>
      </trkpt>
      <trkpt lat="45.24002" lon="5.79477">
        <ele>528.4</ele>
        <time>2025-03-21T12:20:54Z</time>
      </trkpt>
      <trkpt lat="45.24007" lon="5.79476">
        <ele>533.3</ele>
        <time>2025-03-21T12:21:00Z</time>
      </trkpt>
      <trkpt lat="45.24013" lon="5.79476">
        <ele>535.1</ele>
        <time>2025-03-21T12:21:06Z</time>
      </trkpt>
      <trkpt lat="45.24018" lon="5.79476">
        <ele>536.9</ele>
        <time>2025-03-21T12:21:11Z</time>
      </trkpt>
      <trkpt lat="45.24023" lon="5.7947">
        <ele>536.6</ele>
        <time>2025-03-21T12:21:16Z</time>
      </trkpt>
      <trkpt lat="45.24026" lon="5.79466">
        <ele>537</ele>
        <time>2025-03-21T12:21:20Z</time>
      </trkpt>
      <trkpt lat="45.24031" lon="5.79464">
        <ele>536.7</ele>
        <time>2025-03-21T12:21:26Z</time>
      </trkpt>
      <trkpt lat="45.24035" lon="5.79461">
        <ele>537.8</ele>
        <time>2025-03-21T12:21:31Z</time>
      </trkpt>
      <trkpt lat="45.24038" lon="5.79455">
        <ele>540.4</ele>
        <time>2025-03-21T12:21:36Z</time>
      </trkpt>
      <trkpt lat="45.24042" lon="5.79451">
        <ele>541.7</ele>
        <time>2025-03-21T12:21:41Z</time>
      </trkpt>
      <trkpt lat="45.24047" lon="5.79449">
        <ele>543.7</ele>
        <time>2025-03-21T12:21:46Z</time>
      </trkpt>
      <trkpt lat="45.24052" lon="5.79448">
        <ele>545.6</ele>
        <time>2025-03-21T12:21:51Z</time>
      </trkpt>
      <trkpt lat="45.24057" lon="5.79447">
        <ele>547.8</ele>
        <time>2025-03-21T12:21:56Z</time>
      </trkpt>
      <trkpt lat="45.24061" lon="5.79446">
        <ele>547.8</ele>
        <time>2025-03-21T12:22:00Z</time>
      </trkpt>
      <trkpt lat="45.24066" lon="5.79446">
        <ele>546.9</ele>
        <time>2025-03-21T12:22:06Z</time>
      </trkpt>
      <trkpt lat="45.24071" lon="5.79449">
        <ele>550</ele>
        <time>2025-03-21T12:22:16Z</time>
      </trkpt>
      <trkpt lat="45.24075" lon="5.79446">
        <ele>552.5</ele>
        <time>2025-03-21T12:22:28Z</time>
      </trkpt>
      <trkpt lat="45.24079" lon="5.79445">
        <ele>555</ele>
        <time>2025-03-21T12:22:36Z</time>
      </trkpt>
      <trkpt lat="45.24084" lon="5.79445">
        <ele>554.3</ele>
        <time>2025-03-21T12:22:44Z</time>
      </trkpt>
      <trkpt lat="45.24089" lon="5.79442">
        <ele>554.2</ele>
        <time>2025-03-21T12:22:51Z</time>
      </trkpt>
      <trkpt lat="45.24091" lon="5.79437">
        <ele>556</ele>
        <time>2025-03-21T12:22:59Z</time>
      </trkpt>
      <trkpt lat="45.24094" lon="5.7943">
        <ele>558.2</ele>
        <time>2025-03-21T12:23:07Z</time>
      </trkpt>
      <trkpt lat="45.24097" lon="5.79425">
        <ele>558.8</ele>
        <time>2025-03-21T12:23:17Z</time>
      </trkpt>
      <trkpt lat="45.24101" lon="5.79422">
        <ele>560.4</ele>
        <time>2025-03-21T12:23:26Z</time>
      </trkpt>
      <trkpt lat="45.24106" lon="5.7942">
        <ele>561.2</ele>
        <time>2025-03-21T12:23:42Z</time>
      </trkpt>
      <trkpt lat="45.24111" lon="5.79421">
        <ele>562.4</ele>
        <time>2025-03-21T12:23:48Z</time>
      </trkpt>
      <trkpt lat="45.24116" lon="5.79422">
        <ele>564</ele>
        <time>2025-03-21T12:23:54Z</time>
      </trkpt>
      <trkpt lat="45.2412" lon="5.79423">
        <ele>564.3</ele>
        <time>2025-03-21T12:23:59Z</time>
      </trkpt>
      <trkpt lat="45.24125" lon="5.79424">
        <ele>565.4</ele>
        <time>2025-03-21T12:24:04Z</time>
      </trkpt>
      <trkpt lat="45.24128" lon="5.79428">
        <ele>567.5</ele>
        <time>2025-03-21T12:24:08Z</time>
      </trkpt>
      <trkpt lat="45.24133" lon="5.79431">
        <ele>567.2</ele>
        <time>2025-03-21T12:24:13Z</time>
      </trkpt>
      <trkpt lat="45.24136" lon="5.79437">
        <ele>565.1</ele>
        <time>2025-03-21T12:24:52Z</time>
      </trkpt>
      <trkpt lat="45.2414" lon="5.79443">
        <ele>565.1</ele>
        <time>2025-03-21T12:24:56Z</time>
      </trkpt>
      <trkpt lat="45.24145" lon="5.79444">
        <ele>565.1</ele>
        <time>2025-03-21T12:24:59Z</time>
      </trkpt>
      <trkpt lat="45.2415" lon="5.79445">
        <ele>564</ele>
        <time>2025-03-21T12:25:23Z</time>
      </trkpt>
      <trkpt lat="45.24155" lon="5.79449">
        <ele>562</ele>
        <time>2025-03-21T12:25:27Z</time>
      </trkpt>
      <trkpt lat="45.24158" lon="5.79454">
        <ele>556.1</ele>
        <time>2025-03-21T12:25:31Z</time>
      </trkpt>
      <trkpt lat="45.24161" lon="5.7946">
        <ele>550.6</ele>
        <time>2025-03-21T12:25:34Z</time>
      </trkpt>
      <trkpt lat="45.24167" lon="5.79468">
        <ele>549.5</ele>
        <time>2025-03-21T12:25:36Z</time>
      </trkpt>
      <trkpt lat="45.24171" lon="5.79474">
        <ele>549.8</ele>
        <time>2025-03-21T12:25:38Z</time>
      </trkpt>
      <trkpt lat="45.24179" lon="5.79489">
        <ele>549.6</ele>
        <time>2025-03-21T12:25:39Z</time>
      </trkpt>
      <trkpt lat="45.24184" lon="5.79499">
        <ele>556.4</ele>
        <time>2025-03-21T12:25:41Z</time>
      </trkpt>
      <trkpt lat="45.24185" lon="5.79505">
        <ele>562.1</ele>
        <time>2025-03-21T12:25:43Z</time>
      </trkpt>
      <trkpt lat="45.2419" lon="5.79512">
        <ele>560.7</ele>
        <time>2025-03-21T12:25:45Z</time>
      </trkpt>
      <trkpt lat="45.24193" lon="5.79517">
        <ele>560.1</ele>
        <time>2025-03-21T12:25:47Z</time>
      </trkpt>
      <trkpt lat="45.24198" lon="5.79523">
        <ele>559.7</ele>
        <time>2025-03-21T12:25:49Z</time>
      </trkpt>
      <trkpt lat="45.24204" lon="5.79531">
        <ele>559</ele>
        <time>2025-03-21T12:25:51Z</time>
      </trkpt>
      <trkpt lat="45.24207" lon="5.79536">
        <ele>558.9</ele>
        <time>2025-03-21T12:25:52Z</time>
      </trkpt>
      <trkpt lat="45.24212" lon="5.79548">
        <ele>559.2</ele>
        <time>2025-03-21T12:25:54Z</time>
      </trkpt>
      <trkpt lat="45.24217" lon="5.79555">
        <ele>558.8</ele>
        <time>2025-03-21T12:25:56Z</time>
      </trkpt>
      <trkpt lat="45.24222" lon="5.79563">
        <ele>558.3</ele>
        <time>2025-03-21T12:25:58Z</time>
      </trkpt>
      <trkpt lat="45.24227" lon="5.79572">
        <ele>558.6</ele>
        <time>2025-03-21T12:26:00Z</time>
      </trkpt>
      <trkpt lat="45.24232" lon="5.79579">
        <ele>559.4</ele>
        <time>2025-03-21T12:26:02Z</time>
      </trkpt>
      <trkpt lat="45.24236" lon="5.79585">
        <ele>559.6</ele>
        <time>2025-03-21T12:26:04Z</time>
      </trkpt>
      <trkpt lat="45.24239" lon="5.7959">
        <ele>559.7</ele>
        <time>2025-03-21T12:26:06Z</time>
      </trkpt>
      <trkpt lat="45.24242" lon="5.79599">
        <ele>559.6</ele>
        <time>2025-03-21T12:26:09Z</time>
      </trkpt>
      <trkpt lat="45.24245" lon="5.79605">
        <ele>559.7</ele>
        <time>2025-03-21T12:26:11Z</time>
      </trkpt>
      <trkpt lat="45.24249" lon="5.79611">
        <ele>560</ele>
        <time>2025-03-21T12:26:13Z</time>
      </trkpt>
      <trkpt lat="45.24253" lon="5.79618">
        <ele>560.2</ele>
        <time>2025-03-21T12:26:15Z</time>
      </trkpt>
      <trkpt lat="45.24258" lon="5.79626">
        <ele>560.2</ele>
        <time>2025-03-21T12:26:17Z</time>
      </trkpt>
      <trkpt lat="45.24263" lon="5.79633">
        <ele>560.1</ele>
        <time>2025-03-21T12:26:19Z</time>
      </trkpt>
      <trkpt lat="45.24267" lon="5.79638">
        <ele>559.2</ele>
        <time>2025-03-21T12:26:21Z</time>
      </trkpt>
      <trkpt lat="45.24272" lon="5.79644">
        <ele>558.1</ele>
        <time>2025-03-21T12:26:23Z</time>
      </trkpt>
      <trkpt lat="45.24276" lon="5.79649">
        <ele>556.4</ele>
        <time>2025-03-21T12:26:25Z</time>
      </trkpt>
      <trkpt lat="45.2428" lon="5.79654">
        <ele>556.1</ele>
        <time>2025-03-21T12:26:27Z</time>
      </trkpt>
      <trkpt lat="45.24286" lon="5.7966">
        <ele>554.5</ele>
        <time>2025-03-21T12:26:29Z</time>
      </trkpt>
      <trkpt lat="45.24292" lon="5.79667">
        <ele>554.3</ele>
        <time>2025-03-21T12:26:31Z</time>
      </trkpt>
      <trkpt lat="45.24298" lon="5.79674">
        <ele>554.9</ele>
        <time>2025-03-21T12:26:33Z</time>
      </trkpt>
      <trkpt lat="45.24303" lon="5.7968">
        <ele>554.7</ele>
        <time>2025-03-21T12:26:35Z</time>
      </trkpt>
      <trkpt lat="45.24309" lon="5.79687">
        <ele>554.8</ele>
        <time>2025-03-21T12:26:37Z</time>
      </trkpt>
      <trkpt lat="45.24315" lon="5.79694">
        <ele>554.5</ele>
        <time>2025-03-21T12:26:39Z</time>
      </trkpt>
      <trkpt lat="45.2432" lon="5.79702">
        <ele>554.9</ele>
        <time>2025-03-21T12:26:41Z</time>
      </trkpt>
      <trkpt lat="45.24325" lon="5.79709">
        <ele>554.5</ele>
        <time>2025-03-21T12:26:43Z</time>
      </trkpt>
      <trkpt lat="45.24331" lon="5.79716">
        <ele>553</ele>
        <time>2025-03-21T12:26:45Z</time>
      </trkpt>
      <trkpt lat="45.24338" lon="5.79722">
        <ele>552.6</ele>
        <time>2025-03-21T12:26:47Z</time>
      </trkpt>
      <trkpt lat="45.24344" lon="5.79728">
        <ele>551.5</ele>
        <time>2025-03-21T12:26:49Z</time>
      </trkpt>
      <trkpt lat="45.24351" lon="5.79734">
        <ele>551.2</ele>
        <time>2025-03-21T12:26:51Z</time>
      </trkpt>
      <trkpt lat="45.24358" lon="5.79739">
        <ele>551.2</ele>
        <time>2025-03-21T12:26:53Z</time>
      </trkpt>
      <trkpt lat="45.24365" lon="5.79742">
        <ele>550.1</ele>
        <time>2025-03-21T12:26:55Z</time>
      </trkpt>
      <trkpt lat="45.24371" lon="5.79745">
        <ele>550.2</ele>
        <time>2025-03-21T12:26:57Z</time>
      </trkpt>
      <trkpt lat="45.24376" lon="5.79746">
        <ele>550.3</ele>
        <time>2025-03-21T12:26:59Z</time>
      </trkpt>
      <trkpt lat="45.24381" lon="5.79748">
        <ele>550.4</ele>
        <time>2025-03-21T12:27:01Z</time>
      </trkpt>
      <trkpt lat="45.24386" lon="5.79749">
        <ele>550.2</ele>
        <time>2025-03-21T12:27:03Z</time>
      </trkpt>
      <trkpt lat="45.24393" lon="5.7975">
        <ele>550</ele>
        <time>2025-03-21T12:27:05Z</time>
      </trkpt>
      <trkpt lat="45.24399" lon="5.79753">
        <ele>550.5</ele>
        <time>2025-03-21T12:27:07Z</time>
      </trkpt>
      <trkpt lat="45.24405" lon="5.79755">
        <ele>551.6</ele>
        <time>2025-03-21T12:27:10Z</time>
      </trkpt>
      <trkpt lat="45.2441" lon="5.79758">
        <ele>550.8</ele>
        <time>2025-03-21T12:27:12Z</time>
      </trkpt>
      <trkpt lat="45.24413" lon="5.79764">
        <ele>550.4</ele>
        <time>2025-03-21T12:27:14Z</time>
      </trkpt>
      <trkpt lat="45.24418" lon="5.79771">
        <ele>550.8</ele>
        <time>2025-03-21T12:27:16Z</time>
      </trkpt>
      <trkpt lat="45.24425" lon="5.79775">
        <ele>550.8</ele>
        <time>2025-03-21T12:27:17Z</time>
      </trkpt>
      <trkpt lat="45.24434" lon="5.79775">
        <ele>550.9</ele>
        <time>2025-03-21T12:27:18Z</time>
      </trkpt>
      <trkpt lat="45.24439" lon="5.79779">
        <ele>551.6</ele>
        <time>2025-03-21T12:27:20Z</time>
      </trkpt>
      <trkpt lat="45.24441" lon="5.79788">
        <ele>552.6</ele>
        <time>2025-03-21T12:27:23Z</time>
      </trkpt>
      <trkpt lat="45.24441" lon="5.79794">
        <ele>553.4</ele>
        <time>2025-03-21T12:27:25Z</time>
      </trkpt>
      <trkpt lat="45.24446" lon="5.798">
        <ele>553.6</ele>
        <time>2025-03-21T12:27:28Z</time>
      </trkpt>
      <trkpt lat="45.24449" lon="5.79808">
        <ele>554.5</ele>
        <time>2025-03-21T12:27:31Z</time>
      </trkpt>
      <trkpt lat="45.2445" lon="5.79814">
        <ele>554.9</ele>
        <time>2025-03-21T12:27:33Z</time>
      </trkpt>
      <trkpt lat="45.24452" lon="5.79823">
        <ele>555.1</ele>
        <time>2025-03-21T12:27:35Z</time>
      </trkpt>
      <trkpt lat="45.24451" lon="5.79833">
        <ele>554.3</ele>
        <time>2025-03-21T12:27:37Z</time>
      </trkpt>
      <trkpt lat="45.24449" lon="5.79839">
        <ele>554.2</ele>
        <time>2025-03-21T12:27:38Z</time>
      </trkpt>
      <trkpt lat="45.24447" lon="5.7985">
        <ele>552.4</ele>
        <time>2025-03-21T12:27:40Z</time>
      </trkpt>
      <trkpt lat="45.24447" lon="5.79862">
        <ele>552.2</ele>
        <time>2025-03-21T12:27:42Z</time>
      </trkpt>
      <trkpt lat="45.24448" lon="5.7987">
        <ele>551</ele>
        <time>2025-03-21T12:27:44Z</time>
      </trkpt>
      <trkpt lat="45.2445" lon="5.79878">
        <ele>551.3</ele>
        <time>2025-03-21T12:27:46Z</time>
      </trkpt>
      <trkpt lat="45.24453" lon="5.79887">
        <ele>551.2</ele>
        <time>2025-03-21T12:27:48Z</time>
      </trkpt>
      <trkpt lat="45.24455" lon="5.79894">
        <ele>551.7</ele>
        <time>2025-03-21T12:27:50Z</time>
      </trkpt>
      <trkpt lat="45.24458" lon="5.799">
        <ele>551.6</ele>
        <time>2025-03-21T12:27:52Z</time>
      </trkpt>
      <trkpt lat="45.24462" lon="5.79908">
        <ele>550.2</ele>
        <time>2025-03-21T12:27:54Z</time>
      </trkpt>
      <trkpt lat="45.24468" lon="5.79915">
        <ele>549.2</ele>
        <time>2025-03-21T12:27:56Z</time>
      </trkpt>
      <trkpt lat="45.24473" lon="5.79918">
        <ele>549.1</ele>
        <time>2025-03-21T12:27:58Z</time>
      </trkpt>
      <trkpt lat="45.2448" lon="5.79921">
        <ele>549.2</ele>
        <time>2025-03-21T12:28:01Z</time>
      </trkpt>
      <trkpt lat="45.24485" lon="5.7992">
        <ele>549.3</ele>
        <time>2025-03-21T12:28:03Z</time>
      </trkpt>
      <trkpt lat="45.2449" lon="5.79919">
        <ele>550.5</ele>
        <time>2025-03-21T12:28:05Z</time>
      </trkpt>
      <trkpt lat="45.24494" lon="5.79918">
        <ele>550.6</ele>
        <time>2025-03-21T12:28:07Z</time>
      </trkpt>
      <trkpt lat="45.245" lon="5.79915">
        <ele>551.4</ele>
        <time>2025-03-21T12:28:09Z</time>
      </trkpt>
      <trkpt lat="45.24504" lon="5.79912">
        <ele>552.7</ele>
        <time>2025-03-21T12:28:11Z</time>
      </trkpt>
      <trkpt lat="45.2451" lon="5.79911">
        <ele>552.3</ele>
        <time>2025-03-21T12:28:14Z</time>
      </trkpt>
      <trkpt lat="45.24517" lon="5.7991">
        <ele>552</ele>
        <time>2025-03-21T12:28:17Z</time>
      </trkpt>
      <trkpt lat="45.24522" lon="5.79911">
        <ele>552.6</ele>
        <time>2025-03-21T12:28:19Z</time>
      </trkpt>
      <trkpt lat="45.24527" lon="5.79912">
        <ele>552.7</ele>
        <time>2025-03-21T12:28:21Z</time>
      </trkpt>
      <trkpt lat="45.24531" lon="5.79913">
        <ele>552.7</ele>
        <time>2025-03-21T12:28:23Z</time>
      </trkpt>
      <trkpt lat="45.24536" lon="5.79914">
        <ele>552.3</ele>
        <time>2025-03-21T12:28:25Z</time>
      </trkpt>
      <trkpt lat="45.24541" lon="5.79915">
        <ele>552.6</ele>
        <time>2025-03-21T12:28:27Z</time>
      </trkpt>
      <trkpt lat="45.24548" lon="5.79917">
        <ele>553.1</ele>
        <time>2025-03-21T12:28:30Z</time>
      </trkpt>
      <trkpt lat="45.24554" lon="5.7992">
        <ele>553.7</ele>
        <time>2025-03-21T12:28:33Z</time>
      </trkpt>
      <trkpt lat="45.24559" lon="5.79921">
        <ele>554.4</ele>
        <time>2025-03-21T12:28:35Z</time>
      </trkpt>
      <trkpt lat="45.24564" lon="5.79923">
        <ele>554.9</ele>
        <time>2025-03-21T12:28:37Z</time>
      </trkpt>
      <trkpt lat="45.2457" lon="5.79924">
        <ele>555.5</ele>
        <time>2025-03-21T12:28:39Z</time>
      </trkpt>
      <trkpt lat="45.24575" lon="5.79923">
        <ele>557.3</ele>
        <time>2025-03-21T12:28:41Z</time>
      </trkpt>
      <trkpt lat="45.2458" lon="5.79921">
        <ele>557.7</ele>
        <time>2025-03-21T12:28:43Z</time>
      </trkpt>
      <trkpt lat="45.24585" lon="5.79918">
        <ele>557</ele>
        <time>2025-03-21T12:28:46Z</time>
      </trkpt>
      <trkpt lat="45.2459" lon="5.79915">
        <ele>556.2</ele>
        <time>2025-03-21T12:28:49Z</time>
      </trkpt>
      <trkpt lat="45.24595" lon="5.7991">
        <ele>556.7</ele>
        <time>2025-03-21T12:28:52Z</time>
      </trkpt>
      <trkpt lat="45.24601" lon="5.79907">
        <ele>558.3</ele>
        <time>2025-03-21T12:28:55Z</time>
      </trkpt>
      <trkpt lat="45.24606" lon="5.79905">
        <ele>558</ele>
        <time>2025-03-21T12:28:57Z</time>
      </trkpt>
      <trkpt lat="45.2461" lon="5.79906">
        <ele>558.3</ele>
        <time>2025-03-21T12:28:59Z</time>
      </trkpt>
      <trkpt lat="45.24614" lon="5.7991">
        <ele>561</ele>
        <time>2025-03-21T12:29:01Z</time>
      </trkpt>
      <trkpt lat="45.24617" lon="5.79918">
        <ele>563.2</ele>
        <time>2025-03-21T12:29:04Z</time>
      </trkpt>
      <trkpt lat="45.24619" lon="5.79925">
        <ele>562.8</ele>
        <time>2025-03-21T12:29:07Z</time>
      </trkpt>
      <trkpt lat="45.24623" lon="5.79932">
        <ele>563.4</ele>
        <time>2025-03-21T12:29:10Z</time>
      </trkpt>
      <trkpt lat="45.24628" lon="5.79937">
        <ele>565.9</ele>
        <time>2025-03-21T12:29:13Z</time>
      </trkpt>
      <trkpt lat="45.24632" lon="5.79941">
        <ele>566.9</ele>
        <time>2025-03-21T12:29:16Z</time>
      </trkpt>
      <trkpt lat="45.24635" lon="5.79946">
        <ele>568.5</ele>
        <time>2025-03-21T12:29:19Z</time>
      </trkpt>
      <trkpt lat="45.24639" lon="5.79951">
        <ele>569.5</ele>
        <time>2025-03-21T12:29:22Z</time>
      </trkpt>
      <trkpt lat="45.24644" lon="5.79957">
        <ele>570.1</ele>
        <time>2025-03-21T12:29:25Z</time>
      </trkpt>
      <trkpt lat="45.24648" lon="5.79962">
        <ele>570.6</ele>
        <time>2025-03-21T12:29:28Z</time>
      </trkpt>
      <trkpt lat="45.24652" lon="5.79965">
        <ele>571.1</ele>
        <time>2025-03-21T12:29:31Z</time>
      </trkpt>
      <trkpt lat="45.24657" lon="5.79971">
        <ele>568.8</ele>
        <time>2025-03-21T12:29:34Z</time>
      </trkpt>
      <trkpt lat="45.24659" lon="5.7998">
        <ele>565.4</ele>
        <time>2025-03-21T12:29:37Z</time>
      </trkpt>
      <trkpt lat="45.24663" lon="5.79986">
        <ele>562.3</ele>
        <time>2025-03-21T12:29:39Z</time>
      </trkpt>
      <trkpt lat="45.24668" lon="5.79993">
        <ele>562</ele>
        <time>2025-03-21T12:29:41Z</time>
      </trkpt>
      <trkpt lat="45.24673" lon="5.79998">
        <ele>561.1</ele>
        <time>2025-03-21T12:29:43Z</time>
      </trkpt>
      <trkpt lat="45.24678" lon="5.80004">
        <ele>561</ele>
        <time>2025-03-21T12:29:45Z</time>
      </trkpt>
      <trkpt lat="45.24682" lon="5.8001">
        <ele>561.4</ele>
        <time>2025-03-21T12:29:47Z</time>
      </trkpt>
      <trkpt lat="45.24689" lon="5.80016">
        <ele>561.2</ele>
        <time>2025-03-21T12:29:49Z</time>
      </trkpt>
      <trkpt lat="45.24693" lon="5.80025">
        <ele>561.1</ele>
        <time>2025-03-21T12:29:51Z</time>
      </trkpt>
      <trkpt lat="45.24698" lon="5.80033">
        <ele>561</ele>
        <time>2025-03-21T12:29:53Z</time>
      </trkpt>
      <trkpt lat="45.247" lon="5.80041">
        <ele>560.9</ele>
        <time>2025-03-21T12:29:55Z</time>
      </trkpt>
      <trkpt lat="45.24701" lon="5.80049">
        <ele>560.7</ele>
        <time>2025-03-21T12:29:57Z</time>
      </trkpt>
      <trkpt lat="45.24703" lon="5.80056">
        <ele>560.5</ele>
        <time>2025-03-21T12:29:59Z</time>
      </trkpt>
      <trkpt lat="45.24707" lon="5.80067">
        <ele>561.5</ele>
        <time>2025-03-21T12:30:01Z</time>
      </trkpt>
      <trkpt lat="45.24711" lon="5.80073">
        <ele>561.7</ele>
        <time>2025-03-21T12:30:02Z</time>
      </trkpt>
      <trkpt lat="45.24715" lon="5.80087">
        <ele>561.3</ele>
        <time>2025-03-21T12:30:04Z</time>
      </trkpt>
      <trkpt lat="45.24721" lon="5.80096">
        <ele>561</ele>
        <time>2025-03-21T12:30:06Z</time>
      </trkpt>
      <trkpt lat="45.24728" lon="5.80101">
        <ele>559.1</ele>
        <time>2025-03-21T12:30:08Z</time>
      </trkpt>
      <trkpt lat="45.24734" lon="5.80104">
        <ele>557.6</ele>
        <time>2025-03-21T12:30:10Z</time>
      </trkpt>
      <trkpt lat="45.2474" lon="5.80107">
        <ele>558.9</ele>
        <time>2025-03-21T12:30:13Z</time>
      </trkpt>
      <trkpt lat="45.24744" lon="5.8011">
        <ele>559</ele>
        <time>2025-03-21T12:30:15Z</time>
      </trkpt>
      <trkpt lat="45.24749" lon="5.80114">
        <ele>556.9</ele>
        <time>2025-03-21T12:30:39Z</time>
      </trkpt>
      <trkpt lat="45.24749" lon="5.80123">
        <ele>556</ele>
        <time>2025-03-21T12:30:42Z</time>
      </trkpt>
      <trkpt lat="45.24745" lon="5.80129">
        <ele>556.4</ele>
        <time>2025-03-21T12:30:44Z</time>
      </trkpt>
      <trkpt lat="45.24739" lon="5.80132">
        <ele>556</ele>
        <time>2025-03-21T12:30:46Z</time>
      </trkpt>
      <trkpt lat="45.24733" lon="5.8013">
        <ele>556.2</ele>
        <time>2025-03-21T12:30:48Z</time>
      </trkpt>
      <trkpt lat="45.24727" lon="5.80128">
        <ele>556</ele>
        <time>2025-03-21T12:30:50Z</time>
      </trkpt>
      <trkpt lat="45.24723" lon="5.80125">
        <ele>555.6</ele>
        <time>2025-03-21T12:30:52Z</time>
      </trkpt>
      <trkpt lat="45.24716" lon="5.80125">
        <ele>555</ele>
        <time>2025-03-21T12:30:54Z</time>
      </trkpt>
      <trkpt lat="45.2471" lon="5.80125">
        <ele>555.5</ele>
        <time>2025-03-21T12:30:56Z</time>
      </trkpt>
      <trkpt lat="45.24704" lon="5.80127">
        <ele>554.5</ele>
        <time>2025-03-21T12:30:59Z</time>
      </trkpt>
      <trkpt lat="45.24699" lon="5.80129">
        <ele>554</ele>
        <time>2025-03-21T12:31:03Z</time>
      </trkpt>
      <trkpt lat="45.24696" lon="5.80134">
        <ele>552.9</ele>
        <time>2025-03-21T12:31:05Z</time>
      </trkpt>
      <trkpt lat="45.24689" lon="5.8014">
        <ele>552.9</ele>
        <time>2025-03-21T12:31:07Z</time>
      </trkpt>
      <trkpt lat="45.24685" lon="5.80145">
        <ele>553.1</ele>
        <time>2025-03-21T12:31:09Z</time>
      </trkpt>
      <trkpt lat="45.24681" lon="5.8015">
        <ele>553.6</ele>
        <time>2025-03-21T12:31:11Z</time>
      </trkpt>
      <trkpt lat="45.24678" lon="5.80157">
        <ele>553.6</ele>
        <time>2025-03-21T12:31:13Z</time>
      </trkpt>
      <trkpt lat="45.24676" lon="5.80166">
        <ele>552.9</ele>
        <time>2025-03-21T12:31:15Z</time>
      </trkpt>
      <trkpt lat="45.24673" lon="5.80176">
        <ele>551.7</ele>
        <time>2025-03-21T12:31:17Z</time>
      </trkpt>
      <trkpt lat="45.24669" lon="5.80184">
        <ele>551.4</ele>
        <time>2025-03-21T12:31:19Z</time>
      </trkpt>
      <trkpt lat="45.24666" lon="5.80192">
        <ele>550.3</ele>
        <time>2025-03-21T12:31:21Z</time>
      </trkpt>
      <trkpt lat="45.24663" lon="5.802">
        <ele>549.5</ele>
        <time>2025-03-21T12:31:23Z</time>
      </trkpt>
      <trkpt lat="45.24661" lon="5.80207">
        <ele>547.1</ele>
        <time>2025-03-21T12:31:25Z</time>
      </trkpt>
      <trkpt lat="45.2466" lon="5.80214">
        <ele>545.8</ele>
        <time>2025-03-21T12:31:27Z</time>
      </trkpt>
      <trkpt lat="45.24657" lon="5.80223">
        <ele>545.7</ele>
        <time>2025-03-21T12:31:30Z</time>
      </trkpt>
      <trkpt lat="45.24655" lon="5.80229">
        <ele>544.8</ele>
        <time>2025-03-21T12:31:32Z</time>
      </trkpt>
      <trkpt lat="45.24654" lon="5.80236">
        <ele>543.2</ele>
        <time>2025-03-21T12:31:34Z</time>
      </trkpt>
      <trkpt lat="45.24652" lon="5.80245">
        <ele>538.8</ele>
        <time>2025-03-21T12:31:37Z</time>
      </trkpt>
      <trkpt lat="45.2465" lon="5.80253">
        <ele>534.8</ele>
        <time>2025-03-21T12:31:40Z</time>
      </trkpt>
      <trkpt lat="45.24647" lon="5.8026">
        <ele>533.6</ele>
        <time>2025-03-21T12:31:43Z</time>
      </trkpt>
      <trkpt lat="45.24644" lon="5.80267">
        <ele>533.4</ele>
        <time>2025-03-21T12:31:45Z</time>
      </trkpt>
      <trkpt lat="45.2464" lon="5.80276">
        <ele>533</ele>
        <time>2025-03-21T12:31:47Z</time>
      </trkpt>
      <trkpt lat="45.24638" lon="5.80283">
        <ele>532.6</ele>
        <time>2025-03-21T12:31:49Z</time>
      </trkpt>
      <trkpt lat="45.24634" lon="5.8029">
        <ele>530.1</ele>
        <time>2025-03-21T12:31:52Z</time>
      </trkpt>
      <trkpt lat="45.24629" lon="5.80296">
        <ele>528.6</ele>
        <time>2025-03-21T12:31:55Z</time>
      </trkpt>
      <trkpt lat="45.24625" lon="5.80301">
        <ele>527.9</ele>
        <time>2025-03-21T12:31:57Z</time>
      </trkpt>
      <trkpt lat="45.24621" lon="5.80307">
        <ele>526.1</ele>
        <time>2025-03-21T12:31:59Z</time>
      </trkpt>
      <trkpt lat="45.24615" lon="5.80315">
        <ele>525.2</ele>
        <time>2025-03-21T12:32:01Z</time>
      </trkpt>
      <trkpt lat="45.24611" lon="5.80319">
        <ele>523.6</ele>
        <time>2025-03-21T12:32:03Z</time>
      </trkpt>
      <trkpt lat="45.24609" lon="5.80325">
        <ele>522.4</ele>
        <time>2025-03-21T12:32:07Z</time>
      </trkpt>
      <trkpt lat="45.24609" lon="5.80335">
        <ele>517.1</ele>
        <time>2025-03-21T12:32:10Z</time>
      </trkpt>
      <trkpt lat="45.24611" lon="5.80345">
        <ele>513.6</ele>
        <time>2025-03-21T12:32:13Z</time>
      </trkpt>
      <trkpt lat="45.24613" lon="5.80352">
        <ele>512.1</ele>
        <time>2025-03-21T12:32:15Z</time>
      </trkpt>
      <trkpt lat="45.24616" lon="5.80357">
        <ele>511.3</ele>
        <time>2025-03-21T12:32:17Z</time>
      </trkpt>
      <trkpt lat="45.24619" lon="5.80364">
        <ele>509.1</ele>
        <time>2025-03-21T12:32:19Z</time>
      </trkpt>
      <trkpt lat="45.24621" lon="5.80371">
        <ele>508.7</ele>
        <time>2025-03-21T12:32:21Z</time>
      </trkpt>
      <trkpt lat="45.24623" lon="5.80379">
        <ele>508.3</ele>
        <time>2025-03-21T12:32:23Z</time>
      </trkpt>
      <trkpt lat="45.24623" lon="5.80387">
        <ele>507.5</ele>
        <time>2025-03-21T12:32:25Z</time>
      </trkpt>
      <trkpt lat="45.24623" lon="5.80396">
        <ele>506.8</ele>
        <time>2025-03-21T12:32:27Z</time>
      </trkpt>
      <trkpt lat="45.24621" lon="5.80403">
        <ele>504.9</ele>
        <time>2025-03-21T12:32:29Z</time>
      </trkpt>
      <trkpt lat="45.24619" lon="5.80411">
        <ele>503.4</ele>
        <time>2025-03-21T12:32:31Z</time>
      </trkpt>
      <trkpt lat="45.24617" lon="5.80419">
        <ele>502.3</ele>
        <time>2025-03-21T12:32:33Z</time>
      </trkpt>
      <trkpt lat="45.24613" lon="5.80426">
        <ele>501.8</ele>
        <time>2025-03-21T12:32:35Z</time>
      </trkpt>
      <trkpt lat="45.24609" lon="5.80432">
        <ele>501.1</ele>
        <time>2025-03-21T12:32:37Z</time>
      </trkpt>
      <trkpt lat="45.24606" lon="5.80437">
        <ele>499.8</ele>
        <time>2025-03-21T12:32:39Z</time>
      </trkpt>
      <trkpt lat="45.24602" lon="5.80444">
        <ele>498.3</ele>
        <time>2025-03-21T12:32:41Z</time>
      </trkpt>
      <trkpt lat="45.24598" lon="5.80451">
        <ele>498</ele>
        <time>2025-03-21T12:32:43Z</time>
      </trkpt>
      <trkpt lat="45.24594" lon="5.80458">
        <ele>498.1</ele>
        <time>2025-03-21T12:32:45Z</time>
      </trkpt>
      <trkpt lat="45.24591" lon="5.80464">
        <ele>498.4</ele>
        <time>2025-03-21T12:32:47Z</time>
      </trkpt>
      <trkpt lat="45.24587" lon="5.80471">
        <ele>497.9</ele>
        <time>2025-03-21T12:32:49Z</time>
      </trkpt>
      <trkpt lat="45.24583" lon="5.80478">
        <ele>497.8</ele>
        <time>2025-03-21T12:32:51Z</time>
      </trkpt>
      <trkpt lat="45.24579" lon="5.80484">
        <ele>497.5</ele>
        <time>2025-03-21T12:32:53Z</time>
      </trkpt>
      <trkpt lat="45.24576" lon="5.80491">
        <ele>497.3</ele>
        <time>2025-03-21T12:32:55Z</time>
      </trkpt>
      <trkpt lat="45.24572" lon="5.80497">
        <ele>496.7</ele>
        <time>2025-03-21T12:32:57Z</time>
      </trkpt>
      <trkpt lat="45.24567" lon="5.80504">
        <ele>496.2</ele>
        <time>2025-03-21T12:32:59Z</time>
      </trkpt>
      <trkpt lat="45.24564" lon="5.80511">
        <ele>495.8</ele>
        <time>2025-03-21T12:33:01Z</time>
      </trkpt>
      <trkpt lat="45.24561" lon="5.80516">
        <ele>494.8</ele>
        <time>2025-03-21T12:33:03Z</time>
      </trkpt>
      <trkpt lat="45.24558" lon="5.80522">
        <ele>493.1</ele>
        <time>2025-03-21T12:33:05Z</time>
      </trkpt>
      <trkpt lat="45.24556" lon="5.80528">
        <ele>492.7</ele>
        <time>2025-03-21T12:33:07Z</time>
      </trkpt>
      <trkpt lat="45.24552" lon="5.80533">
        <ele>492.4</ele>
        <time>2025-03-21T12:33:09Z</time>
      </trkpt>
      <trkpt lat="45.24548" lon="5.80539">
        <ele>490</ele>
        <time>2025-03-21T12:33:12Z</time>
      </trkpt>
      <trkpt lat="45.24544" lon="5.80543">
        <ele>488.5</ele>
        <time>2025-03-21T12:33:14Z</time>
      </trkpt>
      <trkpt lat="45.24538" lon="5.80549">
        <ele>487.6</ele>
        <time>2025-03-21T12:33:16Z</time>
      </trkpt>
      <trkpt lat="45.24533" lon="5.80556">
        <ele>487</ele>
        <time>2025-03-21T12:33:18Z</time>
      </trkpt>
      <trkpt lat="45.24531" lon="5.80561">
        <ele>485.7</ele>
        <time>2025-03-21T12:33:21Z</time>
      </trkpt>
      <trkpt lat="45.24532" lon="5.80569">
        <ele>482.6</ele>
        <time>2025-03-21T12:33:24Z</time>
      </trkpt>
      <trkpt lat="45.24536" lon="5.80575">
        <ele>481.5</ele>
        <time>2025-03-21T12:33:27Z</time>
      </trkpt>
      <trkpt lat="45.2454" lon="5.8058">
        <ele>480.6</ele>
        <time>2025-03-21T12:33:29Z</time>
      </trkpt>
      <trkpt lat="45.24544" lon="5.80584">
        <ele>479.8</ele>
        <time>2025-03-21T12:33:31Z</time>
      </trkpt>
      <trkpt lat="45.24549" lon="5.80585">
        <ele>479.2</ele>
        <time>2025-03-21T12:33:34Z</time>
      </trkpt>
      <trkpt lat="45.24554" lon="5.8059">
        <ele>478.6</ele>
        <time>2025-03-21T12:33:37Z</time>
      </trkpt>
      <trkpt lat="45.24558" lon="5.80597">
        <ele>477.7</ele>
        <time>2025-03-21T12:33:40Z</time>
      </trkpt>
      <trkpt lat="45.24562" lon="5.80603">
        <ele>476.7</ele>
        <time>2025-03-21T12:33:42Z</time>
      </trkpt>
      <trkpt lat="45.24565" lon="5.80609">
        <ele>475.9</ele>
        <time>2025-03-21T12:33:44Z</time>
      </trkpt>
      <trkpt lat="45.24569" lon="5.80614">
        <ele>475.3</ele>
        <time>2025-03-21T12:33:46Z</time>
      </trkpt>
      <trkpt lat="45.24573" lon="5.8062">
        <ele>474.1</ele>
        <time>2025-03-21T12:33:48Z</time>
      </trkpt>
      <trkpt lat="45.24576" lon="5.80628">
        <ele>473.3</ele>
        <time>2025-03-21T12:33:50Z</time>
      </trkpt>
      <trkpt lat="45.24578" lon="5.80637">
        <ele>473</ele>
        <time>2025-03-21T12:33:52Z</time>
      </trkpt>
      <trkpt lat="45.24578" lon="5.80646">
        <ele>473.1</ele>
        <time>2025-03-21T12:33:54Z</time>
      </trkpt>
      <trkpt lat="45.24575" lon="5.80654">
        <ele>472.9</ele>
        <time>2025-03-21T12:33:56Z</time>
      </trkpt>
      <trkpt lat="45.24572" lon="5.80662">
        <ele>472.4</ele>
        <time>2025-03-21T12:33:58Z</time>
      </trkpt>
      <trkpt lat="45.24567" lon="5.80668">
        <ele>471.8</ele>
        <time>2025-03-21T12:34:00Z</time>
      </trkpt>
      <trkpt lat="45.2456" lon="5.80672">
        <ele>470.6</ele>
        <time>2025-03-21T12:34:02Z</time>
      </trkpt>
      <trkpt lat="45.24555" lon="5.80676">
        <ele>471</ele>
        <time>2025-03-21T12:34:04Z</time>
      </trkpt>
      <trkpt lat="45.24549" lon="5.80679">
        <ele>471.6</ele>
        <time>2025-03-21T12:34:06Z</time>
      </trkpt>
      <trkpt lat="45.24543" lon="5.80682">
        <ele>471.5</ele>
        <time>2025-03-21T12:34:08Z</time>
      </trkpt>
      <trkpt lat="45.24538" lon="5.80684">
        <ele>471.1</ele>
        <time>2025-03-21T12:34:10Z</time>
      </trkpt>
      <trkpt lat="45.24533" lon="5.80687">
        <ele>470.5</ele>
        <time>2025-03-21T12:34:12Z</time>
      </trkpt>
      <trkpt lat="45.24528" lon="5.80691">
        <ele>468.8</ele>
        <time>2025-03-21T12:34:14Z</time>
      </trkpt>
      <trkpt lat="45.24524" lon="5.80695">
        <ele>468.2</ele>
        <time>2025-03-21T12:34:16Z</time>
      </trkpt>
      <trkpt lat="45.24519" lon="5.80697">
        <ele>467.3</ele>
        <time>2025-03-21T12:34:18Z</time>
      </trkpt>
      <trkpt lat="45.24514" lon="5.80702">
        <ele>467.1</ele>
        <time>2025-03-21T12:34:20Z</time>
      </trkpt>
      <trkpt lat="45.24508" lon="5.80705">
        <ele>467</ele>
        <time>2025-03-21T12:34:22Z</time>
      </trkpt>
      <trkpt lat="45.24503" lon="5.8071">
        <ele>465.7</ele>
        <time>2025-03-21T12:34:24Z</time>
      </trkpt>
      <trkpt lat="45.24498" lon="5.80715">
        <ele>463.7</ele>
        <time>2025-03-21T12:34:26Z</time>
      </trkpt>
      <trkpt lat="45.24493" lon="5.8072">
        <ele>462.7</ele>
        <time>2025-03-21T12:34:28Z</time>
      </trkpt>
      <trkpt lat="45.24487" lon="5.80722">
        <ele>461.5</ele>
        <time>2025-03-21T12:34:30Z</time>
      </trkpt>
      <trkpt lat="45.2448" lon="5.80726">
        <ele>461.2</ele>
        <time>2025-03-21T12:34:32Z</time>
      </trkpt>
      <trkpt lat="45.24475" lon="5.8073">
        <ele>460</ele>
        <time>2025-03-21T12:34:34Z</time>
      </trkpt>
      <trkpt lat="45.2447" lon="5.80732">
        <ele>458.7</ele>
        <time>2025-03-21T12:34:36Z</time>
      </trkpt>
      <trkpt lat="45.24465" lon="5.80734">
        <ele>457.4</ele>
        <time>2025-03-21T12:34:38Z</time>
      </trkpt>
      <trkpt lat="45.2446" lon="5.80738">
        <ele>456.2</ele>
        <time>2025-03-21T12:34:40Z</time>
      </trkpt>
      <trkpt lat="45.24454" lon="5.80741">
        <ele>455.2</ele>
        <time>2025-03-21T12:34:42Z</time>
      </trkpt>
      <trkpt lat="45.24448" lon="5.80744">
        <ele>454.6</ele>
        <time>2025-03-21T12:34:44Z</time>
      </trkpt>
      <trkpt lat="45.24441" lon="5.80746">
        <ele>454.2</ele>
        <time>2025-03-21T12:34:46Z</time>
      </trkpt>
      <trkpt lat="45.24434" lon="5.80749">
        <ele>452.9</ele>
        <time>2025-03-21T12:34:48Z</time>
      </trkpt>
      <trkpt lat="45.24426" lon="5.80753">
        <ele>451.9</ele>
        <time>2025-03-21T12:34:50Z</time>
      </trkpt>
      <trkpt lat="45.24419" lon="5.80754">
        <ele>451.1</ele>
        <time>2025-03-21T12:34:52Z</time>
      </trkpt>
      <trkpt lat="45.24412" lon="5.80752">
        <ele>450.5</ele>
        <time>2025-03-21T12:34:54Z</time>
      </trkpt>
      <trkpt lat="45.24407" lon="5.80749">
        <ele>450.1</ele>
        <time>2025-03-21T12:34:56Z</time>
      </trkpt>
      <trkpt lat="45.244" lon="5.80747">
        <ele>449.9</ele>
        <time>2025-03-21T12:34:58Z</time>
      </trkpt>
      <trkpt lat="45.24393" lon="5.80744">
        <ele>449</ele>
        <time>2025-03-21T12:35:00Z</time>
      </trkpt>
      <trkpt lat="45.24387" lon="5.80741">
        <ele>448.5</ele>
        <time>2025-03-21T12:35:02Z</time>
      </trkpt>
      <trkpt lat="45.2438" lon="5.80738">
        <ele>448.2</ele>
        <time>2025-03-21T12:35:04Z</time>
      </trkpt>
      <trkpt lat="45.24374" lon="5.80735">
        <ele>447.7</ele>
        <time>2025-03-21T12:35:06Z</time>
      </trkpt>
      <trkpt lat="45.24369" lon="5.80733">
        <ele>447</ele>
        <time>2025-03-21T12:35:08Z</time>
      </trkpt>
      <trkpt lat="45.24363" lon="5.8073">
        <ele>445.8</ele>
        <time>2025-03-21T12:35:10Z</time>
      </trkpt>
      <trkpt lat="45.24357" lon="5.80729">
        <ele>444.9</ele>
        <time>2025-03-21T12:35:12Z</time>
      </trkpt>
      <trkpt lat="45.24352" lon="5.80727">
        <ele>443.9</ele>
        <time>2025-03-21T12:35:14Z</time>
      </trkpt>
      <trkpt lat="45.24346" lon="5.80726">
        <ele>443</ele>
        <time>2025-03-21T12:35:16Z</time>
      </trkpt>
      <trkpt lat="45.24341" lon="5.80724">
        <ele>442.6</ele>
        <time>2025-03-21T12:35:18Z</time>
      </trkpt>
      <trkpt lat="45.24336" lon="5.80722">
        <ele>442.2</ele>
        <time>2025-03-21T12:35:20Z</time>
      </trkpt>
      <trkpt lat="45.24332" lon="5.80721">
        <ele>442.1</ele>
        <time>2025-03-21T12:35:22Z</time>
      </trkpt>
      <trkpt lat="45.24328" lon="5.80725">
        <ele>441.7</ele>
        <time>2025-03-21T12:35:24Z</time>
      </trkpt>
      <trkpt lat="45.24325" lon="5.80731">
        <ele>441.2</ele>
        <time>2025-03-21T12:35:26Z</time>
      </trkpt>
      <trkpt lat="45.24321" lon="5.80736">
        <ele>440.5</ele>
        <time>2025-03-21T12:35:28Z</time>
      </trkpt>
      <trkpt lat="45.24317" lon="5.80741">
        <ele>439.6</ele>
        <time>2025-03-21T12:35:30Z</time>
      </trkpt>
      <trkpt lat="45.24314" lon="5.80748">
        <ele>438.4</ele>
        <time>2025-03-21T12:35:32Z</time>
      </trkpt>
      <trkpt lat="45.24312" lon="5.80756">
        <ele>437</ele>
        <time>2025-03-21T12:35:34Z</time>
      </trkpt>
      <trkpt lat="45.24309" lon="5.80764">
        <ele>436</ele>
        <time>2025-03-21T12:35:36Z</time>
      </trkpt>
      <trkpt lat="45.24307" lon="5.80773">
        <ele>435</ele>
        <time>2025-03-21T12:35:38Z</time>
      </trkpt>
      <trkpt lat="45.24304" lon="5.80781">
        <ele>434.1</ele>
        <time>2025-03-21T12:35:40Z</time>
      </trkpt>
      <trkpt lat="45.24301" lon="5.80788">
        <ele>433.4</ele>
        <time>2025-03-21T12:35:42Z</time>
      </trkpt>
      <trkpt lat="45.24298" lon="5.80795">
        <ele>432.9</ele>
        <time>2025-03-21T12:35:44Z</time>
      </trkpt>
      <trkpt lat="45.24297" lon="5.80803">
        <ele>431.9</ele>
        <time>2025-03-21T12:35:46Z</time>
      </trkpt>
      <trkpt lat="45.24295" lon="5.80811">
        <ele>431.3</ele>
        <time>2025-03-21T12:35:48Z</time>
      </trkpt>
      <trkpt lat="45.24291" lon="5.80819">
        <ele>430.7</ele>
        <time>2025-03-21T12:35:50Z</time>
      </trkpt>
      <trkpt lat="45.24288" lon="5.80828">
        <ele>430</ele>
        <time>2025-03-21T12:35:52Z</time>
      </trkpt>
      <trkpt lat="45.24285" lon="5.80837">
        <ele>428.8</ele>
        <time>2025-03-21T12:35:54Z</time>
      </trkpt>
      <trkpt lat="45.24283" lon="5.80844">
        <ele>428.5</ele>
        <time>2025-03-21T12:35:56Z</time>
      </trkpt>
      <trkpt lat="45.24281" lon="5.8085">
        <ele>428</ele>
        <time>2025-03-21T12:35:58Z</time>
      </trkpt>
      <trkpt lat="45.24278" lon="5.80857">
        <ele>427.2</ele>
        <time>2025-03-21T12:36:01Z</time>
      </trkpt>
      <trkpt lat="45.24278" lon="5.80866">
        <ele>424.9</ele>
        <time>2025-03-21T12:36:22Z</time>
      </trkpt>
      <trkpt lat="45.24276" lon="5.80873">
        <ele>424.5</ele>
        <time>2025-03-21T12:36:25Z</time>
      </trkpt>
      <trkpt lat="45.24273" lon="5.80878">
        <ele>424.1</ele>
        <time>2025-03-21T12:36:27Z</time>
      </trkpt>
      <trkpt lat="45.24269" lon="5.80882">
        <ele>424.1</ele>
        <time>2025-03-21T12:36:29Z</time>
      </trkpt>
      <trkpt lat="45.24264" lon="5.80888">
        <ele>424</ele>
        <time>2025-03-21T12:36:31Z</time>
      </trkpt>
      <trkpt lat="45.24259" lon="5.80893">
        <ele>424.2</ele>
        <time>2025-03-21T12:36:33Z</time>
      </trkpt>
      <trkpt lat="45.24256" lon="5.80896">
        <ele>424</ele>
        <time>2025-03-21T12:36:35Z</time>
      </trkpt>
      <trkpt lat="45.2425" lon="5.80902">
        <ele>421.3</ele>
        <time>2025-03-21T12:36:38Z</time>
      </trkpt>
      <trkpt lat="45.24245" lon="5.80908">
        <ele>420</ele>
        <time>2025-03-21T12:36:40Z</time>
      </trkpt>
      <trkpt lat="45.24241" lon="5.80914">
        <ele>419</ele>
        <time>2025-03-21T12:36:42Z</time>
      </trkpt>
      <trkpt lat="45.24237" lon="5.80921">
        <ele>417.4</ele>
        <time>2025-03-21T12:36:44Z</time>
      </trkpt>
      <trkpt lat="45.24234" lon="5.80928">
        <ele>416.4</ele>
        <time>2025-03-21T12:36:46Z</time>
      </trkpt>
      <trkpt lat="45.2423" lon="5.80934">
        <ele>415.9</ele>
        <time>2025-03-21T12:36:48Z</time>
      </trkpt>
      <trkpt lat="45.24228" lon="5.8094">
        <ele>415</ele>
        <time>2025-03-21T12:36:50Z</time>
      </trkpt>
      <trkpt lat="45.24223" lon="5.80946">
        <ele>413.9</ele>
        <time>2025-03-21T12:36:52Z</time>
      </trkpt>
      <trkpt lat="45.2422" lon="5.80952">
        <ele>413.8</ele>
        <time>2025-03-21T12:36:54Z</time>
      </trkpt>
      <trkpt lat="45.24217" lon="5.80958">
        <ele>414.1</ele>
        <time>2025-03-21T12:36:56Z</time>
      </trkpt>
      <trkpt lat="45.24213" lon="5.80966">
        <ele>413.6</ele>
        <time>2025-03-21T12:36:58Z</time>
      </trkpt>
      <trkpt lat="45.2421" lon="5.80973">
        <ele>412.9</ele>
        <time>2025-03-21T12:37:00Z</time>
      </trkpt>
      <trkpt lat="45.24205" lon="5.80978">
        <ele>412.3</ele>
        <time>2025-03-21T12:37:02Z</time>
      </trkpt>
      <trkpt lat="45.24202" lon="5.80983">
        <ele>411.7</ele>
        <time>2025-03-21T12:37:04Z</time>
      </trkpt>
      <trkpt lat="45.24198" lon="5.80988">
        <ele>410.8</ele>
        <time>2025-03-21T12:37:06Z</time>
      </trkpt>
      <trkpt lat="45.24194" lon="5.80995">
        <ele>410</ele>
        <time>2025-03-21T12:37:08Z</time>
      </trkpt>
      <trkpt lat="45.2419" lon="5.81001">
        <ele>407.9</ele>
        <time>2025-03-21T12:37:10Z</time>
      </trkpt>
      <trkpt lat="45.24186" lon="5.81008">
        <ele>407.3</ele>
        <time>2025-03-21T12:37:12Z</time>
      </trkpt>
      <trkpt lat="45.24182" lon="5.81016">
        <ele>406.4</ele>
        <time>2025-03-21T12:37:14Z</time>
      </trkpt>
      <trkpt lat="45.24178" lon="5.81023">
        <ele>406.3</ele>
        <time>2025-03-21T12:37:16Z</time>
      </trkpt>
      <trkpt lat="45.24175" lon="5.8103">
        <ele>406.3</ele>
        <time>2025-03-21T12:37:18Z</time>
      </trkpt>
      <trkpt lat="45.24175" lon="5.81039">
        <ele>405.8</ele>
        <time>2025-03-21T12:37:20Z</time>
      </trkpt>
      <trkpt lat="45.24177" lon="5.81048">
        <ele>404.8</ele>
        <time>2025-03-21T12:37:22Z</time>
      </trkpt>
      <trkpt lat="45.24179" lon="5.81057">
        <ele>404.2</ele>
        <time>2025-03-21T12:37:24Z</time>
      </trkpt>
      <trkpt lat="45.24182" lon="5.81064">
        <ele>403.2</ele>
        <time>2025-03-21T12:37:26Z</time>
      </trkpt>
      <trkpt lat="45.24183" lon="5.81071">
        <ele>403</ele>
        <time>2025-03-21T12:37:28Z</time>
      </trkpt>
      <trkpt lat="45.24184" lon="5.81079">
        <ele>402.5</ele>
        <time>2025-03-21T12:37:30Z</time>
      </trkpt>
      <trkpt lat="45.24183" lon="5.81086">
        <ele>402.9</ele>
        <time>2025-03-21T12:37:32Z</time>
      </trkpt>
      <trkpt lat="45.24179" lon="5.81092">
        <ele>403.4</ele>
        <time>2025-03-21T12:37:34Z</time>
      </trkpt>
      <trkpt lat="45.24174" lon="5.81098">
        <ele>403</ele>
        <time>2025-03-21T12:37:36Z</time>
      </trkpt>
      <trkpt lat="45.24168" lon="5.81103">
        <ele>401.8</ele>
        <time>2025-03-21T12:37:38Z</time>
      </trkpt>
      <trkpt lat="45.24162" lon="5.81108">
        <ele>400.4</ele>
        <time>2025-03-21T12:37:40Z</time>
      </trkpt>
      <trkpt lat="45.24157" lon="5.81111">
        <ele>399.2</ele>
        <time>2025-03-21T12:37:42Z</time>
      </trkpt>
      <trkpt lat="45.24153" lon="5.81114">
        <ele>397.9</ele>
        <time>2025-03-21T12:37:44Z</time>
      </trkpt>
      <trkpt lat="45.24147" lon="5.8112">
        <ele>395.4</ele>
        <time>2025-03-21T12:37:46Z</time>
      </trkpt>
      <trkpt lat="45.24143" lon="5.81126">
        <ele>394.7</ele>
        <time>2025-03-21T12:37:48Z</time>
      </trkpt>
      <trkpt lat="45.24139" lon="5.81134">
        <ele>394.2</ele>
        <time>2025-03-21T12:37:50Z</time>
      </trkpt>
      <trkpt lat="45.24134" lon="5.8114">
        <ele>393.7</ele>
        <time>2025-03-21T12:37:52Z</time>
      </trkpt>
      <trkpt lat="45.2413" lon="5.81145">
        <ele>392.7</ele>
        <time>2025-03-21T12:37:54Z</time>
      </trkpt>
      <trkpt lat="45.24129" lon="5.81155">
        <ele>391.6</ele>
        <time>2025-03-21T12:37:57Z</time>
      </trkpt>
      <trkpt lat="45.24133" lon="5.81162">
        <ele>391.2</ele>
        <time>2025-03-21T12:37:59Z</time>
      </trkpt>
      <trkpt lat="45.24137" lon="5.81164">
        <ele>390.8</ele>
        <time>2025-03-21T12:38:01Z</time>
      </trkpt>
      <trkpt lat="45.24141" lon="5.81167">
        <ele>390.9</ele>
        <time>2025-03-21T12:38:03Z</time>
      </trkpt>
      <trkpt lat="45.24146" lon="5.8117">
        <ele>390.8</ele>
        <time>2025-03-21T12:38:05Z</time>
      </trkpt>
      <trkpt lat="45.24151" lon="5.81173">
        <ele>391</ele>
        <time>2025-03-21T12:38:07Z</time>
      </trkpt>
      <trkpt lat="45.24156" lon="5.81177">
        <ele>391.1</ele>
        <time>2025-03-21T12:38:09Z</time>
      </trkpt>
      <trkpt lat="45.2416" lon="5.81181">
        <ele>391</ele>
        <time>2025-03-21T12:38:11Z</time>
      </trkpt>
      <trkpt lat="45.24163" lon="5.81187">
        <ele>390.9</ele>
        <time>2025-03-21T12:38:13Z</time>
      </trkpt>
      <trkpt lat="45.24166" lon="5.81193">
        <ele>390.6</ele>
        <time>2025-03-21T12:38:15Z</time>
      </trkpt>
      <trkpt lat="45.24169" lon="5.81198">
        <ele>390.1</ele>
        <time>2025-03-21T12:38:17Z</time>
      </trkpt>
      <trkpt lat="45.24173" lon="5.81205">
        <ele>389.9</ele>
        <time>2025-03-21T12:38:19Z</time>
      </trkpt>
      <trkpt lat="45.24177" lon="5.8121">
        <ele>389.6</ele>
        <time>2025-03-21T12:38:21Z</time>
      </trkpt>
      <trkpt lat="45.24182" lon="5.81214">
        <ele>389.7</ele>
        <time>2025-03-21T12:38:23Z</time>
      </trkpt>
      <trkpt lat="45.24185" lon="5.81221">
        <ele>389.5</ele>
        <time>2025-03-21T12:38:25Z</time>
      </trkpt>
      <trkpt lat="45.24189" lon="5.81228">
        <ele>389.4</ele>
        <time>2025-03-21T12:38:27Z</time>
      </trkpt>
      <trkpt lat="45.24193" lon="5.81234">
        <ele>388.9</ele>
        <time>2025-03-21T12:38:29Z</time>
      </trkpt>
      <trkpt lat="45.24197" lon="5.8124">
        <ele>388.9</ele>
        <time>2025-03-21T12:38:31Z</time>
      </trkpt>
      <trkpt lat="45.24201" lon="5.81246">
        <ele>388.9</ele>
        <time>2025-03-21T12:38:33Z</time>
      </trkpt>
      <trkpt lat="45.24204" lon="5.81252">
        <ele>388.9</ele>
        <time>2025-03-21T12:38:35Z</time>
      </trkpt>
      <trkpt lat="45.24204" lon="5.8126">
        <ele>388.6</ele>
        <time>2025-03-21T12:38:38Z</time>
      </trkpt>
      <trkpt lat="45.242" lon="5.81264">
        <ele>387.8</ele>
        <time>2025-03-21T12:38:40Z</time>
      </trkpt>
      <trkpt lat="45.24195" lon="5.81269">
        <ele>386</ele>
        <time>2025-03-21T12:38:42Z</time>
      </trkpt>
      <trkpt lat="45.2419" lon="5.81274">
        <ele>385.2</ele>
        <time>2025-03-21T12:38:44Z</time>
      </trkpt>
      <trkpt lat="45.24184" lon="5.81279">
        <ele>381.9</ele>
        <time>2025-03-21T12:38:47Z</time>
      </trkpt>
      <trkpt lat="45.2418" lon="5.81285">
        <ele>381.9</ele>
        <time>2025-03-21T12:38:49Z</time>
      </trkpt>
      <trkpt lat="45.24174" lon="5.81291">
        <ele>382</ele>
        <time>2025-03-21T12:38:52Z</time>
      </trkpt>
      <trkpt lat="45.24168" lon="5.81296">
        <ele>382.5</ele>
        <time>2025-03-21T12:38:54Z</time>
      </trkpt>
      <trkpt lat="45.24163" lon="5.81302">
        <ele>382.2</ele>
        <time>2025-03-21T12:38:56Z</time>
      </trkpt>
      <trkpt lat="45.24158" lon="5.81309">
        <ele>382.6</ele>
        <time>2025-03-21T12:38:58Z</time>
      </trkpt>
      <trkpt lat="45.24153" lon="5.81315">
        <ele>382.6</ele>
        <time>2025-03-21T12:39:00Z</time>
      </trkpt>
      <trkpt lat="45.24149" lon="5.8132">
        <ele>381.9</ele>
        <time>2025-03-21T12:39:02Z</time>
      </trkpt>
      <trkpt lat="45.24144" lon="5.81326">
        <ele>381.3</ele>
        <time>2025-03-21T12:39:04Z</time>
      </trkpt>
      <trkpt lat="45.24139" lon="5.81331">
        <ele>380.6</ele>
        <time>2025-03-21T12:39:06Z</time>
      </trkpt>
      <trkpt lat="45.24135" lon="5.81336">
        <ele>379.3</ele>
        <time>2025-03-21T12:39:08Z</time>
      </trkpt>
      <trkpt lat="45.24131" lon="5.81341">
        <ele>378</ele>
        <time>2025-03-21T12:39:10Z</time>
      </trkpt>
      <trkpt lat="45.24127" lon="5.81345">
        <ele>377.3</ele>
        <time>2025-03-21T12:39:12Z</time>
      </trkpt>
      <trkpt lat="45.24123" lon="5.81348">
        <ele>377</ele>
        <time>2025-03-21T12:39:14Z</time>
      </trkpt>
      <trkpt lat="45.24118" lon="5.81354">
        <ele>376.8</ele>
        <time>2025-03-21T12:39:17Z</time>
      </trkpt>
      <trkpt lat="45.24114" lon="5.81359">
        <ele>375.7</ele>
        <time>2025-03-21T12:39:20Z</time>
      </trkpt>
      <trkpt lat="45.2411" lon="5.81364">
        <ele>375.4</ele>
        <time>2025-03-21T12:39:23Z</time>
      </trkpt>
      <trkpt lat="45.24106" lon="5.8137">
        <ele>374.8</ele>
        <time>2025-03-21T12:39:26Z</time>
      </trkpt>
      <trkpt lat="45.24101" lon="5.81376">
        <ele>373.1</ele>
        <time>2025-03-21T12:39:29Z</time>
      </trkpt>
      <trkpt lat="45.24096" lon="5.81381">
        <ele>372.6</ele>
        <time>2025-03-21T12:39:32Z</time>
      </trkpt>
      <trkpt lat="45.24092" lon="5.81385">
        <ele>373.2</ele>
        <time>2025-03-21T12:39:34Z</time>
      </trkpt>
      <trkpt lat="45.24088" lon="5.81392">
        <ele>372.2</ele>
        <time>2025-03-21T12:39:37Z</time>
      </trkpt>
      <trkpt lat="45.24084" lon="5.81399">
        <ele>370.8</ele>
        <time>2025-03-21T12:39:40Z</time>
      </trkpt>
      <trkpt lat="45.24081" lon="5.81405">
        <ele>369.8</ele>
        <time>2025-03-21T12:39:43Z</time>
      </trkpt>
      <trkpt lat="45.24079" lon="5.81412">
        <ele>366.2</ele>
        <time>2025-03-21T12:39:46Z</time>
      </trkpt>
      <trkpt lat="45.24076" lon="5.81419">
        <ele>365.4</ele>
        <time>2025-03-21T12:39:48Z</time>
      </trkpt>
      <trkpt lat="45.24073" lon="5.81424">
        <ele>365.1</ele>
        <time>2025-03-21T12:39:50Z</time>
      </trkpt>
      <trkpt lat="45.24071" lon="5.81429">
        <ele>363.6</ele>
        <time>2025-03-21T12:39:52Z</time>
      </trkpt>
      <trkpt lat="45.24067" lon="5.81435">
        <ele>362.8</ele>
        <time>2025-03-21T12:39:54Z</time>
      </trkpt>
      <trkpt lat="45.24064" lon="5.81441">
        <ele>362.6</ele>
        <time>2025-03-21T12:39:56Z</time>
      </trkpt>
      <trkpt lat="45.24061" lon="5.81446">
        <ele>362.2</ele>
        <time>2025-03-21T12:39:58Z</time>
      </trkpt>
      <trkpt lat="45.24056" lon="5.81454">
        <ele>361.4</ele>
        <time>2025-03-21T12:40:01Z</time>
      </trkpt>
      <trkpt lat="45.24053" lon="5.8146">
        <ele>360.4</ele>
        <time>2025-03-21T12:40:03Z</time>
      </trkpt>
      <trkpt lat="45.2405" lon="5.81466">
        <ele>360.1</ele>
        <time>2025-03-21T12:40:05Z</time>
      </trkpt>
      <trkpt lat="45.24047" lon="5.81473">
        <ele>359.3</ele>
        <time>2025-03-21T12:40:08Z</time>
      </trkpt>
      <trkpt lat="45.24044" lon="5.81479">
        <ele>358.8</ele>
        <time>2025-03-21T12:40:11Z</time>
      </trkpt>
      <trkpt lat="45.24041" lon="5.81485">
        <ele>358.7</ele>
        <time>2025-03-21T12:40:13Z</time>
      </trkpt>
      <trkpt lat="45.24038" lon="5.81491">
        <ele>358</ele>
        <time>2025-03-21T12:40:20Z</time>
      </trkpt>
      <trkpt lat="45.24034" lon="5.815">
        <ele>357.1</ele>
        <time>2025-03-21T12:40:23Z</time>
      </trkpt>
      <trkpt lat="45.2403" lon="5.81506">
        <ele>356.2</ele>
        <time>2025-03-21T12:40:25Z</time>
      </trkpt>
      <trkpt lat="45.24027" lon="5.81513">
        <ele>355.5</ele>
        <time>2025-03-21T12:40:28Z</time>
      </trkpt>
      <trkpt lat="45.24023" lon="5.81516">
        <ele>355</ele>
        <time>2025-03-21T12:40:38Z</time>
      </trkpt>
      <trkpt lat="45.24017" lon="5.81512">
        <ele>355.3</ele>
        <time>2025-03-21T12:40:41Z</time>
      </trkpt>
      <trkpt lat="45.24012" lon="5.81508">
        <ele>355.6</ele>
        <time>2025-03-21T12:40:43Z</time>
      </trkpt>
      <trkpt lat="45.24007" lon="5.81505">
        <ele>355.7</ele>
        <time>2025-03-21T12:40:45Z</time>
      </trkpt>
      <trkpt lat="45.24003" lon="5.81502">
        <ele>355.7</ele>
        <time>2025-03-21T12:40:47Z</time>
      </trkpt>
      <trkpt lat="45.23998" lon="5.81499">
        <ele>355.8</ele>
        <time>2025-03-21T12:40:49Z</time>
      </trkpt>
      <trkpt lat="45.23994" lon="5.81497">
        <ele>355.7</ele>
        <time>2025-03-21T12:40:51Z</time>
      </trkpt>
      <trkpt lat="45.23988" lon="5.81497">
        <ele>355.2</ele>
        <time>2025-03-21T12:40:53Z</time>
      </trkpt>
      <trkpt lat="45.23981" lon="5.81497">
        <ele>354.3</ele>
        <time>2025-03-21T12:40:55Z</time>
      </trkpt>
      <trkpt lat="45.23974" lon="5.81495">
        <ele>353.6</ele>
        <time>2025-03-21T12:40:57Z</time>
      </trkpt>
      <trkpt lat="45.2397" lon="5.81495">
        <ele>352.6</ele>
        <time>2025-03-21T12:40:58Z</time>
      </trkpt>
      <trkpt lat="45.23965" lon="5.81494">
        <ele>351.9</ele>
        <time>2025-03-21T12:40:59Z</time>
      </trkpt>
      <trkpt lat="45.2396" lon="5.81494">
        <ele>351.5</ele>
        <time>2025-03-21T12:41:00Z</time>
      </trkpt>
      <trkpt lat="45.23954" lon="5.81494">
        <ele>351.1</ele>
        <time>2025-03-21T12:41:01Z</time>
      </trkpt>
      <trkpt lat="45.23949" lon="5.81494">
        <ele>350.7</ele>
        <time>2025-03-21T12:41:02Z</time>
      </trkpt>
      <trkpt lat="45.23943" lon="5.81495">
        <ele>350.5</ele>
        <time>2025-03-21T12:41:03Z</time>
      </trkpt>
      <trkpt lat="45.23938" lon="5.81495">
        <ele>349.8</ele>
        <time>2025-03-21T12:41:04Z</time>
      </trkpt>
      <trkpt lat="45.23933" lon="5.81495">
        <ele>349.2</ele>
        <time>2025-03-21T12:41:05Z</time>
      </trkpt>
      <trkpt lat="45.23925" lon="5.81495">
        <ele>348.2</ele>
        <time>2025-03-21T12:41:07Z</time>
      </trkpt>
      <trkpt lat="45.23919" lon="5.81495">
        <ele>347.6</ele>
        <time>2025-03-21T12:41:16Z</time>
      </trkpt>
      <trkpt lat="45.23912" lon="5.81496">
        <ele>347.8</ele>
        <time>2025-03-21T12:41:19Z</time>
      </trkpt>
      <trkpt lat="45.23907" lon="5.81496">
        <ele>347.6</ele>
        <time>2025-03-21T12:41:21Z</time>
      </trkpt>
      <trkpt lat="45.23903" lon="5.8149">
        <ele>346.9</ele>
        <time>2025-03-21T12:41:23Z</time>
      </trkpt>
      <trkpt lat="45.23899" lon="5.81484">
        <ele>346.3</ele>
        <time>2025-03-21T12:41:25Z</time>
      </trkpt>
      <trkpt lat="45.23896" lon="5.81477">
        <ele>346</ele>
        <time>2025-03-21T12:41:27Z</time>
      </trkpt>
      <trkpt lat="45.23893" lon="5.81471">
        <ele>345.7</ele>
        <time>2025-03-21T12:41:29Z</time>
      </trkpt>
      <trkpt lat="45.23889" lon="5.81464">
        <ele>344.9</ele>
        <time>2025-03-21T12:41:31Z</time>
      </trkpt>
      <trkpt lat="45.23885" lon="5.81457">
        <ele>344.6</ele>
        <time>2025-03-21T12:41:33Z</time>
      </trkpt>
      <trkpt lat="45.23881" lon="5.8145">
        <ele>344.4</ele>
        <time>2025-03-21T12:41:35Z</time>
      </trkpt>
      <trkpt lat="45.23878" lon="5.81444">
        <ele>344.6</ele>
        <time>2025-03-21T12:41:37Z</time>
      </trkpt>
      <trkpt lat="45.23875" lon="5.81438">
        <ele>344.7</ele>
        <time>2025-03-21T12:41:39Z</time>
      </trkpt>
      <trkpt lat="45.23872" lon="5.81432">
        <ele>345</ele>
        <time>2025-03-21T12:41:41Z</time>
      </trkpt>
      <trkpt lat="45.23867" lon="5.81425">
        <ele>346</ele>
        <time>2025-03-21T12:41:43Z</time>
      </trkpt>
      <trkpt lat="45.23863" lon="5.81418">
        <ele>346.5</ele>
        <time>2025-03-21T12:41:45Z</time>
      </trkpt>
      <trkpt lat="45.23859" lon="5.81412">
        <ele>346.8</ele>
        <time>2025-03-21T12:41:47Z</time>
      </trkpt>
      <trkpt lat="45.23855" lon="5.81405">
        <ele>347</ele>
        <time>2025-03-21T12:41:49Z</time>
      </trkpt>
      <trkpt lat="45.2385" lon="5.81399">
        <ele>347.9</ele>
        <time>2025-03-21T12:41:51Z</time>
      </trkpt>
      <trkpt lat="45.23846" lon="5.81392">
        <ele>348.6</ele>
        <time>2025-03-21T12:41:53Z</time>
      </trkpt>
      <trkpt lat="45.23842" lon="5.81386">
        <ele>349.1</ele>
        <time>2025-03-21T12:41:55Z</time>
      </trkpt>
      <trkpt lat="45.23839" lon="5.81379">
        <ele>349.6</ele>
        <time>2025-03-21T12:41:57Z</time>
      </trkpt>
      <trkpt lat="45.23834" lon="5.81373">
        <ele>349.9</ele>
        <time>2025-03-21T12:41:59Z</time>
      </trkpt>
      <trkpt lat="45.2383" lon="5.81367">
        <ele>350.2</ele>
        <time>2025-03-21T12:42:01Z</time>
      </trkpt>
      <trkpt lat="45.23826" lon="5.8136">
        <ele>350.7</ele>
        <time>2025-03-21T12:42:03Z</time>
      </trkpt>
      <trkpt lat="45.23823" lon="5.81353">
        <ele>350.9</ele>
        <time>2025-03-21T12:42:05Z</time>
      </trkpt>
      <trkpt lat="45.23818" lon="5.81347">
        <ele>351.1</ele>
        <time>2025-03-21T12:42:07Z</time>
      </trkpt>
      <trkpt lat="45.23815" lon="5.8134">
        <ele>351.3</ele>
        <time>2025-03-21T12:42:09Z</time>
      </trkpt>
      <trkpt lat="45.23811" lon="5.81333">
        <ele>351.6</ele>
        <time>2025-03-21T12:42:11Z</time>
      </trkpt>
      <trkpt lat="45.23807" lon="5.81326">
        <ele>351.9</ele>
        <time>2025-03-21T12:42:13Z</time>
      </trkpt>
      <trkpt lat="45.23803" lon="5.81319">
        <ele>351.9</ele>
        <time>2025-03-21T12:42:15Z</time>
      </trkpt>
      <trkpt lat="45.23799" lon="5.81311">
        <ele>351.7</ele>
        <time>2025-03-21T12:42:17Z</time>
      </trkpt>
      <trkpt lat="45.23795" lon="5.81303">
        <ele>351.9</ele>
        <time>2025-03-21T12:42:19Z</time>
      </trkpt>
      <trkpt lat="45.23792" lon="5.81295">
        <ele>352</ele>
        <time>2025-03-21T12:42:21Z</time>
      </trkpt>
      <trkpt lat="45.23791" lon="5.81286">
        <ele>351.9</ele>
        <time>2025-03-21T12:42:23Z</time>
      </trkpt>
      <trkpt lat="45.2379" lon="5.81277">
        <ele>351.6</ele>
        <time>2025-03-21T12:42:25Z</time>
      </trkpt>
      <trkpt lat="45.2379" lon="5.81269">
        <ele>350.9</ele>
        <time>2025-03-21T12:42:27Z</time>
      </trkpt>
      <trkpt lat="45.23791" lon="5.81261">
        <ele>351</ele>
        <time>2025-03-21T12:42:29Z</time>
      </trkpt>
      <trkpt lat="45.23791" lon="5.81253">
        <ele>351</ele>
        <time>2025-03-21T12:42:31Z</time>
      </trkpt>
      <trkpt lat="45.23792" lon="5.81246">
        <ele>351.2</ele>
        <time>2025-03-21T12:42:33Z</time>
      </trkpt>
      <trkpt lat="45.23793" lon="5.81239">
        <ele>351.2</ele>
        <time>2025-03-21T12:42:35Z</time>
      </trkpt>
      <trkpt lat="45.23794" lon="5.81231">
        <ele>351.2</ele>
        <time>2025-03-21T12:42:37Z</time>
      </trkpt>
      <trkpt lat="45.23796" lon="5.81224">
        <ele>351.1</ele>
        <time>2025-03-21T12:42:39Z</time>
      </trkpt>
      <trkpt lat="45.23799" lon="5.81217">
        <ele>351.5</ele>
        <time>2025-03-21T12:42:41Z</time>
      </trkpt>
      <trkpt lat="45.238" lon="5.81208">
        <ele>351.8</ele>
        <time>2025-03-21T12:42:44Z</time>
      </trkpt>
      <trkpt lat="45.23798" lon="5.81202">
        <ele>351.7</ele>
        <time>2025-03-21T12:42:46Z</time>
      </trkpt>
      <trkpt lat="45.23794" lon="5.81195">
        <ele>351.7</ele>
        <time>2025-03-21T12:42:48Z</time>
      </trkpt>
      <trkpt lat="45.23791" lon="5.8119">
        <ele>351.7</ele>
        <time>2025-03-21T12:42:50Z</time>
      </trkpt>
      <trkpt lat="45.23787" lon="5.81186">
        <ele>351.7</ele>
        <time>2025-03-21T12:42:52Z</time>
      </trkpt>
      <trkpt lat="45.23783" lon="5.81181">
        <ele>351.8</ele>
        <time>2025-03-21T12:42:54Z</time>
      </trkpt>
      <trkpt lat="45.2378" lon="5.81176">
        <ele>352.5</ele>
        <time>2025-03-21T12:42:56Z</time>
      </trkpt>
      <trkpt lat="45.23776" lon="5.81171">
        <ele>353.3</ele>
        <time>2025-03-21T12:42:58Z</time>
      </trkpt>
      <trkpt lat="45.23773" lon="5.81165">
        <ele>354.3</ele>
        <time>2025-03-21T12:43:00Z</time>
      </trkpt>
      <trkpt lat="45.2377" lon="5.81159">
        <ele>354.8</ele>
        <time>2025-03-21T12:43:02Z</time>
      </trkpt>
      <trkpt lat="45.23767" lon="5.81154">
        <ele>355.2</ele>
        <time>2025-03-21T12:43:04Z</time>
      </trkpt>
      <trkpt lat="45.23764" lon="5.81149">
        <ele>355.6</ele>
        <time>2025-03-21T12:43:06Z</time>
      </trkpt>
      <trkpt lat="45.23761" lon="5.81143">
        <ele>355.9</ele>
        <time>2025-03-21T12:43:08Z</time>
      </trkpt>
      <trkpt lat="45.23758" lon="5.81138">
        <ele>356</ele>
        <time>2025-03-21T12:43:10Z</time>
      </trkpt>
      <trkpt lat="45.23757" lon="5.81132">
        <ele>357.9</ele>
        <time>2025-03-21T12:43:36Z</time>
      </trkpt>
      <trkpt lat="45.23753" lon="5.81125">
        <ele>358.6</ele>
        <time>2025-03-21T12:43:40Z</time>
      </trkpt>
      <trkpt lat="45.2375" lon="5.81117">
        <ele>359.5</ele>
        <time>2025-03-21T12:43:43Z</time>
      </trkpt>
      <trkpt lat="45.23747" lon="5.81112">
        <ele>358.5</ele>
        <time>2025-03-21T12:43:48Z</time>
      </trkpt>
      <trkpt lat="45.23745" lon="5.81105">
        <ele>357.1</ele>
        <time>2025-03-21T12:43:51Z</time>
      </trkpt>
      <trkpt lat="45.23743" lon="5.81096">
        <ele>356.6</ele>
        <time>2025-03-21T12:43:53Z</time>
      </trkpt>
      <trkpt lat="45.23743" lon="5.81086">
        <ele>356.7</ele>
        <time>2025-03-21T12:43:56Z</time>
      </trkpt>
      <trkpt lat="45.23741" lon="5.8108">
        <ele>356.5</ele>
        <time>2025-03-21T12:43:58Z</time>
      </trkpt>
      <trkpt lat="45.23735" lon="5.81073">
        <ele>356.2</ele>
        <time>2025-03-21T12:44:00Z</time>
      </trkpt>
      <trkpt lat="45.23729" lon="5.81066">
        <ele>356.7</ele>
        <time>2025-03-21T12:44:02Z</time>
      </trkpt>
      <trkpt lat="45.23725" lon="5.8106">
        <ele>359.1</ele>
        <time>2025-03-21T12:44:04Z</time>
      </trkpt>
      <trkpt lat="45.23721" lon="5.81053">
        <ele>359.6</ele>
        <time>2025-03-21T12:44:06Z</time>
      </trkpt>
      <trkpt lat="45.23717" lon="5.81045">
        <ele>359.6</ele>
        <time>2025-03-21T12:44:08Z</time>
      </trkpt>
      <trkpt lat="45.23713" lon="5.81037">
        <ele>359.4</ele>
        <time>2025-03-21T12:44:10Z</time>
      </trkpt>
      <trkpt lat="45.2371" lon="5.81029">
        <ele>359.4</ele>
        <time>2025-03-21T12:44:12Z</time>
      </trkpt>
      <trkpt lat="45.23706" lon="5.81021">
        <ele>359.3</ele>
        <time>2025-03-21T12:44:14Z</time>
      </trkpt>
      <trkpt lat="45.23703" lon="5.81012">
        <ele>358.8</ele>
        <time>2025-03-21T12:44:16Z</time>
      </trkpt>
      <trkpt lat="45.237" lon="5.81003">
        <ele>358.5</ele>
        <time>2025-03-21T12:44:18Z</time>
      </trkpt>
      <trkpt lat="45.23697" lon="5.80995">
        <ele>358.1</ele>
        <time>2025-03-21T12:44:20Z</time>
      </trkpt>
      <trkpt lat="45.23693" lon="5.80986">
        <ele>357.9</ele>
        <time>2025-03-21T12:44:22Z</time>
      </trkpt>
      <trkpt lat="45.2369" lon="5.80978">
        <ele>357.8</ele>
        <time>2025-03-21T12:44:24Z</time>
      </trkpt>
      <trkpt lat="45.23687" lon="5.8097">
        <ele>357.6</ele>
        <time>2025-03-21T12:44:26Z</time>
      </trkpt>
      <trkpt lat="45.23685" lon="5.80962">
        <ele>357.4</ele>
        <time>2025-03-21T12:44:28Z</time>
      </trkpt>
      <trkpt lat="45.23681" lon="5.80953">
        <ele>357.4</ele>
        <time>2025-03-21T12:44:30Z</time>
      </trkpt>
      <trkpt lat="45.23678" lon="5.80944">
        <ele>357.4</ele>
        <time>2025-03-21T12:44:32Z</time>
      </trkpt>
      <trkpt lat="45.23675" lon="5.80937">
        <ele>357.4</ele>
        <time>2025-03-21T12:44:34Z</time>
      </trkpt>
      <trkpt lat="45.23672" lon="5.80929">
        <ele>357.4</ele>
        <time>2025-03-21T12:44:36Z</time>
      </trkpt>
      <trkpt lat="45.2367" lon="5.8092">
        <ele>357.4</ele>
        <time>2025-03-21T12:44:38Z</time>
      </trkpt>
      <trkpt lat="45.23667" lon="5.80912">
        <ele>357.3</ele>
        <time>2025-03-21T12:44:40Z</time>
      </trkpt>
      <trkpt lat="45.23665" lon="5.80904">
        <ele>356.9</ele>
        <time>2025-03-21T12:44:42Z</time>
      </trkpt>
      <trkpt lat="45.23663" lon="5.80897">
        <ele>356.1</ele>
        <time>2025-03-21T12:44:44Z</time>
      </trkpt>
      <trkpt lat="45.2366" lon="5.80889">
        <ele>355.6</ele>
        <time>2025-03-21T12:44:46Z</time>
      </trkpt>
      <trkpt lat="45.23657" lon="5.80882">
        <ele>355.3</ele>
        <time>2025-03-21T12:44:48Z</time>
      </trkpt>
      <trkpt lat="45.23656" lon="5.80873">
        <ele>355.1</ele>
        <time>2025-03-21T12:44:51Z</time>
      </trkpt>
      <trkpt lat="45.23654" lon="5.80865">
        <ele>354.6</ele>
        <time>2025-03-21T12:44:55Z</time>
      </trkpt>
      <trkpt lat="45.2365" lon="5.8086">
        <ele>354.4</ele>
        <time>2025-03-21T12:44:57Z</time>
      </trkpt>
      <trkpt lat="45.23644" lon="5.80855">
        <ele>354.2</ele>
        <time>2025-03-21T12:44:59Z</time>
      </trkpt>
      <trkpt lat="45.23638" lon="5.80853">
        <ele>353.8</ele>
        <time>2025-03-21T12:45:01Z</time>
      </trkpt>
      <trkpt lat="45.23633" lon="5.80848">
        <ele>353.5</ele>
        <time>2025-03-21T12:45:03Z</time>
      </trkpt>
      <trkpt lat="45.2363" lon="5.80841">
        <ele>352.7</ele>
        <time>2025-03-21T12:45:05Z</time>
      </trkpt>
      <trkpt lat="45.23627" lon="5.80833">
        <ele>352.1</ele>
        <time>2025-03-21T12:45:07Z</time>
      </trkpt>
      <trkpt lat="45.23622" lon="5.80825">
        <ele>350.5</ele>
        <time>2025-03-21T12:45:09Z</time>
      </trkpt>
      <trkpt lat="45.23617" lon="5.80817">
        <ele>349.4</ele>
        <time>2025-03-21T12:45:11Z</time>
      </trkpt>
      <trkpt lat="45.23614" lon="5.80808">
        <ele>349</ele>
        <time>2025-03-21T12:45:13Z</time>
      </trkpt>
      <trkpt lat="45.2361" lon="5.808">
        <ele>349.1</ele>
        <time>2025-03-21T12:45:15Z</time>
      </trkpt>
      <trkpt lat="45.23607" lon="5.80793">
        <ele>349.1</ele>
        <time>2025-03-21T12:45:17Z</time>
      </trkpt>
      <trkpt lat="45.23603" lon="5.80785">
        <ele>348.8</ele>
        <time>2025-03-21T12:45:19Z</time>
      </trkpt>
      <trkpt lat="45.23599" lon="5.80778">
        <ele>348.4</ele>
        <time>2025-03-21T12:45:21Z</time>
      </trkpt>
      <trkpt lat="45.23595" lon="5.8077">
        <ele>348.4</ele>
        <time>2025-03-21T12:45:23Z</time>
      </trkpt>
      <trkpt lat="45.23591" lon="5.80762">
        <ele>348.5</ele>
        <time>2025-03-21T12:45:25Z</time>
      </trkpt>
      <trkpt lat="45.23586" lon="5.80753">
        <ele>348.9</ele>
        <time>2025-03-21T12:45:27Z</time>
      </trkpt>
      <trkpt lat="45.23581" lon="5.80746">
        <ele>348.7</ele>
        <time>2025-03-21T12:45:29Z</time>
      </trkpt>
      <trkpt lat="45.23577" lon="5.80738">
        <ele>348</ele>
        <time>2025-03-21T12:45:31Z</time>
      </trkpt>
      <trkpt lat="45.23573" lon="5.80731">
        <ele>347.9</ele>
        <time>2025-03-21T12:45:33Z</time>
      </trkpt>
      <trkpt lat="45.23569" lon="5.80725">
        <ele>348.2</ele>
        <time>2025-03-21T12:45:35Z</time>
      </trkpt>
      <trkpt lat="45.23565" lon="5.80718">
        <ele>348.7</ele>
        <time>2025-03-21T12:45:37Z</time>
      </trkpt>
      <trkpt lat="45.23562" lon="5.80711">
        <ele>349.2</ele>
        <time>2025-03-21T12:45:39Z</time>
      </trkpt>
      <trkpt lat="45.23557" lon="5.80703">
        <ele>349.3</ele>
        <time>2025-03-21T12:45:41Z</time>
      </trkpt>
      <trkpt lat="45.23552" lon="5.80696">
        <ele>349.3</ele>
        <time>2025-03-21T12:45:43Z</time>
      </trkpt>
      <trkpt lat="45.23548" lon="5.80688">
        <ele>349.1</ele>
        <time>2025-03-21T12:45:45Z</time>
      </trkpt>
      <trkpt lat="45.23544" lon="5.80681">
        <ele>349.1</ele>
        <time>2025-03-21T12:45:47Z</time>
      </trkpt>
      <trkpt lat="45.23541" lon="5.80674">
        <ele>349.2</ele>
        <time>2025-03-21T12:45:49Z</time>
      </trkpt>
      <trkpt lat="45.23539" lon="5.80667">
        <ele>349.5</ele>
        <time>2025-03-21T12:45:51Z</time>
      </trkpt>
      <trkpt lat="45.23536" lon="5.80659">
        <ele>349.6</ele>
        <time>2025-03-21T12:45:53Z</time>
      </trkpt>
      <trkpt lat="45.23533" lon="5.80652">
        <ele>349.7</ele>
        <time>2025-03-21T12:45:55Z</time>
      </trkpt>
      <trkpt lat="45.2353" lon="5.80643">
        <ele>349.8</ele>
        <time>2025-03-21T12:45:57Z</time>
      </trkpt>
      <trkpt lat="45.23527" lon="5.80634">
        <ele>350</ele>
        <time>2025-03-21T12:45:59Z</time>
      </trkpt>
      <trkpt lat="45.23524" lon="5.80625">
        <ele>350.1</ele>
        <time>2025-03-21T12:46:01Z</time>
      </trkpt>
      <trkpt lat="45.23522" lon="5.80617">
        <ele>350.1</ele>
        <time>2025-03-21T12:46:03Z</time>
      </trkpt>
      <trkpt lat="45.23519" lon="5.80609">
        <ele>349.6</ele>
        <time>2025-03-21T12:46:05Z</time>
      </trkpt>
      <trkpt lat="45.23517" lon="5.80601">
        <ele>349.7</ele>
        <time>2025-03-21T12:46:07Z</time>
      </trkpt>
      <trkpt lat="45.23515" lon="5.80592">
        <ele>349.5</ele>
        <time>2025-03-21T12:46:09Z</time>
      </trkpt>
      <trkpt lat="45.23513" lon="5.80584">
        <ele>349.6</ele>
        <time>2025-03-21T12:46:11Z</time>
      </trkpt>
      <trkpt lat="45.23511" lon="5.80575">
        <ele>349.4</ele>
        <time>2025-03-21T12:46:13Z</time>
      </trkpt>
      <trkpt lat="45.23508" lon="5.80567">
        <ele>349.2</ele>
        <time>2025-03-21T12:46:15Z</time>
      </trkpt>
      <trkpt lat="45.23506" lon="5.8056">
        <ele>349.1</ele>
        <time>2025-03-21T12:46:17Z</time>
      </trkpt>
      <trkpt lat="45.23504" lon="5.80552">
        <ele>349.2</ele>
        <time>2025-03-21T12:46:19Z</time>
      </trkpt>
      <trkpt lat="45.23502" lon="5.80545">
        <ele>349.1</ele>
        <time>2025-03-21T12:46:21Z</time>
      </trkpt>
      <trkpt lat="45.235" lon="5.80537">
        <ele>349</ele>
        <time>2025-03-21T12:46:23Z</time>
      </trkpt>
      <trkpt lat="45.23498" lon="5.80531">
        <ele>349.1</ele>
        <time>2025-03-21T12:46:25Z</time>
      </trkpt>
      <trkpt lat="45.23497" lon="5.80524">
        <ele>349.2</ele>
        <time>2025-03-21T12:46:27Z</time>
      </trkpt>
      <trkpt lat="45.23495" lon="5.80519">
        <ele>351.8</ele>
        <time>2025-03-21T12:46:37Z</time>
      </trkpt>
      <trkpt lat="45.23494" lon="5.80513">
        <ele>356</ele>
        <time>2025-03-21T12:46:58Z</time>
      </trkpt>
      <trkpt lat="45.23499" lon="5.80512">
        <ele>356</ele>
        <time>2025-03-21T12:47:02Z</time>
      </trkpt>
      <trkpt lat="45.23504" lon="5.80511">
        <ele>356</ele>
        <time>2025-03-21T12:47:05Z</time>
      </trkpt>
      <trkpt lat="45.23509" lon="5.80509">
        <ele>356.7</ele>
        <time>2025-03-21T12:47:08Z</time>
      </trkpt>
      <trkpt lat="45.23514" lon="5.80506">
        <ele>358.1</ele>
        <time>2025-03-21T12:47:11Z</time>
      </trkpt>
      <trkpt lat="45.23519" lon="5.80504">
        <ele>358.3</ele>
        <time>2025-03-21T12:47:14Z</time>
      </trkpt>
      <trkpt lat="45.23523" lon="5.80502">
        <ele>358.5</ele>
        <time>2025-03-21T12:47:17Z</time>
      </trkpt>
      <trkpt lat="45.23529" lon="5.80501">
        <ele>358.9</ele>
        <time>2025-03-21T12:47:21Z</time>
      </trkpt>
      <trkpt lat="45.23534" lon="5.805">
        <ele>359.5</ele>
        <time>2025-03-21T12:47:24Z</time>
      </trkpt>
      <trkpt lat="45.23538" lon="5.80499">
        <ele>359.8</ele>
        <time>2025-03-21T12:47:27Z</time>
      </trkpt>
      <trkpt lat="45.23543" lon="5.80499">
        <ele>359.9</ele>
        <time>2025-03-21T12:47:30Z</time>
      </trkpt>
      <trkpt lat="45.23549" lon="5.80499">
        <ele>360.2</ele>
        <time>2025-03-21T12:47:34Z</time>
      </trkpt>
      <trkpt lat="45.23554" lon="5.805">
        <ele>360.4</ele>
        <time>2025-03-21T12:47:37Z</time>
      </trkpt>
      <trkpt lat="45.23559" lon="5.80502">
        <ele>361.3</ele>
        <time>2025-03-21T12:47:41Z</time>
      </trkpt>
      <trkpt lat="45.23564" lon="5.80504">
        <ele>361.9</ele>
        <time>2025-03-21T12:47:45Z</time>
      </trkpt>
      <trkpt lat="45.2357" lon="5.80505">
        <ele>362.7</ele>
        <time>2025-03-21T12:47:49Z</time>
      </trkpt>
      <trkpt lat="45.23574" lon="5.80507">
        <ele>362.8</ele>
        <time>2025-03-21T12:47:52Z</time>
      </trkpt>
      <trkpt lat="45.2358" lon="5.80508">
        <ele>363.2</ele>
        <time>2025-03-21T12:47:56Z</time>
      </trkpt>
      <trkpt lat="45.23585" lon="5.80512">
        <ele>363.1</ele>
        <time>2025-03-21T12:48:00Z</time>
      </trkpt>
      <trkpt lat="45.2359" lon="5.80512">
        <ele>364.1</ele>
        <time>2025-03-21T12:48:04Z</time>
      </trkpt>
      <trkpt lat="45.23596" lon="5.80514">
        <ele>363.6</ele>
        <time>2025-03-21T12:48:08Z</time>
      </trkpt>
      <trkpt lat="45.23601" lon="5.80516">
        <ele>363.7</ele>
        <time>2025-03-21T12:48:11Z</time>
      </trkpt>
      <trkpt lat="45.23606" lon="5.80519">
        <ele>364.8</ele>
        <time>2025-03-21T12:48:15Z</time>
      </trkpt>
      <trkpt lat="45.23612" lon="5.80521">
        <ele>365.5</ele>
        <time>2025-03-21T12:48:19Z</time>
      </trkpt>
      <trkpt lat="45.23618" lon="5.80522">
        <ele>366.1</ele>
        <time>2025-03-21T12:48:23Z</time>
      </trkpt>
      <trkpt lat="45.23623" lon="5.80524">
        <ele>366.1</ele>
        <time>2025-03-21T12:48:27Z</time>
      </trkpt>
      <trkpt lat="45.23628" lon="5.80527">
        <ele>366.2</ele>
        <time>2025-03-21T12:48:31Z</time>
      </trkpt>
      <trkpt lat="45.23634" lon="5.80529">
        <ele>366.4</ele>
        <time>2025-03-21T12:48:35Z</time>
      </trkpt>
      <trkpt lat="45.23639" lon="5.80531">
        <ele>367</ele>
        <time>2025-03-21T12:48:39Z</time>
      </trkpt>
      <trkpt lat="45.23644" lon="5.80534">
        <ele>367.7</ele>
        <time>2025-03-21T12:48:43Z</time>
      </trkpt>
      <trkpt lat="45.23649" lon="5.80535">
        <ele>367.9</ele>
        <time>2025-03-21T12:48:47Z</time>
      </trkpt>
      <trkpt lat="45.23655" lon="5.80538">
        <ele>368.4</ele>
        <time>2025-03-21T12:48:51Z</time>
      </trkpt>
      <trkpt lat="45.2366" lon="5.80543">
        <ele>368.9</ele>
        <time>2025-03-21T12:48:55Z</time>
      </trkpt>
      <trkpt lat="45.23663" lon="5.80549">
        <ele>369.1</ele>
        <time>2025-03-21T12:48:58Z</time>
      </trkpt>
      <trkpt lat="45.23667" lon="5.80556">
        <ele>369.8</ele>
        <time>2025-03-21T12:49:01Z</time>
      </trkpt>
      <trkpt lat="45.2367" lon="5.80559">
        <ele>369.1</ele>
        <time>2025-03-21T12:49:04Z</time>
      </trkpt>
      <trkpt lat="45.23674" lon="5.80564">
        <ele>367.8</ele>
        <time>2025-03-21T12:49:07Z</time>
      </trkpt>
      <trkpt lat="45.23677" lon="5.8057">
        <ele>366.1</ele>
        <time>2025-03-21T12:49:09Z</time>
      </trkpt>
      <trkpt lat="45.23681" lon="5.80576">
        <ele>365.4</ele>
        <time>2025-03-21T12:49:11Z</time>
      </trkpt>
      <trkpt lat="45.23684" lon="5.80584">
        <ele>365.6</ele>
        <time>2025-03-21T12:49:13Z</time>
      </trkpt>
      <trkpt lat="45.23687" lon="5.8059">
        <ele>365.3</ele>
        <time>2025-03-21T12:49:15Z</time>
      </trkpt>
      <trkpt lat="45.23691" lon="5.80597">
        <ele>364.9</ele>
        <time>2025-03-21T12:49:17Z</time>
      </trkpt>
      <trkpt lat="45.23696" lon="5.80603">
        <ele>365</ele>
        <time>2025-03-21T12:49:19Z</time>
      </trkpt>
      <trkpt lat="45.237" lon="5.80611">
        <ele>365.9</ele>
        <time>2025-03-21T12:49:21Z</time>
      </trkpt>
      <trkpt lat="45.23704" lon="5.80619">
        <ele>366.5</ele>
        <time>2025-03-21T12:49:23Z</time>
      </trkpt>
      <trkpt lat="45.23707" lon="5.80626">
        <ele>366.9</ele>
        <time>2025-03-21T12:49:25Z</time>
      </trkpt>
      <trkpt lat="45.23711" lon="5.80632">
        <ele>367.2</ele>
        <time>2025-03-21T12:49:27Z</time>
      </trkpt>
      <trkpt lat="45.23716" lon="5.80638">
        <ele>367.5</ele>
        <time>2025-03-21T12:49:29Z</time>
      </trkpt>
      <trkpt lat="45.2372" lon="5.80645">
        <ele>368.2</ele>
        <time>2025-03-21T12:49:31Z</time>
      </trkpt>
      <trkpt lat="45.23725" lon="5.80652">
        <ele>368.7</ele>
        <time>2025-03-21T12:49:33Z</time>
      </trkpt>
      <trkpt lat="45.23729" lon="5.80659">
        <ele>369.4</ele>
        <time>2025-03-21T12:49:35Z</time>
      </trkpt>
      <trkpt lat="45.23732" lon="5.80666">
        <ele>370.9</ele>
        <time>2025-03-21T12:49:37Z</time>
      </trkpt>
      <trkpt lat="45.23735" lon="5.80672">
        <ele>371.4</ele>
        <time>2025-03-21T12:49:39Z</time>
      </trkpt>
      <trkpt lat="45.23739" lon="5.8068">
        <ele>371.5</ele>
        <time>2025-03-21T12:49:41Z</time>
      </trkpt>
      <trkpt lat="45.23743" lon="5.80686">
        <ele>371.5</ele>
        <time>2025-03-21T12:49:43Z</time>
      </trkpt>
      <trkpt lat="45.23747" lon="5.80693">
        <ele>371.8</ele>
        <time>2025-03-21T12:49:45Z</time>
      </trkpt>
      <trkpt lat="45.2375" lon="5.80699">
        <ele>371.8</ele>
        <time>2025-03-21T12:49:47Z</time>
      </trkpt>
      <trkpt lat="45.23753" lon="5.80706">
        <ele>371.6</ele>
        <time>2025-03-21T12:49:49Z</time>
      </trkpt>
      <trkpt lat="45.23755" lon="5.80714">
        <ele>371.4</ele>
        <time>2025-03-21T12:49:52Z</time>
      </trkpt>
      <trkpt lat="45.23759" lon="5.80719">
        <ele>371.5</ele>
        <time>2025-03-21T12:49:54Z</time>
      </trkpt>
      <trkpt lat="45.23764" lon="5.80724">
        <ele>371.2</ele>
        <time>2025-03-21T12:49:57Z</time>
      </trkpt>
      <trkpt lat="45.23769" lon="5.8072">
        <ele>371.1</ele>
        <time>2025-03-21T12:50:01Z</time>
      </trkpt>
      <trkpt lat="45.23772" lon="5.80715">
        <ele>371</ele>
        <time>2025-03-21T12:50:05Z</time>
      </trkpt>
      <trkpt lat="45.23777" lon="5.80711">
        <ele>370.7</ele>
        <time>2025-03-21T12:50:08Z</time>
      </trkpt>
      <trkpt lat="45.2378" lon="5.80707">
        <ele>372.5</ele>
        <time>2025-03-21T12:50:11Z</time>
      </trkpt>
      <trkpt lat="45.23785" lon="5.80704">
        <ele>374.1</ele>
        <time>2025-03-21T12:50:14Z</time>
      </trkpt>
      <trkpt lat="45.2379" lon="5.80704">
        <ele>375.5</ele>
        <time>2025-03-21T12:50:17Z</time>
      </trkpt>
      <trkpt lat="45.23796" lon="5.80702">
        <ele>377.3</ele>
        <time>2025-03-21T12:50:21Z</time>
      </trkpt>
      <trkpt lat="45.238" lon="5.80697">
        <ele>378</ele>
        <time>2025-03-21T12:50:25Z</time>
      </trkpt>
      <trkpt lat="45.23804" lon="5.80693">
        <ele>378.5</ele>
        <time>2025-03-21T12:50:29Z</time>
      </trkpt>
      <trkpt lat="45.23809" lon="5.80688">
        <ele>378.6</ele>
        <time>2025-03-21T12:50:33Z</time>
      </trkpt>
      <trkpt lat="45.23813" lon="5.80685">
        <ele>379.1</ele>
        <time>2025-03-21T12:50:37Z</time>
      </trkpt>
      <trkpt lat="45.23818" lon="5.80682">
        <ele>379.4</ele>
        <time>2025-03-21T12:50:41Z</time>
      </trkpt>
      <trkpt lat="45.23823" lon="5.80677">
        <ele>381.1</ele>
        <time>2025-03-21T12:50:45Z</time>
      </trkpt>
      <trkpt lat="45.23827" lon="5.80672">
        <ele>381.9</ele>
        <time>2025-03-21T12:50:49Z</time>
      </trkpt>
      <trkpt lat="45.23831" lon="5.80667">
        <ele>382.3</ele>
        <time>2025-03-21T12:50:53Z</time>
      </trkpt>
      <trkpt lat="45.23837" lon="5.80665">
        <ele>381.8</ele>
        <time>2025-03-21T12:50:57Z</time>
      </trkpt>
      <trkpt lat="45.23841" lon="5.80661">
        <ele>382.5</ele>
        <time>2025-03-21T12:51:01Z</time>
      </trkpt>
      <trkpt lat="45.23845" lon="5.80656">
        <ele>383.3</ele>
        <time>2025-03-21T12:51:05Z</time>
      </trkpt>
      <trkpt lat="45.2385" lon="5.80652">
        <ele>384.8</ele>
        <time>2025-03-21T12:51:09Z</time>
      </trkpt>
      <trkpt lat="45.23855" lon="5.80647">
        <ele>386.4</ele>
        <time>2025-03-21T12:51:13Z</time>
      </trkpt>
      <trkpt lat="45.2386" lon="5.80643">
        <ele>387.8</ele>
        <time>2025-03-21T12:51:17Z</time>
      </trkpt>
      <trkpt lat="45.23865" lon="5.80642">
        <ele>388.8</ele>
        <time>2025-03-21T12:51:21Z</time>
      </trkpt>
      <trkpt lat="45.2387" lon="5.80638">
        <ele>389.4</ele>
        <time>2025-03-21T12:51:25Z</time>
      </trkpt>
      <trkpt lat="45.23874" lon="5.80633">
        <ele>390.3</ele>
        <time>2025-03-21T12:51:29Z</time>
      </trkpt>
      <trkpt lat="45.23878" lon="5.80628">
        <ele>390.9</ele>
        <time>2025-03-21T12:51:33Z</time>
      </trkpt>
      <trkpt lat="45.23883" lon="5.80624">
        <ele>391.3</ele>
        <time>2025-03-21T12:51:37Z</time>
      </trkpt>
      <trkpt lat="45.23887" lon="5.8062">
        <ele>391</ele>
        <time>2025-03-21T12:51:41Z</time>
      </trkpt>
      <trkpt lat="45.23891" lon="5.80616">
        <ele>390.6</ele>
        <time>2025-03-21T12:51:44Z</time>
      </trkpt>
      <trkpt lat="45.23895" lon="5.80611">
        <ele>391.4</ele>
        <time>2025-03-21T12:51:48Z</time>
      </trkpt>
      <trkpt lat="45.23898" lon="5.80605">
        <ele>392.5</ele>
        <time>2025-03-21T12:51:52Z</time>
      </trkpt>
      <trkpt lat="45.23898" lon="5.80598">
        <ele>394.6</ele>
        <time>2025-03-21T12:51:56Z</time>
      </trkpt>
      <trkpt lat="45.23894" lon="5.80593">
        <ele>395.2</ele>
        <time>2025-03-21T12:51:59Z</time>
      </trkpt>
      <trkpt lat="45.2389" lon="5.80587">
        <ele>394.5</ele>
        <time>2025-03-21T12:52:02Z</time>
      </trkpt>
      <trkpt lat="45.23886" lon="5.80585">
        <ele>391.8</ele>
        <time>2025-03-21T12:52:05Z</time>
      </trkpt>
      <trkpt lat="45.23882" lon="5.80581">
        <ele>390.9</ele>
        <time>2025-03-21T12:52:10Z</time>
      </trkpt>
      <trkpt lat="45.23878" lon="5.80574">
        <ele>384.4</ele>
        <time>2025-03-21T12:52:17Z</time>
      </trkpt>
      <trkpt lat="45.23876" lon="5.80567">
        <ele>380</ele>
        <time>2025-03-21T12:52:22Z</time>
      </trkpt>
      <trkpt lat="45.23872" lon="5.8056">
        <ele>378.6</ele>
        <time>2025-03-21T12:52:25Z</time>
      </trkpt>
      <trkpt lat="45.23847" lon="5.80522">
        <ele>380.2</ele>
        <time>2025-03-21T12:52:27Z</time>
      </trkpt>
      <trkpt lat="45.23842" lon="5.80515">
        <ele>385.5</ele>
        <time>2025-03-21T12:52:28Z</time>
      </trkpt>
      <trkpt lat="45.2384" lon="5.80507">
        <ele>396.7</ele>
        <time>2025-03-21T12:52:30Z</time>
      </trkpt>
      <trkpt lat="45.23836" lon="5.80499">
        <ele>396.5</ele>
        <time>2025-03-21T12:52:32Z</time>
      </trkpt>
      <trkpt lat="45.23833" lon="5.80491">
        <ele>396.4</ele>
        <time>2025-03-21T12:52:34Z</time>
      </trkpt>
      <trkpt lat="45.23829" lon="5.80486">
        <ele>395.6</ele>
        <time>2025-03-21T12:52:36Z</time>
      </trkpt>
      <trkpt lat="45.23826" lon="5.80481">
        <ele>393.9</ele>
        <time>2025-03-21T12:52:38Z</time>
      </trkpt>
      <trkpt lat="45.23822" lon="5.80474">
        <ele>394.1</ele>
        <time>2025-03-21T12:52:40Z</time>
      </trkpt>
      <trkpt lat="45.23818" lon="5.80468">
        <ele>395.9</ele>
        <time>2025-03-21T12:52:42Z</time>
      </trkpt>
      <trkpt lat="45.23815" lon="5.80459">
        <ele>396</ele>
        <time>2025-03-21T12:52:44Z</time>
      </trkpt>
      <trkpt lat="45.23812" lon="5.80451">
        <ele>396</ele>
        <time>2025-03-21T12:52:46Z</time>
      </trkpt>
      <trkpt lat="45.2381" lon="5.80445">
        <ele>396</ele>
        <time>2025-03-21T12:52:48Z</time>
      </trkpt>
      <trkpt lat="45.23807" lon="5.80439">
        <ele>395.7</ele>
        <time>2025-03-21T12:52:50Z</time>
      </trkpt>
      <trkpt lat="45.23804" lon="5.80429">
        <ele>395.1</ele>
        <time>2025-03-21T12:52:53Z</time>
      </trkpt>
      <trkpt lat="45.23801" lon="5.8042">
        <ele>395.4</ele>
        <time>2025-03-21T12:52:55Z</time>
      </trkpt>
      <trkpt lat="45.23798" lon="5.80412">
        <ele>396.4</ele>
        <time>2025-03-21T12:52:57Z</time>
      </trkpt>
      <trkpt lat="45.23795" lon="5.80405">
        <ele>396.7</ele>
        <time>2025-03-21T12:52:59Z</time>
      </trkpt>
      <trkpt lat="45.23792" lon="5.80399">
        <ele>396.9</ele>
        <time>2025-03-21T12:53:01Z</time>
      </trkpt>
      <trkpt lat="45.2379" lon="5.80393">
        <ele>397</ele>
        <time>2025-03-21T12:53:03Z</time>
      </trkpt>
      <trkpt lat="45.23787" lon="5.80386">
        <ele>397</ele>
        <time>2025-03-21T12:53:05Z</time>
      </trkpt>
      <trkpt lat="45.23785" lon="5.8038">
        <ele>396.9</ele>
        <time>2025-03-21T12:53:07Z</time>
      </trkpt>
      <trkpt lat="45.23783" lon="5.80372">
        <ele>397</ele>
        <time>2025-03-21T12:53:10Z</time>
      </trkpt>
      <trkpt lat="45.23786" lon="5.80366">
        <ele>398.7</ele>
        <time>2025-03-21T12:53:13Z</time>
      </trkpt>
      <trkpt lat="45.2379" lon="5.80362">
        <ele>399.7</ele>
        <time>2025-03-21T12:53:16Z</time>
      </trkpt>
      <trkpt lat="45.23794" lon="5.80358">
        <ele>401.3</ele>
        <time>2025-03-21T12:53:19Z</time>
      </trkpt>
      <trkpt lat="45.23795" lon="5.80351">
        <ele>402</ele>
        <time>2025-03-21T12:53:22Z</time>
      </trkpt>
      <trkpt lat="45.23794" lon="5.80344">
        <ele>402.2</ele>
        <time>2025-03-21T12:53:25Z</time>
      </trkpt>
      <trkpt lat="45.23791" lon="5.80336">
        <ele>401.4</ele>
        <time>2025-03-21T12:53:28Z</time>
      </trkpt>
      <trkpt lat="45.23789" lon="5.80331">
        <ele>400.7</ele>
        <time>2025-03-21T12:53:30Z</time>
      </trkpt>
      <trkpt lat="45.23786" lon="5.80325">
        <ele>400.4</ele>
        <time>2025-03-21T12:53:32Z</time>
      </trkpt>
      <trkpt lat="45.23783" lon="5.8032">
        <ele>400</ele>
        <time>2025-03-21T12:53:34Z</time>
      </trkpt>
      <trkpt lat="45.2378" lon="5.80313">
        <ele>399.9</ele>
        <time>2025-03-21T12:53:36Z</time>
      </trkpt>
      <trkpt lat="45.23777" lon="5.80308">
        <ele>400.5</ele>
        <time>2025-03-21T12:53:38Z</time>
      </trkpt>
      <trkpt lat="45.23774" lon="5.80301">
        <ele>400.6</ele>
        <time>2025-03-21T12:53:40Z</time>
      </trkpt>
      <trkpt lat="45.23771" lon="5.80298">
        <ele>402.3</ele>
        <time>2025-03-21T12:53:45Z</time>
      </trkpt>
      <trkpt lat="45.23767" lon="5.80293">
        <ele>403</ele>
        <time>2025-03-21T12:53:55Z</time>
      </trkpt>
      <trkpt lat="45.23765" lon="5.80285">
        <ele>403.6</ele>
        <time>2025-03-21T12:54:00Z</time>
      </trkpt>
      <trkpt lat="45.23764" lon="5.80279">
        <ele>404</ele>
        <time>2025-03-21T12:54:04Z</time>
      </trkpt>
      <trkpt lat="45.23764" lon="5.80272">
        <ele>404.1</ele>
        <time>2025-03-21T12:54:08Z</time>
      </trkpt>
      <trkpt lat="45.23766" lon="5.80266">
        <ele>408.3</ele>
        <time>2025-03-21T12:54:13Z</time>
      </trkpt>
      <trkpt lat="45.23771" lon="5.80262">
        <ele>410.4</ele>
        <time>2025-03-21T12:54:20Z</time>
      </trkpt>
      <trkpt lat="45.23776" lon="5.80257">
        <ele>409</ele>
        <time>2025-03-21T12:54:24Z</time>
      </trkpt>
      <trkpt lat="45.23782" lon="5.80253">
        <ele>408.6</ele>
        <time>2025-03-21T12:54:27Z</time>
      </trkpt>
      <trkpt lat="45.23787" lon="5.8025">
        <ele>408.1</ele>
        <time>2025-03-21T12:54:30Z</time>
      </trkpt>
      <trkpt lat="45.23793" lon="5.80246">
        <ele>408</ele>
        <time>2025-03-21T12:54:33Z</time>
      </trkpt>
      <trkpt lat="45.23799" lon="5.80243">
        <ele>407.8</ele>
        <time>2025-03-21T12:54:36Z</time>
      </trkpt>
      <trkpt lat="45.23803" lon="5.8024">
        <ele>407.9</ele>
        <time>2025-03-21T12:54:40Z</time>
      </trkpt>
    </trkseg>
  </trk>
</gpx>